Provisional Data: Sing Sing Creek near Big Flats, NY


Please select a monitoring station.
Please select start date.
Please select start date.

Toggle Unit: C/F Toggle Unit: C/F
Sample Time Temperature (C) Temperature (F) Specific Conductivity (mS/cm) pH   Turbidity (NTU+) DO (mg/L)
5/17/2022 12:00:00 AM 15.5 59.9 0.194 7.48 59.82 8.72
5/17/2022 12:15:00 AM 15.41 59.738 0.196 7.48 57.43 8.74
5/17/2022 12:30:00 AM 15.32 59.576 0.199 7.49 60.79 8.75
5/17/2022 12:45:00 AM 15.22 59.396 0.201 7.49 50.26 8.77
5/17/2022 1:00:00 AM 15.13 59.234 0.204 7.5 52.46 8.77
5/17/2022 1:15:00 AM 15.04 59.072 0.205 7.49 47.57 8.79
5/17/2022 1:30:00 AM 14.94 58.892 0.123 7.5 47.19 8.81
5/17/2022 1:45:00 AM 14.85 58.73 0.211 7.51 43.32 8.82
5/17/2022 2:00:00 AM 14.75 58.55 0.214 7.51 45.2 8.83
5/17/2022 2:15:00 AM 14.65 58.37 0.216 7.51 42.53 8.85
5/17/2022 2:30:00 AM 14.56 58.208 0.218 7.51 40.13 8.86
5/17/2022 2:45:00 AM 14.47 58.046 0.22 7.52 42.71 8.87
5/17/2022 3:00:00 AM 14.39 57.902 0.222 7.52 37.77 8.89
5/17/2022 3:15:00 AM 14.31 57.758 0.223 7.52 32.96 8.91
5/17/2022 3:30:00 AM 14.23 57.614 0.225 7.53 35.23 8.92
5/17/2022 3:45:00 AM 14.16 57.488 0.227 7.53 39.16 8.93
5/17/2022 4:00:00 AM 14.09 57.362 0.229 7.53 32.88 8.94
5/17/2022 4:15:00 AM 14.03 57.254 0.23 7.53 31.14 8.96
5/17/2022 4:30:00 AM 13.96 57.128 0.232 7.54 33.77 8.97
5/17/2022 4:45:00 AM 13.89 57.002 0.232 7.54 30.76 8.99
5/17/2022 5:00:00 AM 13.83 56.894 0.236 7.55 31.02 9.01
5/17/2022 5:15:00 AM 13.76 56.768 0.237 7.55 30.83 9.02
5/17/2022 5:30:00 AM 13.7 56.66 0.239 7.55 29.24 9.03
5/17/2022 5:45:00 AM 13.62 56.516 0.24 7.55 29.39 9.05
5/17/2022 6:00:00 AM 13.56 56.408 0.242 7.55 28.35 9.07
5/17/2022 6:15:00 AM 13.5 56.3 0.244 7.56 28.26 9.09
5/17/2022 6:30:00 AM 13.44 56.192 0.245 7.56 24.86 9.1
5/17/2022 6:45:00 AM 13.38 56.084 0.247 7.57 24.84 9.11
5/17/2022 7:00:00 AM 13.33 55.994 0.248 7.57 25.03 9.12
5/17/2022 7:15:00 AM 13.29 55.922 0.25 7.58 22.32 9.15
5/17/2022 7:30:00 AM 13.26 55.868 0.252 7.58 22.8 9.18
5/17/2022 7:45:00 AM 13.23 55.814 0.254 7.59 20.84 9.21
5/17/2022 8:00:00 AM 13.21 55.778 0.255 7.6 21.41 9.24
5/17/2022 8:15:00 AM 13.18 55.724 0.257 7.6 19.47 9.28
5/17/2022 8:30:00 AM 13.18 55.724 0.259 7.62 19.98 9.33
5/17/2022 8:45:00 AM 13.18 55.724 0.26 7.62 18.81 9.38
5/17/2022 9:00:00 AM 13.19 55.742 0.262 7.63 19.77 9.44
5/17/2022 9:15:00 AM 13.2 55.76 0.263 7.64 18.54 9.48
5/17/2022 9:30:00 AM 13.22 55.796 0.265 7.65 19.34 9.54
5/17/2022 9:45:00 AM 13.27 55.886 0.266 7.67 17.84 9.61
5/17/2022 10:00:00 AM 13.34 56.012 0.268 7.68 16.97 9.68
5/17/2022 10:15:00 AM 13.36 56.048 0.269 7.69 17.88 9.73
5/17/2022 10:30:00 AM 13.42 56.156 0.27 7.7 18.28 9.81
5/17/2022 10:45:00 AM 13.53 56.354 0.271 7.72 15.45 9.9
5/17/2022 11:00:00 AM 13.61 56.498 0.273 7.74 19.18 9.97
5/17/2022 11:15:00 AM 13.72 56.696 0.274 7.76 15.63 10.03
5/17/2022 11:30:00 AM 13.83 56.894 0.275 7.77 16.21 10.08
5/17/2022 11:45:00 AM 13.87 56.966 0.277 7.78 18.84 10.12
5/17/2022 12:00:00 PM 14.02 57.236 0.278 7.8 15.52 10.18
5/17/2022 12:15:00 PM 14.21 57.578 0.279 7.81 14.32 10.25
5/17/2022 12:30:00 PM 14.39 57.902 0.28 7.83 15.48 10.31
5/17/2022 12:45:00 PM 14.6 58.28 0.281 7.85 14.25 10.36
5/17/2022 1:00:00 PM 14.82 58.676 0.283 7.87 15.23 10.42
5/17/2022 1:15:00 PM 15.07 59.126 0.284 7.89 14.59 10.48
5/17/2022 1:30:00 PM 15.27 59.486 0.285 7.91 14.85 10.51
5/17/2022 1:45:00 PM 15.56 60.008 0.286 7.92 13.6 10.56
5/17/2022 2:00:00 PM 15.8 60.44 0.269 7.94 14.78 10.59
5/17/2022 2:15:00 PM 16 60.8 0.289 7.96 15.06 10.6
5/17/2022 2:30:00 PM 16.29 61.322 0.29 7.98 13.44 10.63
5/17/2022 2:45:00 PM 16.52 61.736 0.292 8 13.08 10.65
5/17/2022 3:00:00 PM 16.68 62.024 0.293 8.01 12.3 10.64
5/17/2022 3:15:00 PM 16.73 62.114 0.295 8.02 12.41 10.62
5/17/2022 3:30:00 PM 16.79 62.222 0.296 8.04 11.89 10.6
5/17/2022 3:45:00 PM 16.84 62.312 0.297 8.05 12.17 10.57
5/17/2022 4:00:00 PM 16.83 62.294 0.298 8.05 11.64 10.54
5/17/2022 4:15:00 PM 16.77 62.186 0.299 8.05 11.81 10.46
5/17/2022 4:30:00 PM 16.71 62.078 0.3 8.06 12.25 10.43
5/17/2022 4:45:00 PM 16.66 61.988 0.301 8.06 11.76 10.38
5/17/2022 5:00:00 PM 16.6 61.88 0.301 8.06 11.91 10.35
5/17/2022 5:15:00 PM 16.53 61.754 0.302 8.06 11.7 10.31
5/17/2022 5:30:00 PM 16.46 61.628 0.303 8.06 12.02 10.26
5/17/2022 5:45:00 PM 16.43 61.574 0.304 8.05 11.19 10.22
5/17/2022 6:00:00 PM 16.4 61.52 0.304 8.05 11.87 10.17
5/17/2022 6:15:00 PM 16.36 61.448 0.305 8.04 11.2 10.09
5/17/2022 6:30:00 PM 16.33 61.394 0.306 8.03 12.41 10.05
5/17/2022 6:45:00 PM 16.28 61.304 0.306 8.03 11.36 9.98
5/17/2022 7:00:00 PM 16.23 61.214 0.307 8.02 11.89 9.93
5/17/2022 7:15:00 PM 16.17 61.106 0.308 8.01 11.18 9.86
5/17/2022 7:30:00 PM 16.12 61.016 0.304 7.99 13 9.78
5/17/2022 7:45:00 PM 16.07 60.926 0.309 7.98 12.36 9.7
5/17/2022 8:00:00 PM 16.01 60.818 0.31 7.97 11.47 9.62
5/17/2022 8:15:00 PM 15.95 60.71 0.311 7.95 11.51 9.53
5/17/2022 8:30:00 PM 15.88 60.584 0.312 7.94 11.56 9.45
5/17/2022 8:45:00 PM 15.82 60.476 0.313 7.92 11.75 9.37
5/17/2022 9:00:00 PM 15.78 60.404 0.313 7.9 11.12 9.29
5/17/2022 9:15:00 PM 15.73 60.314 0.314 7.89 12.38 9.21
5/17/2022 9:30:00 PM 15.68 60.224 0.315 7.87 11.06 9.14
5/17/2022 9:45:00 PM 15.64 60.152 0.316 7.86 12.02 9.07
5/17/2022 10:00:00 PM 15.59 60.062 0.317 7.84 12.39 9.01
5/17/2022 10:15:00 PM 15.53 59.954 0.318 7.83 11.59 8.94
5/17/2022 10:30:00 PM 15.49 59.882 0.314 7.82 12.7 8.89
5/17/2022 10:45:00 PM 15.43 59.774 0.32 7.81 11.29 8.84
5/17/2022 11:00:00 PM 15.36 59.648 0.318 7.79 12.34 8.8
5/17/2022 11:15:00 PM 15.3 59.54 0.322 7.78 12.97 8.75
5/17/2022 11:30:00 PM 15.23 59.414 0.323 7.77 13.11 8.71
5/17/2022 11:45:00 PM 15.16 59.288 0.324 7.77 12.22 8.69
5/18/2022 12:00:00 AM 15.1 59.18 0.325 7.76 11.43 8.66
5/18/2022 12:15:00 AM 15.03 59.054 0.322 7.75 12.57 8.64
5/18/2022 12:30:00 AM 14.96 58.928 0.327 7.75 12.23 8.63
5/18/2022 12:45:00 AM 14.89 58.802 0.328 7.74 12.86 8.6
5/18/2022 1:00:00 AM 14.81 58.658 0.329 7.74 11.55 8.58
5/18/2022 1:15:00 AM 14.74 58.532 0.33 7.73 11.64 8.57
5/18/2022 1:30:00 AM 14.67 58.406 0.331 7.73 12.43 8.57
5/18/2022 1:45:00 AM 14.6 58.28 0.332 7.72 13.16 8.56
5/18/2022 2:00:00 AM 14.53 58.154 0.333 7.72 13.41 8.57
5/18/2022 2:15:00 AM 14.45 58.01 0.333 7.71 14.54 8.58
5/18/2022 2:30:00 AM 14.38 57.884 0.327 7.71 13.89 8.59
5/18/2022 2:45:00 AM 14.31 57.758 0.336 7.71 15.53 8.59
5/18/2022 3:00:00 AM 14.23 57.614 0.337 7.7 14.89 8.59
5/18/2022 3:15:00 AM 14.15 57.47 0.338 7.7 15.27 8.6
5/18/2022 3:30:00 AM 14.08 57.344 0.339 7.7 15.23 8.6
5/18/2022 3:45:00 AM 14.01 57.218 0.34 7.7 14.5 8.61
5/18/2022 4:00:00 AM 13.95 57.11 0.341 7.7 14.11 8.61
5/18/2022 4:15:00 AM 13.89 57.002 0.336 7.69 13.94 8.63
5/18/2022 4:30:00 AM 13.82 56.876 0.343 7.7 13.01 8.63
5/18/2022 4:45:00 AM 13.76 56.768 0.344 7.69 12.7 8.64
5/18/2022 5:00:00 AM 13.7 56.66 0.345 7.69 12.55 8.65
5/18/2022 5:15:00 AM 13.63 56.534 0.345 7.69 12.22 8.67
5/18/2022 5:30:00 AM 13.57 56.426 0.346 7.7 11.69 8.68
5/18/2022 5:45:00 AM 13.5 56.3 0.347 7.69 11.53 8.68
5/18/2022 6:00:00 AM 13.43 56.174 0.348 7.69 10.99 8.7
5/18/2022 6:15:00 AM 13.35 56.03 0.348 7.69 11.19 8.74
5/18/2022 6:30:00 AM 13.27 55.886 0.349 7.69 10.96 8.76
5/18/2022 6:45:00 AM 13.2 55.76 0.349 7.69 12.13 8.81
5/18/2022 7:00:00 AM 13.11 55.598 0.349 7.7 11.37 8.85
5/18/2022 7:15:00 AM 13.02 55.436 0.351 7.7 10.24 8.88
5/18/2022 7:30:00 AM 12.94 55.292 0.351 7.7 9.84 8.92
5/18/2022 7:45:00 AM 12.85 55.13 0.352 7.7 10.43 8.97
5/18/2022 8:00:00 AM 12.77 54.986 0.352 7.71 12.19 9.03
5/18/2022 8:15:00 AM 12.7 54.86 0.352 7.71 11 9.08
5/18/2022 8:30:00 AM 12.64 54.752 0.353 7.72 10.24 9.14
5/18/2022 8:45:00 AM 12.59 54.662 0.353 7.72 9.51 9.22
5/18/2022 9:00:00 AM 12.55 54.59 0.354 7.73 10.47 9.31
5/18/2022 9:15:00 AM 12.56 54.608 0.354 7.74 10.41 9.39
5/18/2022 9:30:00 AM 12.55 54.59 0.355 7.75 9.68 9.48
5/18/2022 9:45:00 AM 12.57 54.626 0.35 7.76 10.12 9.59
5/18/2022 10:00:00 AM 12.63 54.734 0.356 7.77 9.68 9.7
5/18/2022 10:15:00 AM 12.72 54.896 0.356 7.79 9.33 9.83
5/18/2022 10:30:00 AM 12.82 55.076 0.357 7.81 9.88 9.97
5/18/2022 10:45:00 AM 12.93 55.274 0.358 7.83 9.45 10.1
5/18/2022 11:00:00 AM 13.07 55.526 0.358 7.85 9.5 10.24
5/18/2022 11:15:00 AM 13.23 55.814 0.358 7.86 8.67 10.36
5/18/2022 11:30:00 AM 13.35 56.03 0.359 7.87 25.52 10.48
5/18/2022 11:45:00 AM 13.46 56.228 0.359 7.9 9.67 10.62
5/18/2022 12:00:00 PM 13.65 56.57 0.36 7.92 8.16 10.74
5/18/2022 12:15:00 PM 13.83 56.894 0.361 7.95 6.29 10.82
5/18/2022 12:30:00 PM 14.04 57.272 0.361 7.97 6.19 10.91
5/18/2022 12:45:00 PM 14.29 57.722 0.362 7.99 6 11.01
5/18/2022 1:00:00 PM 14.52 58.136 0.362 8.01 7.77 11.1
5/18/2022 1:15:00 PM 14.78 58.604 0.363 8.03 7.97 11.16
5/18/2022 1:30:00 PM 15.04 59.072 0.364 8.06 6.21 11.25
5/18/2022 1:45:00 PM 15.31 59.558 0.361 8.06 16.69 11.26
5/18/2022 2:00:00 PM 15.51 59.918 0.365 8.09 7.47 11.33
5/18/2022 2:15:00 PM 15.76 60.368 0.366 8.11 6.68 11.35
5/18/2022 2:30:00 PM 15.95 60.71 0.366 8.13 6.69 11.37
5/18/2022 2:45:00 PM 16.1 60.98 0.367 8.15 6.97 11.39
5/18/2022 3:00:00 PM 16.19 61.142 0.369 8.16 7.45 11.38
5/18/2022 3:15:00 PM 16.33 61.394 0.369 8.18 6.08 11.39
5/18/2022 3:30:00 PM 16.39 61.502 0.37 8.19 5.9 11.37
5/18/2022 3:45:00 PM 16.4 61.52 0.371 8.2 7.06 11.33
5/18/2022 4:00:00 PM 16.39 61.502 0.37 8.2 5.75 11.26
5/18/2022 4:15:00 PM 16.37 61.466 0.371 8.2 5.85 11.13
5/18/2022 4:30:00 PM 16.34 61.412 0.372 8.19 6.84 11.03
5/18/2022 4:45:00 PM 16.3 61.34 0.372 8.18 5.84 10.92
5/18/2022 5:00:00 PM 16.27 61.286 0.373 8.18 5.81 10.81
5/18/2022 5:15:00 PM 16.23 61.214 0.373 8.17 5.47 10.71
5/18/2022 5:30:00 PM 16.2 61.16 0.376 8.17 7.17 10.63
5/18/2022 5:45:00 PM 16.15 61.07 0.374 8.16 5.73 10.52
5/18/2022 6:00:00 PM 16.1 60.98 0.375 8.14 5.55 10.41
5/18/2022 6:15:00 PM 16.04 60.872 0.375 8.13 5.94 10.31
5/18/2022 6:30:00 PM 15.98 60.764 0.375 8.12 5.61 10.23
5/18/2022 6:45:00 PM 15.91 60.638 0.376 8.11 7.65 10.14
5/18/2022 7:00:00 PM 15.83 60.494 0.376 8.1 5.73 10.05
5/18/2022 7:15:00 PM 15.75 60.35 0.376 8.08 9.79 9.97
5/18/2022 7:30:00 PM 15.68 60.224 0.376 8.08 5.73 9.9
5/18/2022 7:45:00 PM 15.6 60.08 0.376 8.06 6 9.83
5/18/2022 8:00:00 PM 15.51 59.918 0.378 8.05 6.97 9.74
5/18/2022 8:15:00 PM 15.43 59.774 0.377 8.03 7.55 9.65
5/18/2022 8:30:00 PM 15.34 59.612 0.377 8.01 6.28 9.52
5/18/2022 8:45:00 PM 15.26 59.468 0.377 7.99 6.31 9.41
5/18/2022 9:00:00 PM 15.19 59.342 0.359 7.97 7.99 9.35
5/18/2022 9:15:00 PM 15.12 59.216 0.376 7.96 7.83 9.27
5/18/2022 9:30:00 PM 15.06 59.108 0.376 7.94 7.56 9.21
5/18/2022 9:45:00 PM 15 59 0.376 7.92 7.78 9.14
5/18/2022 10:00:00 PM 14.95 58.91 0.377 7.91 6.29 9.07
5/18/2022 10:15:00 PM 14.9 58.82 0.374 7.89 8.53 9.01
5/18/2022 10:30:00 PM 14.86 58.748 0.376 7.88 7.94 8.96
5/18/2022 10:45:00 PM 14.82 58.676 0.376 7.86 8.07 8.91
5/18/2022 11:00:00 PM 14.78 58.604 0.252 7.85 8.29 8.85
5/18/2022 11:15:00 PM 14.75 58.55 0.321 7.84 8.24 8.83
5/18/2022 11:30:00 PM 14.72 58.496 0.376 7.84 7.34 8.75
5/18/2022 11:45:00 PM 14.69 58.442 0.367 7.82 8.42 8.72
5/19/2022 12:00:00 AM 14.67 58.406 0.376 7.81 7.59 8.65
5/19/2022 12:15:00 AM 14.65 58.37 0.376 7.8 7.13 8.6
5/19/2022 12:30:00 AM 14.62 58.316 0.377 7.79 7.08 8.57
5/19/2022 12:45:00 AM 14.59 58.262 0.377 7.78 7.32 8.54
5/19/2022 1:00:00 AM 14.56 58.208 0.377 7.77 8.63 8.52
5/19/2022 1:15:00 AM 14.53 58.154 0.378 7.77 7.43 8.49
5/19/2022 1:30:00 AM 14.5 58.1 0.373 7.76 8.33 8.48
5/19/2022 1:45:00 AM 14.47 58.046 0.379 7.76 8.68 8.47
5/19/2022 2:00:00 AM 14.44 57.992 0.38 7.75 7.14 8.44
5/19/2022 2:15:00 AM 14.41 57.938 0.38 7.75 8.83 8.45
5/19/2022 2:30:00 AM 14.38 57.884 0.38 7.75 7.25 8.42
5/19/2022 2:45:00 AM 14.35 57.83 0.381 7.74 7.24 8.41
5/19/2022 3:00:00 AM 14.32 57.776 0.381 7.74 7.19 8.41
5/19/2022 3:15:00 AM 14.29 57.722 0.382 7.73 7.36 8.41
5/19/2022 3:30:00 AM 14.26 57.668 0.383 7.73 7.32 8.41
5/19/2022 3:45:00 AM 14.23 57.614 0.367 7.73 8.62 8.42
5/19/2022 4:00:00 AM 14.19 57.542 0.384 7.73 8.42 8.42
5/19/2022 4:15:00 AM 14.16 57.488 0.386 7.73 7.12 8.4
5/19/2022 4:30:00 AM 14.13 57.434 0.387 7.73 7.23 8.4
5/19/2022 4:45:00 AM 14.09 57.362 0.39 7.72 8.41 8.42
5/19/2022 5:00:00 AM 14.06 57.308 0.342 7.72 19.9 8.43
5/19/2022 5:15:00 AM 14.02 57.236 0.391 7.72 7.02 8.42
5/19/2022 5:30:00 AM 13.99 57.182 0.379 7.72 8.6 8.45
5/19/2022 5:45:00 AM 13.95 57.11 0.392 7.72 6.98 8.44
5/19/2022 6:00:00 AM 13.92 57.056 0.36 7.72 8.31 8.48
5/19/2022 6:15:00 AM 13.88 56.984 0.393 7.72 6.62 8.47
5/19/2022 6:30:00 AM 13.85 56.93 0.261 7.72 8.05 8.5
5/19/2022 6:45:00 AM 13.83 56.894 0.394 7.72 7.63 8.52
5/19/2022 7:00:00 AM 13.8 56.84 0.394 7.72 7.44 8.52
5/19/2022 7:15:00 AM 13.77 56.786 0.394 7.72 5.94 8.52
5/19/2022 7:30:00 AM 13.75 56.75 0.394 7.73 6.09 8.56
5/19/2022 7:45:00 AM 13.74 56.732 0.395 7.73 7.46 8.6
5/19/2022 8:00:00 AM 13.72 56.696 0.395 7.73 7.19 8.64
5/19/2022 8:15:00 AM 13.71 56.678 0.395 7.74 5.84 8.64
5/19/2022 8:30:00 AM 13.7 56.66 0.394 7.74 6.09 8.69
5/19/2022 8:45:00 AM 13.71 56.678 0.394 7.74 7.3 8.77
5/19/2022 9:00:00 AM 13.72 56.696 0.393 7.75 7.03 8.85
5/19/2022 9:15:00 AM 13.76 56.768 0.392 7.75 7.59 8.94
5/19/2022 9:30:00 AM 13.78 56.804 0.39 7.76 5.63 8.98
5/19/2022 9:45:00 AM 13.79 56.822 0.387 7.76 6.93 9.08
5/19/2022 10:00:00 AM 13.82 56.876 0.386 7.77 6.86 9.18
5/19/2022 10:15:00 AM 13.86 56.948 0.386 7.79 5.49 9.28
5/19/2022 10:30:00 AM 13.95 57.11 0.388 7.8 5.51 9.39
5/19/2022 10:45:00 AM 13.98 57.164 0.396 7.81 7.18 9.51
5/19/2022 11:00:00 AM 14.01 57.218 0.397 7.83 5.5 9.59
5/19/2022 11:15:00 AM 14.07 57.326 0.403 7.84 7.1 9.69
5/19/2022 11:30:00 AM 14.1 57.38 0.408 7.85 7.07 9.74
5/19/2022 11:45:00 AM 14.09 57.362 0.412 7.85 7.76 9.79
5/19/2022 12:00:00 PM 14.08 57.344 0.413 7.86 5.83 9.84
5/19/2022 12:15:00 PM 14.12 57.416 0.379 7.87 7.01 9.96
5/19/2022 12:30:00 PM 14.2 57.56 0.407 7.88 6.1 10.06
5/19/2022 12:45:00 PM 14.29 57.722 0.401 7.9 5.93 10.16
5/19/2022 1:00:00 PM 14.35 57.83 0.393 7.91 5.99 10.24
5/19/2022 1:15:00 PM 14.39 57.902 0.385 7.92 5.73 10.32
5/19/2022 1:30:00 PM 14.43 57.974 0.376 7.94 6.94 10.41
5/19/2022 1:45:00 PM 14.51 58.118 0.214 7.95 7.09 10.49
5/19/2022 2:00:00 PM 14.65 58.37 0.273 7.98 7.11 10.58
5/19/2022 2:15:00 PM 14.64 58.352 0.36 7.99 7.03 10.59
5/19/2022 2:30:00 PM 14.89 58.802 0.274 8.01 7.15 10.72
5/19/2022 2:45:00 PM 15.08 59.144 0.357 8.03 5.15 10.76
5/19/2022 3:00:00 PM 15.11 59.198 0.356 8.04 5.25 10.74
5/19/2022 3:15:00 PM 15.28 59.504 0.357 8.07 5.13 10.8
5/19/2022 3:30:00 PM 15.36 59.648 0.35 8.08 6.79 10.84
5/19/2022 3:45:00 PM 15.46 59.828 0.358 8.1 6.63 10.86
5/19/2022 4:00:00 PM 15.59 60.062 0.359 8.11 5.19 10.86
5/19/2022 4:15:00 PM 15.8 60.44 0.359 8.13 5.37 10.9
5/19/2022 4:30:00 PM 15.91 60.638 0.36 8.14 5.38 10.87
5/19/2022 4:45:00 PM 16.02 60.836 0.361 8.16 5.46 10.88
5/19/2022 5:00:00 PM 16.11 60.998 0.361 8.16 5.27 10.86
5/19/2022 5:15:00 PM 16.19 61.142 0.361 8.17 5.22 10.84
5/19/2022 5:30:00 PM 16.27 61.286 0.361 8.19 5.19 10.84
5/19/2022 5:45:00 PM 16.32 61.376 0.361 8.19 5.31 10.78
5/19/2022 6:00:00 PM 16.36 61.448 0.36 8.19 5.29 10.72
5/19/2022 6:15:00 PM 16.38 61.484 0.354 8.19 6.78 10.68
5/19/2022 6:30:00 PM 16.39 61.502 0.357 8.19 5.73 10.59
5/19/2022 6:45:00 PM 16.4 61.52 0.356 8.19 5.52 10.52
5/19/2022 7:00:00 PM 16.39 61.502 0.355 8.18 5.5 10.43
5/19/2022 7:15:00 PM 16.38 61.484 0.353 8.17 5.57 10.34
5/19/2022 7:30:00 PM 16.35 61.43 0.351 8.16 5.22 10.26
5/19/2022 7:45:00 PM 16.31 61.358 0.35 8.15 5.44 10.17
5/19/2022 8:00:00 PM 16.27 61.286 0.349 8.14 5.8 10.07
5/19/2022 8:15:00 PM 16.22 61.196 0.348 8.12 6.15 9.96
5/19/2022 8:30:00 PM 16.16 61.088 0.347 8.11 5.7 9.86
5/19/2022 8:45:00 PM 16.09 60.962 0.346 8.09 5.86 9.77
5/19/2022 9:00:00 PM 16.02 60.836 0.346 8.07 6.07 9.67
5/19/2022 9:15:00 PM 15.95 60.71 0.346 8.05 5.68 9.55
5/19/2022 9:30:00 PM 15.88 60.584 0.346 8.03 5.89 9.45
5/19/2022 9:45:00 PM 15.82 60.476 0.214 8 7.69 9.38
5/19/2022 10:00:00 PM 15.75 60.35 0.347 7.99 5.68 9.27
5/19/2022 10:15:00 PM 15.68 60.224 0.348 7.96 6.27 9.18
5/19/2022 10:30:00 PM 15.61 60.098 0.348 7.94 6.07 9.1
5/19/2022 10:45:00 PM 15.55 59.99 0.349 7.92 6.61 9.01
5/19/2022 11:00:00 PM 15.49 59.882 0.35 7.89 7.21 8.94
5/19/2022 11:15:00 PM 15.43 59.774 0.35 7.87 8.3 8.87
5/19/2022 11:30:00 PM 15.38 59.684 0.351 7.86 6.16 8.79
5/19/2022 11:45:00 PM 15.32 59.576 0.352 7.84 6.53 8.72
5/20/2022 12:00:00 AM 15.27 59.486 0.352 7.82 8.01 8.66
5/20/2022 12:15:00 AM 15.23 59.414 0.353 7.81 5.99 8.59
5/20/2022 12:30:00 AM 15.17 59.306 0.343 7.79 8.42 8.57
5/20/2022 12:45:00 AM 15.12 59.216 0.355 7.79 6.43 8.53
5/20/2022 1:00:00 AM 15.06 59.108 0.355 7.77 5.97 8.49
5/20/2022 1:15:00 AM 15.01 59.018 0.356 7.76 6.12 8.45
5/20/2022 1:30:00 AM 14.96 58.928 0.357 7.75 7.83 8.45
5/20/2022 1:45:00 AM 14.9 58.82 0.358 7.74 7.52 8.44
5/20/2022 2:00:00 AM 14.84 58.712 0.358 7.74 7.91 8.42
5/20/2022 2:15:00 AM 14.79 58.622 0.359 7.73 6.26 8.41
5/20/2022 2:30:00 AM 14.74 58.532 0.36 7.73 6.57 8.4
5/20/2022 2:45:00 AM 14.67 58.406 0.361 7.72 6.33 8.4
5/20/2022 3:00:00 AM 14.6 58.28 0.361 7.72 7.75 8.41
5/20/2022 3:15:00 AM 14.54 58.172 0.362 7.71 7.75 8.4
5/20/2022 3:30:00 AM 14.49 58.082 0.363 7.71 8.42 8.4
5/20/2022 3:45:00 AM 14.44 57.992 0.364 7.71 11.08 8.39
5/20/2022 4:00:00 AM 14.38 57.884 0.365 7.71 7.84 8.41
5/20/2022 4:15:00 AM 14.34 57.812 0.365 7.71 6.39 8.4
5/20/2022 4:30:00 AM 14.29 57.722 0.356 7.7 7.72 8.41
5/20/2022 4:45:00 AM 14.24 57.632 0.367 7.7 5.85 8.39
5/20/2022 5:00:00 AM 14.2 57.56 0.368 7.7 6.4 8.39
5/20/2022 5:15:00 AM 14.15 57.47 0.368 7.7 6.41 8.4
5/20/2022 5:30:00 AM 14.11 57.398 0.261 7.7 7.48 8.43
5/20/2022 5:45:00 AM 14.06 57.308 0.37 7.7 6.38 8.42
5/20/2022 6:00:00 AM 14.02 57.236 0.366 7.7 7.76 8.43
5/20/2022 6:15:00 AM 13.97 57.146 0.372 7.7 6.25 8.43
5/20/2022 6:30:00 AM 13.93 57.074 0.373 7.7 6.09 8.47
5/20/2022 6:45:00 AM 13.89 57.002 0.374 7.7 5.73 8.49
5/20/2022 7:00:00 AM 13.85 56.93 0.375 7.71 6.1 8.55
5/20/2022 7:15:00 AM 13.82 56.876 0.376 7.71 5.83 8.57
5/20/2022 7:30:00 AM 13.78 56.804 0.377 7.71 5.33 8.6
5/20/2022 7:45:00 AM 13.75 56.75 0.316 7.71 6.85 8.69
5/20/2022 8:00:00 AM 13.74 56.732 0.379 7.72 5.31 8.72
5/20/2022 8:15:00 AM 13.73 56.714 0.38 7.72 5.49 8.79
5/20/2022 8:30:00 AM 13.75 56.75 0.381 7.73 6.52 8.9
5/20/2022 8:45:00 AM 13.76 56.768 0.382 7.75 5.58 9
5/20/2022 9:00:00 AM 13.8 56.84 0.383 7.75 10.56 9.11
5/20/2022 9:15:00 AM 13.82 56.876 0.384 7.77 7.52 9.2
5/20/2022 9:30:00 AM 13.87 56.966 0.385 7.78 5.83 9.27
5/20/2022 9:45:00 AM 13.88 56.984 0.386 7.79 5.18 9.32
5/20/2022 10:00:00 AM 13.93 57.074 0.386 7.8 5.38 9.47
5/20/2022 10:15:00 AM 13.98 57.164 0.372 7.81 6.73 9.59
5/20/2022 10:30:00 AM 14.03 57.254 0.389 7.83 5.02 9.66
5/20/2022 10:45:00 AM 14.12 57.416 0.39 7.85 5.19 9.81
5/20/2022 11:00:00 AM 14.26 57.668 0.39 7.87 5.07 9.95
5/20/2022 11:15:00 AM 14.33 57.794 0.391 7.89 6.56 10.08
5/20/2022 11:30:00 AM 14.37 57.866 0.392 7.9 6.44 10.14
5/20/2022 11:45:00 AM 14.41 57.938 0.392 7.92 5.12 10.17
5/20/2022 12:00:00 PM 14.49 58.082 0.376 7.93 6.44 10.31
5/20/2022 12:15:00 PM 14.53 58.154 0.393 7.95 6.55 10.37
5/20/2022 12:30:00 PM 14.65 58.37 0.392 7.97 6.34 10.51
5/20/2022 12:45:00 PM 14.88 58.784 0.392 8 4.9 10.63
5/20/2022 1:00:00 PM 15.19 59.342 0.392 8.03 4.94 10.75
5/20/2022 1:15:00 PM 15.46 59.828 0.392 8.05 4.83 10.84
5/20/2022 1:30:00 PM 15.76 60.368 0.392 8.07 4.83 10.93
5/20/2022 1:45:00 PM 15.91 60.638 0.392 8.08 5.01 10.93
5/20/2022 2:00:00 PM 15.9 60.62 0.393 8.09 5.15 10.88
5/20/2022 2:15:00 PM 16.01 60.818 0.393 8.11 6.32 11
5/20/2022 2:30:00 PM 16.33 61.394 0.394 8.14 4.84 11.09
5/20/2022 2:45:00 PM 16.61 61.898 0.394 8.16 4.69 11.13
5/20/2022 3:00:00 PM 16.87 62.366 0.394 8.18 4.6 11.19
5/20/2022 3:15:00 PM 17.13 62.834 0.395 8.19 4.7 11.19
5/20/2022 3:30:00 PM 17.37 63.266 0.396 8.21 5.02 11.17
5/20/2022 3:45:00 PM 17.51 63.518 0.396 8.22 4.76 11.15
5/20/2022 4:00:00 PM 17.55 63.59 0.397 8.23 4.86 11.12
5/20/2022 4:15:00 PM 17.63 63.734 0.397 8.24 4.62 11.15
5/20/2022 4:30:00 PM 17.69 63.842 0.398 8.25 4.61 11.11
5/20/2022 4:45:00 PM 17.72 63.896 0.398 8.25 4.71 11.04
5/20/2022 5:00:00 PM 17.78 64.004 0.399 8.26 5.07 11.02
5/20/2022 5:15:00 PM 17.86 64.148 0.399 8.27 4.82 10.99
5/20/2022 5:30:00 PM 17.91 64.238 0.4 8.27 4.9 10.91
5/20/2022 5:45:00 PM 17.93 64.274 0.4 8.27 4.82 10.82
5/20/2022 6:00:00 PM 17.91 64.238 0.401 8.26 5.9 10.68
5/20/2022 6:15:00 PM 17.9 64.22 0.401 8.26 4.95 10.58
5/20/2022 6:30:00 PM 17.91 64.238 0.401 8.26 5.2 10.53
5/20/2022 6:45:00 PM 17.9 64.22 0.401 8.26 4.75 10.43
5/20/2022 7:00:00 PM 17.9 64.22 0.402 8.25 5.15 10.33
5/20/2022 7:15:00 PM 17.88 64.184 0.402 8.24 4.74 10.22
5/20/2022 7:30:00 PM 17.87 64.166 0.402 8.23 5.01 10.11
5/20/2022 7:45:00 PM 17.86 64.148 0.402 8.23 4.91 10.01
5/20/2022 8:00:00 PM 17.84 64.112 0.403 8.21 5.19 9.85
5/20/2022 8:15:00 PM 17.8 64.04 0.403 8.18 4.95 9.7
5/20/2022 8:30:00 PM 17.76 63.968 0.403 8.17 5 9.6
5/20/2022 8:45:00 PM 17.73 63.914 0.403 8.15 4.88 9.47
5/20/2022 9:00:00 PM 17.69 63.842 0.404 8.13 5.17 9.33
5/20/2022 9:15:00 PM 17.64 63.752 0.404 8.12 5.4 9.25
5/20/2022 9:30:00 PM 17.59 63.662 0.404 8.1 5.78 9.12
5/20/2022 9:45:00 PM 17.53 63.554 0.404 8.08 5.69 8.99
5/20/2022 10:00:00 PM 17.46 63.428 0.404 8.05 5.19 8.89
5/20/2022 10:15:00 PM 17.4 63.32 0.405 8.03 5.54 8.77
5/20/2022 10:30:00 PM 17.34 63.212 0.405 8.01 5.59 8.66
5/20/2022 10:45:00 PM 17.28 63.104 0.405 7.99 5.53 8.61
5/20/2022 11:00:00 PM 17.22 62.996 0.405 7.97 5.86 8.5
5/20/2022 11:15:00 PM 17.17 62.906 0.406 7.95 6.13 8.4
5/20/2022 11:30:00 PM 17.11 62.798 0.407 7.93 5.74 8.3
5/20/2022 11:45:00 PM 17.05 62.69 0.407 7.91 5.41 8.25
5/21/2022 12:00:00 AM 17 62.6 0.408 7.89 5.65 8.19
5/21/2022 12:15:00 AM 16.95 62.51 0.408 7.87 5.67 8.12
5/21/2022 12:30:00 AM 16.9 62.42 0.409 7.85 6.28 8.06
5/21/2022 12:45:00 AM 16.86 62.348 0.409 7.84 5.65 7.99
5/21/2022 1:00:00 AM 16.82 62.276 0.41 7.82 5.7 7.94
5/21/2022 1:15:00 AM 16.79 62.222 0.41 7.81 5.49 7.9
5/21/2022 1:30:00 AM 16.75 62.15 0.411 7.8 5.77 7.84
5/21/2022 1:45:00 AM 16.72 62.096 0.411 7.79 5.63 7.76
5/21/2022 2:00:00 AM 16.68 62.024 0.412 7.78 5.79 7.77
5/21/2022 2:15:00 AM 16.64 61.952 0.412 7.76 5.9 7.74
5/21/2022 2:30:00 AM 16.59 61.862 0.413 7.75 5.72 7.71
5/21/2022 2:45:00 AM 16.55 61.79 0.413 7.74 5.63 7.67
5/21/2022 3:00:00 AM 16.5 61.7 0.414 7.73 6.2 7.67
5/21/2022 3:15:00 AM 16.45 61.61 0.414 7.73 5.64 7.69
5/21/2022 3:30:00 AM 16.4 61.52 0.415 7.72 5.91 7.68
5/21/2022 3:45:00 AM 16.35 61.43 0.415 7.72 6.31 7.69
5/21/2022 4:00:00 AM 16.3 61.34 0.416 7.72 5.93 7.68
5/21/2022 4:15:00 AM 16.25 61.25 0.416 7.71 5.99 7.67
5/21/2022 4:30:00 AM 16.2 61.16 0.417 7.7 5.62 7.67
5/21/2022 4:45:00 AM 16.14 61.052 0.418 7.7 5.99 7.69
5/21/2022 5:00:00 AM 16.1 60.98 0.419 7.7 6.23 7.69
5/21/2022 5:15:00 AM 16.05 60.89 0.419 7.69 5.99 7.68
5/21/2022 5:30:00 AM 16 60.8 0.42 7.69 6.09 7.66
5/21/2022 5:45:00 AM 15.94 60.692 0.42 7.69 6.09 7.69
5/21/2022 6:00:00 AM 15.9 60.62 0.421 7.68 6.52 7.7
5/21/2022 6:15:00 AM 15.85 60.53 0.422 7.68 7.69 7.75
5/21/2022 6:30:00 AM 15.81 60.458 0.422 7.68 6.36 7.74
5/21/2022 6:45:00 AM 15.78 60.404 0.423 7.68 7.94 7.79
5/21/2022 7:00:00 AM 15.75 60.35 0.292 7.68 7.7 7.82
5/21/2022 7:15:00 AM 15.72 60.296 0.424 7.68 7.1 7.82
5/21/2022 7:30:00 AM 15.7 60.26 0.424 7.69 6.4 7.86
5/21/2022 7:45:00 AM 15.66 60.188 0.425 7.69 6.52 7.92
5/21/2022 8:00:00 AM 15.63 60.134 0.425 7.69 8.18 7.98
5/21/2022 8:15:00 AM 15.61 60.098 0.426 7.7 6.5 8.02
5/21/2022 8:30:00 AM 15.59 60.062 0.427 7.7 6.3 8.05
5/21/2022 8:45:00 AM 15.59 60.062 0.428 7.71 6.4 8.12
5/21/2022 9:00:00 AM 15.6 60.08 0.429 7.71 6.26 8.2
5/21/2022 9:15:00 AM 15.64 60.152 0.429 7.72 6.34 8.3
5/21/2022 9:30:00 AM 15.69 60.242 0.43 7.73 6.22 8.37
5/21/2022 9:45:00 AM 15.76 60.368 0.431 7.74 5.81 8.46
5/21/2022 10:00:00 AM 15.84 60.512 0.431 7.75 5.9 8.57
5/21/2022 10:15:00 AM 15.99 60.782 0.432 7.76 5.72 8.7
5/21/2022 10:30:00 AM 16.16 61.088 0.432 7.77 7.23 8.84
5/21/2022 10:45:00 AM 16.34 61.412 0.433 7.79 6.93 8.92
5/21/2022 11:00:00 AM 16.56 61.808 0.433 7.8 5.75 9.04
5/21/2022 11:15:00 AM 16.78 62.204 0.434 7.82 5.68 9.17
5/21/2022 11:30:00 AM 17.01 62.618 0.435 7.83 5.52 9.33
5/21/2022 11:45:00 AM 17.21 62.978 0.435 7.85 5.36 9.44
5/21/2022 12:00:00 PM 17.41 63.338 0.436 7.87 5.53 9.56
5/21/2022 12:15:00 PM 17.65 63.77 0.437 7.89 5.33 9.68
5/21/2022 12:30:00 PM 17.92 64.256 0.437 7.9 5.4 9.79
5/21/2022 12:45:00 PM 18.24 64.832 0.437 7.92 5.35 9.92
5/21/2022 1:00:00 PM 18.5 65.3 0.437 7.93 5.45 10.01
5/21/2022 1:15:00 PM 18.79 65.82201 0.438 7.96 5.22 10.16
5/21/2022 1:30:00 PM 19.16 66.488 0.438 7.98 5.29 10.29
5/21/2022 1:45:00 PM 19.51 67.118 0.438 8 5.23 10.39
5/21/2022 2:00:00 PM 19.81 67.658 0.439 8.02 4.96 10.45
5/21/2022 2:15:00 PM 20.01 68.018 0.438 8.05 5.02 10.55
5/21/2022 2:30:00 PM 20.3 68.54 0.439 8.07 5.33 10.59
5/21/2022 2:45:00 PM 20.51 68.918 0.439 8.08 5.24 10.57
5/21/2022 3:00:00 PM 20.69 69.242 0.439 8.1 5.19 10.62
5/21/2022 3:15:00 PM 20.8 69.44 0.439 8.11 4.96 10.59
5/21/2022 3:30:00 PM 21 69.8 0.439 8.13 5.24 10.61
5/21/2022 3:45:00 PM 21.11 69.998 0.439 8.15 4.92 10.53
5/21/2022 4:00:00 PM 21.3 70.34 0.44 8.15 8.03 10.47
5/21/2022 4:15:00 PM 21.43 70.574 0.441 8.16 7.33 10.54
5/21/2022 4:30:00 PM 21.53 70.754 0.44 8.16 8.7 10.39
5/21/2022 4:45:00 PM 21.56 70.808 0.44 8.17 4.95 10.41
5/21/2022 5:00:00 PM 21.61 70.898 0.44 8.18 4.95 10.34
5/21/2022 5:15:00 PM 21.63 70.934 0.44 8.16 5.06 10.18
5/21/2022 5:30:00 PM 21.66 70.988 0.441 8.19 5.11 10.16
5/21/2022 5:45:00 PM 21.65 70.97 0.441 8.17 5.32 10.02
5/21/2022 6:00:00 PM 21.65 70.97 0.442 8.18 5.12 9.9
5/21/2022 6:15:00 PM 21.65 70.97 0.442 8.18 5.18 9.9
5/21/2022 6:30:00 PM 21.64 70.952 0.442 8.18 5.04 9.79
5/21/2022 6:45:00 PM 21.6 70.88 0.443 8.17 5.25 9.63
5/21/2022 7:00:00 PM 21.56 70.808 0.442 8.18 4.99 9.55
5/21/2022 7:15:00 PM 21.49 70.682 0.443 8.16 5.36 9.39
5/21/2022 7:30:00 PM 21.42 70.556 0.443 8.15 5.24 9.26
5/21/2022 7:45:00 PM 21.32 70.376 0.444 8.14 5.19 9.12
5/21/2022 8:00:00 PM 21.23 70.214 0.445 8.12 5.59 8.97
5/21/2022 8:15:00 PM 21.15 70.07 0.444 8.11 5.61 8.88
5/21/2022 8:30:00 PM 21.07 69.926 0.445 8.09 5.84 8.76
5/21/2022 8:45:00 PM 20.99 69.782 0.446 8.08 5.76 8.61
5/21/2022 9:00:00 PM 20.91 69.638 0.445 8.07 5.58 8.48
5/21/2022 9:15:00 PM 20.82 69.476 0.447 8.05 5.82 8.4
5/21/2022 9:30:00 PM 20.73 69.314 0.446 8.02 5.7 8.3
5/21/2022 9:45:00 PM 20.64 69.152 0.447 8.02 5.8 8.25
5/21/2022 10:00:00 PM 20.55 68.99 0.447 8 5.93 8.08
5/21/2022 10:15:00 PM 20.45 68.81 0.447 7.99 10.22 8.02
5/21/2022 10:30:00 PM 20.35 68.63 0.446 7.97 6.15 7.91
5/21/2022 10:45:00 PM 20.24 68.432 0.446 7.95 6.02 7.85
5/21/2022 11:00:00 PM 20.15 68.27 0.447 7.93 5.91 7.75
5/21/2022 11:15:00 PM 20.05 68.09 0.447 7.92 5.94 7.7
5/21/2022 11:30:00 PM 19.95 67.91 0.447 7.9 6.17 7.61
5/21/2022 11:45:00 PM 19.86 67.748 0.447 7.88 5.73 7.51
5/22/2022 12:00:00 AM 19.77 67.586 0.448 7.87 6.29 7.48
5/22/2022 12:15:00 AM 19.67 67.406 0.448 7.86 6.19 7.39
5/22/2022 12:30:00 AM 19.59 67.262 0.448 7.84 7.16 7.32
5/22/2022 12:45:00 AM 19.5 67.1 0.448 7.83 6.32 7.29
5/22/2022 1:00:00 AM 19.42 66.956 0.449 7.82 5.73 7.2
5/22/2022 1:15:00 AM 19.34 66.812 0.449 7.8 15.65 7.15
5/22/2022 1:30:00 AM 19.26 66.668 0.449 7.79 6.44 7.08
5/22/2022 1:45:00 AM 19.18 66.524 0.45 7.77 10.47 7.03
5/22/2022 2:00:00 AM 19.1 66.38 0.45 7.76 5.96 7.03
5/22/2022 2:15:00 AM 19.02 66.236 0.45 7.76 6.5 7.01
5/22/2022 2:30:00 AM 18.95 66.11 0.45 7.75 6.78 6.97
5/22/2022 2:45:00 AM 18.89 66.002 0.45 7.74 5.94 6.95
5/22/2022 3:00:00 AM 18.83 65.894 0.45 7.73 6.17 6.94
5/22/2022 3:15:00 AM 18.76 65.768 0.451 7.72 6.21 6.94
5/22/2022 3:30:00 AM 18.69 65.642 0.451 7.72 6.26 6.91
5/22/2022 3:45:00 AM 18.62 65.516 0.452 7.71 6.13 6.91
5/22/2022 4:00:00 AM 18.56 65.408 0.452 7.71 6.14 6.89
5/22/2022 4:15:00 AM 18.49 65.282 0.452 7.7 6.12 6.88
5/22/2022 4:30:00 AM 18.42 65.156 0.453 7.7 6.6 6.89
5/22/2022 4:45:00 AM 18.34 65.012 0.453 7.69 6.41 6.91
5/22/2022 5:00:00 AM 18.28 64.904 0.454 7.69 6.93 6.88
5/22/2022 5:15:00 AM 18.2 64.76 0.454 7.69 6.34 6.91
5/22/2022 5:30:00 AM 18.13 64.634 0.455 7.69 6.79 6.94
5/22/2022 5:45:00 AM 18.04 64.472 0.455 7.69 6.36 6.94
5/22/2022 6:00:00 AM 17.97 64.346 0.456 7.68 6.27 6.97
5/22/2022 6:15:00 AM 17.9 64.22 0.456 7.69 6 7
5/22/2022 6:30:00 AM 17.83 64.094 0.457 7.69 5.88 7.04
5/22/2022 6:45:00 AM 17.77 63.986 0.458 7.69 6.49 7.06
5/22/2022 7:00:00 AM 17.7 63.86 0.459 7.69 6.09 7.09
5/22/2022 7:15:00 AM 17.64 63.752 0.459 7.69 6.01 7.11
5/22/2022 7:30:00 AM 17.58 63.644 0.46 7.69 6.35 7.22
5/22/2022 7:45:00 AM 17.54 63.572 0.463 7.69 7.71 7.26
5/22/2022 8:00:00 AM 17.5 63.5 0.348 7.7 7.47 7.31
5/22/2022 8:15:00 AM 17.46 63.428 0.351 7.7 7.66 7.35
5/22/2022 8:30:00 AM 17.43 63.374 0.462 7.71 5.82 7.42
5/22/2022 8:45:00 AM 17.44 63.392 0.463 7.71 5.65 7.53
5/22/2022 9:00:00 AM 17.45 63.41 0.281 7.73 7.52 7.69
5/22/2022 9:15:00 AM 17.48 63.464 0.465 7.73 5.79 7.73
5/22/2022 9:30:00 AM 17.52 63.536 0.464 7.74 5.81 7.83
5/22/2022 9:45:00 AM 17.53 63.554 0.465 7.75 5.82 7.9
5/22/2022 10:00:00 AM 17.51 63.518 0.466 7.75 5.73 7.97
5/22/2022 10:15:00 AM 17.52 63.536 0.467 7.76 5.99 8.01
5/22/2022 10:30:00 AM 17.55 63.59 0.468 7.77 5.84 8.16
5/22/2022 10:45:00 AM 17.65 63.77 0.468 7.77 6.05 8.28
5/22/2022 11:00:00 AM 17.76 63.968 0.469 7.79 5.64 8.43
5/22/2022 11:15:00 AM 17.83 64.094 0.471 7.81 5.57 8.49
5/22/2022 11:30:00 AM 17.91 64.238 0.473 7.81 5.78 8.58
5/22/2022 11:45:00 AM 18.08 64.544 0.472 7.82 6.01 8.72
5/22/2022 12:00:00 PM 18.31 64.958 0.3 7.84 7.24 8.93
5/22/2022 12:15:00 PM 18.45 65.21 0.473 7.86 5.42 9
5/22/2022 12:30:00 PM 18.59 65.462 0.473 7.87 5.34 9.15
5/22/2022 12:45:00 PM 18.67 65.606 0.473 7.89 5.35 9.21
5/22/2022 1:00:00 PM 18.93 66.074 0.474 7.89 5.25 9.21
5/22/2022 1:15:00 PM 19.22 66.596 0.474 7.92 7.07 9.45
5/22/2022 1:30:00 PM 19.47 67.046 0.475 7.94 5.54 9.6
5/22/2022 1:45:00 PM 19.61 67.298 0.475 7.94 5.32 9.64
5/22/2022 2:00:00 PM 19.79 67.622 0.476 7.96 5.21 9.7
5/22/2022 2:15:00 PM 19.79 67.622 0.477 7.97 5.33 9.74
5/22/2022 2:30:00 PM 19.78 67.604 0.477 7.97 5.54 9.67
5/22/2022 2:45:00 PM 19.84 67.712 0.477 7.98 5.2 9.72
5/22/2022 3:00:00 PM 20.08 68.144 0.476 7.99 5.46 9.83
5/22/2022 3:15:00 PM 20.25 68.45 0.478 8 5.78 9.88
5/22/2022 3:30:00 PM 20.45 68.81 0.478 8.01 5.35 9.88
5/22/2022 3:45:00 PM 20.66 69.188 0.477 8.06 5.33 9.99
5/22/2022 4:00:00 PM 20.78 69.404 0.477 8.07 5.35 9.98
5/22/2022 4:15:00 PM 20.87 69.566 0.477 8.06 5.31 9.93
5/22/2022 4:30:00 PM 20.86 69.548 0.477 8.08 5.31 9.9
5/22/2022 4:45:00 PM 20.8 69.44 0.478 8.07 5.48 9.76
5/22/2022 5:00:00 PM 20.71 69.278 0.476 8.08 6.71 9.68
5/22/2022 5:15:00 PM 20.66 69.188 0.475 8.08 6.1 9.62
5/22/2022 5:30:00 PM 20.59 69.062 0.474 8.09 6.38 9.59
5/22/2022 5:45:00 PM 20.53 68.954 0.475 8.08 6.56 9.52
5/22/2022 6:00:00 PM 20.49 68.882 0.475 8.1 6.37 9.53
5/22/2022 6:15:00 PM 20.46 68.828 0.475 8.1 6.23 9.46
5/22/2022 6:30:00 PM 20.43 68.774 0.476 8.1 6.34 9.32
5/22/2022 6:45:00 PM 20.37 68.666 0.474 8.1 6.35 9.19
5/22/2022 7:00:00 PM 20.26 68.468 0.474 8.09 6.88 9.09
5/22/2022 7:15:00 PM 20.13 68.234 0.473 8.07 6.87 8.93
5/22/2022 7:30:00 PM 20.01 68.018 0.472 8.07 6.91 8.82
5/22/2022 7:45:00 PM 19.89 67.802 0.472 8.07 7.13 8.75
5/22/2022 8:00:00 PM 19.78 67.604 0.471 8.06 7.05 8.69
5/22/2022 8:15:00 PM 19.67 67.406 0.47 8.06 6.99 8.65
5/22/2022 8:30:00 PM 19.55 67.19 0.47 8.05 7.13 8.6
5/22/2022 8:45:00 PM 19.41 66.938 0.47 8.04 6.98 8.49
5/22/2022 9:00:00 PM 19.26 66.668 0.471 8.01 7.25 8.33
5/22/2022 9:15:00 PM 19.12 66.416 0.47 7.99 7.72 8.25
5/22/2022 9:30:00 PM 18.98 66.164 0.47 7.98 8.08 8.13
5/22/2022 9:45:00 PM 18.84 65.912 0.47 7.96 8.2 8.07
5/22/2022 10:00:00 PM 18.69 65.642 0.469 7.95 8.28 8.01
5/22/2022 10:15:00 PM 18.56 65.408 0.468 7.94 8.29 7.96
5/22/2022 10:30:00 PM 18.42 65.156 0.467 7.93 8.31 7.91
5/22/2022 10:45:00 PM 18.29 64.922 0.467 7.91 8.13 7.84
5/22/2022 11:00:00 PM 18.17 64.706 0.467 7.9 8.01 7.82
5/22/2022 11:15:00 PM 18.05 64.49 0.466 7.89 7.68 7.77
5/22/2022 11:30:00 PM 17.93 64.274 0.466 7.87 8.04 7.72
5/22/2022 11:45:00 PM 17.83 64.094 0.467 7.86 7.86 7.7
5/23/2022 12:00:00 AM 17.71 63.878 0.471 7.85 7.86 7.66
5/23/2022 12:15:00 AM 17.6 63.68 0.475 7.83 7.93 7.62
5/23/2022 12:30:00 AM 17.49 63.482 0.479 7.82 8.07 7.59
5/23/2022 12:45:00 AM 17.4 63.32 0.48 7.8 8.17 7.54
5/23/2022 1:00:00 AM 17.32 63.176 0.478 7.79 8.11 7.52
5/23/2022 1:15:00 AM 17.22 62.996 0.473 7.78 8.28 7.51
5/23/2022 1:30:00 AM 17.13 62.834 0.466 7.77 9.98 7.49
5/23/2022 1:45:00 AM 17.04 62.672 0.458 7.76 10.09 7.49
5/23/2022 2:00:00 AM 16.95 62.51 0.449 7.75 8.33 7.48
5/23/2022 2:15:00 AM 16.85 62.33 0.44 7.74 8.42 7.47
5/23/2022 2:30:00 AM 16.76 62.168 0.43 7.72 8.36 7.53
5/23/2022 2:45:00 AM 16.67 62.006 0.423 7.71 9.36 7.53
5/23/2022 3:00:00 AM 16.58 61.844 0.418 7.7 7.98 7.53
5/23/2022 3:15:00 AM 16.49 61.682 0.414 7.7 8.52 7.52
5/23/2022 3:30:00 AM 16.4 61.52 0.412 7.69 8.6 7.52
5/23/2022 3:45:00 AM 16.31 61.358 0.411 7.68 11.1 7.57
5/23/2022 4:00:00 AM 16.23 61.214 0.413 7.68 8.8 7.55
5/23/2022 4:15:00 AM 16.14 61.052 0.415 7.68 8.7 7.61
5/23/2022 4:30:00 AM 16.06 60.908 0.419 7.68 8.86 7.59
5/23/2022 4:45:00 AM 15.96 60.728 0.423 7.68 8.7 7.6
5/23/2022 5:00:00 AM 15.88 60.584 0.429 7.68 8.61 7.57
5/23/2022 5:15:00 AM 15.79 60.422 0.435 7.68 8.97 7.56
5/23/2022 5:30:00 AM 15.7 60.26 0.354 7.67 10.98 7.57
5/23/2022 5:45:00 AM 15.61 60.098 0.315 7.67 11.14 7.54
5/23/2022 6:00:00 AM 15.51 59.918 0.452 7.66 9.73 7.49
5/23/2022 6:15:00 AM 15.44 59.792 0.457 7.66 9.28 7.46
5/23/2022 6:30:00 AM 15.37 59.666 0.46 7.65 10 7.44
5/23/2022 6:45:00 AM 15.29 59.522 0.462 7.65 10.12 7.45
5/23/2022 7:00:00 AM 15.23 59.414 0.463 7.65 10.21 7.44
5/23/2022 7:15:00 AM 15.18 59.324 0.464 7.65 9.93 7.47
5/23/2022 7:30:00 AM 15.15 59.27 0.463 7.65 9.67 7.52
5/23/2022 7:45:00 AM 15.11 59.198 0.462 7.66 9.09 7.59
5/23/2022 8:00:00 AM 15.09 59.162 0.46 7.66 9.17 7.66
5/23/2022 8:15:00 AM 15.05 59.09 0.459 7.67 8.99 7.73
5/23/2022 8:30:00 AM 15 59 0.457 7.68 8.36 7.81
5/23/2022 8:45:00 AM 14.94 58.892 0.455 7.68 8.14 7.89
5/23/2022 9:00:00 AM 14.93 58.874 0.454 7.69 9.55 8.03
5/23/2022 9:15:00 AM 14.93 58.874 0.452 7.7 8.89 8.15
5/23/2022 9:30:00 AM 14.94 58.892 0.452 7.71 7.16 8.28
5/23/2022 9:45:00 AM 14.95 58.91 0.45 7.72 7.24 8.4
5/23/2022 10:00:00 AM 14.99 58.982 0.449 7.74 6.86 8.51
5/23/2022 10:15:00 AM 15.03 59.054 0.447 7.75 6.76 8.68
5/23/2022 10:30:00 AM 15.1 59.18 0.507 7.77 8.1 8.81
5/23/2022 10:45:00 AM 15.19 59.342 0.445 7.78 8.76 8.94
5/23/2022 11:00:00 AM 15.31 59.558 0.444 7.8 6.67 9.08
5/23/2022 11:15:00 AM 15.41 59.738 0.444 7.81 7.09 9.19
5/23/2022 11:30:00 AM 15.54 59.972 0.443 7.83 6.56 9.36
5/23/2022 11:45:00 AM 15.65 60.17 0.442 7.85 7.96 9.51
5/23/2022 12:00:00 PM 15.76 60.368 0.443 7.86 6.34 9.6
5/23/2022 12:15:00 PM 15.89 60.602 0.442 7.87 6.3 9.71
5/23/2022 12:30:00 PM 16.07 60.926 0.443 7.9 6.49 9.87
5/23/2022 12:45:00 PM 16.23 61.214 0.444 7.9 6.59 9.97
5/23/2022 1:00:00 PM 16.39 61.502 0.444 7.93 6.59 10.13
5/23/2022 1:15:00 PM 16.48 61.664 0.444 7.95 6.61 10.19
5/23/2022 1:30:00 PM 16.62 61.916 0.443 7.97 6.58 10.33
5/23/2022 1:45:00 PM 16.77 62.186 0.444 7.98 6.68 10.42
5/23/2022 2:00:00 PM 16.95 62.51 0.444 7.99 6.6 10.48
5/23/2022 2:15:00 PM 17.08 62.744 0.444 8 6.96 10.56
5/23/2022 2:30:00 PM 17.19 62.942 0.445 8.03 7.06 10.63
5/23/2022 2:45:00 PM 17.27 63.086 0.443 8.04 6.77 10.7
5/23/2022 3:00:00 PM 17.32 63.176 0.445 8.06 7.14 10.73
5/23/2022 3:15:00 PM 17.38 63.284 0.445 8.08 7.54 10.78
5/23/2022 3:30:00 PM 17.44 63.392 0.447 8.07 7.09 10.78
5/23/2022 3:45:00 PM 17.52 63.536 0.445 8.1 7.25 10.8
5/23/2022 4:00:00 PM 17.58 63.644 0.45 8.04 7.13 10.66
5/23/2022 4:15:00 PM 17.64 63.752 0.446 8.13 6.88 10.84
5/23/2022 4:30:00 PM 17.65 63.77 0.447 8.14 6.96 10.82
5/23/2022 4:45:00 PM 17.66 63.788 0.447 8.16 7.27 10.78
5/23/2022 5:00:00 PM 17.66 63.788 0.448 8.16 7.51 10.73
5/23/2022 5:15:00 PM 17.64 63.752 0.448 8.17 6.97 10.73
5/23/2022 5:30:00 PM 17.62 63.716 0.451 8.17 7.24 10.66
5/23/2022 5:45:00 PM 17.58 63.644 0.45 8.17 7.02 10.62
5/23/2022 6:00:00 PM 17.54 63.572 0.451 8.17 7.25 10.58
5/23/2022 6:15:00 PM 17.5 63.5 0.452 8.18 7.75 10.52
5/23/2022 6:30:00 PM 17.46 63.428 0.453 8.17 7.21 10.44
5/23/2022 6:45:00 PM 17.41 63.338 0.453 8.17 7.12 10.36
5/23/2022 7:00:00 PM 17.36 63.248 0.454 8.17 6.92 10.29
5/23/2022 7:15:00 PM 17.31 63.158 0.455 8.16 6.88 10.19
5/23/2022 7:30:00 PM 17.25 63.05 0.455 8.16 7.01 10.1
5/23/2022 7:45:00 PM 17.18 62.924 0.456 8.14 7.16 9.99
5/23/2022 8:00:00 PM 17.11 62.798 0.456 8.14 6.9 9.88
5/23/2022 8:15:00 PM 17.03 62.654 0.457 8.13 6.8 9.8
5/23/2022 8:30:00 PM 16.94 62.492 0.458 8.12 6.5 9.72
5/23/2022 8:45:00 PM 16.86 62.348 0.458 8.11 6.52 9.62
5/23/2022 9:00:00 PM 16.77 62.186 0.459 8.1 6.52 9.54
5/23/2022 9:15:00 PM 16.68 62.024 0.459 8.09 6.49 9.45
5/23/2022 9:30:00 PM 16.59 61.862 0.461 8.08 6.52 9.35
5/23/2022 9:45:00 PM 16.5 61.7 0.461 8.07 7.95 9.29
5/23/2022 10:00:00 PM 16.41 61.538 0.462 8.06 6.41 9.2
5/23/2022 10:15:00 PM 16.32 61.376 0.462 8.04 7.63 9.1
5/23/2022 10:30:00 PM 16.23 61.214 0.463 8.03 6.76 9.04
5/23/2022 10:45:00 PM 16.13 61.034 0.463 8.02 9.11 8.97
5/23/2022 11:00:00 PM 16.04 60.872 0.326 8.01 8.61 8.91
5/23/2022 11:15:00 PM 15.94 60.692 0.465 7.99 7.36 8.81
5/23/2022 11:30:00 PM 15.85 60.53 0.472 7.98 8.42 8.77
5/23/2022 11:45:00 PM 15.76 60.368 0.466 7.97 6.86 8.67
5/24/2022 12:00:00 AM 15.67 60.206 0.363 7.96 8.61 8.65
5/24/2022 12:15:00 AM 15.58 60.044 0.349 7.94 8.63 8.59
5/24/2022 12:30:00 AM 15.49 59.882 0.309 7.93 8.46 8.52
5/24/2022 12:45:00 AM 15.4 59.72 0.468 7.92 6.97 8.44
5/24/2022 1:00:00 AM 15.3 59.54 0.467 7.91 6.88 8.4
5/24/2022 1:15:00 AM 15.22 59.396 0.468 7.89 6.81 8.36
5/24/2022 1:30:00 AM 15.14 59.252 0.468 7.88 6.64 8.32
5/24/2022 1:45:00 AM 15.06 59.108 0.468 7.87 7.18 8.3
5/24/2022 2:00:00 AM 14.98 58.964 0.47 7.85 6.8 8.21
5/24/2022 2:15:00 AM 14.9 58.82 0.47 7.85 6.78 8.21
5/24/2022 2:30:00 AM 14.83 58.694 0.471 7.84 6.85 8.16
5/24/2022 2:45:00 AM 14.74 58.532 0.471 7.83 6.83 8.13
5/24/2022 3:00:00 AM 14.66 58.388 0.472 7.82 6.92 8.1
5/24/2022 3:15:00 AM 14.58 58.244 0.472 7.81 7.22 8.09
5/24/2022 3:30:00 AM 14.5 58.1 0.472 7.81 6.97 8.08
5/24/2022 3:45:00 AM 14.42 57.956 0.348 7.8 8.63 8.09
5/24/2022 4:00:00 AM 14.34 57.812 0.473 7.8 6.85 8.08
5/24/2022 4:15:00 AM 14.26 57.668 0.474 7.79 8 8.07
5/24/2022 4:30:00 AM 14.18 57.524 0.474 7.79 10.15 8.08
5/24/2022 4:45:00 AM 14.1 57.38 0.347 7.78 10.77 8.11
5/24/2022 5:00:00 AM 14.04 57.272 0.474 7.78 9.42 8.09
5/24/2022 5:15:00 AM 13.96 57.128 0.475 7.78 7.29 8.11
5/24/2022 5:30:00 AM 13.88 56.984 0.475 7.78 6.95 8.12
5/24/2022 5:45:00 AM 13.79 56.822 0.476 7.77 6.87 8.15
5/24/2022 6:00:00 AM 13.71 56.678 0.477 7.77 7.07 8.16
5/24/2022 6:15:00 AM 13.63 56.534 0.477 7.77 6.44 8.16
5/24/2022 6:30:00 AM 13.56 56.408 0.478 7.77 6.38 8.23
5/24/2022 6:45:00 AM 13.48 56.264 0.478 7.77 6.54 8.24
5/24/2022 7:00:00 AM 13.41 56.138 0.479 7.77 6.4 8.28
5/24/2022 7:15:00 AM 13.33 55.994 0.48 7.77 7.39 8.31
5/24/2022 7:30:00 AM 13.27 55.886 0.48 7.77 5.92 8.33
5/24/2022 7:45:00 AM 13.23 55.814 0.481 7.77 7.28 8.42
5/24/2022 8:00:00 AM 13.2 55.76 0.336 7.78 6.95 8.49
5/24/2022 8:15:00 AM 13.18 55.724 0.482 7.79 5.62 8.53
5/24/2022 8:30:00 AM 13.18 55.724 0.503 7.79 6.78 8.63
5/24/2022 8:45:00 AM 13.19 55.742 0.484 7.79 6.9 8.7
5/24/2022 9:00:00 AM 13.19 55.742 0.345 7.8 7.29 8.78
5/24/2022 9:15:00 AM 13.23 55.814 0.484 7.81 5.96 8.84
5/24/2022 9:30:00 AM 13.29 55.922 0.371 7.81 7.36 8.95
5/24/2022 9:45:00 AM 13.35 56.03 0.391 7.82 7.19 9.05
5/24/2022 10:00:00 AM 13.41 56.138 0.487 7.83 6.29 9.12
5/24/2022 10:15:00 AM 13.48 56.264 0.506 7.84 7.47 9.25
5/24/2022 10:30:00 AM 13.6 56.48 0.487 7.85 7.5 9.33
5/24/2022 10:45:00 AM 13.74 56.732 0.487 7.86 6.46 9.43
5/24/2022 11:00:00 AM 13.87 56.966 0.489 7.87 7.14 9.56
5/24/2022 11:15:00 AM 14.03 57.254 0.488 7.89 5.49 9.64
5/24/2022 11:30:00 AM 14.21 57.578 0.489 7.89 5.79 9.78
5/24/2022 11:45:00 AM 14.36 57.848 0.489 7.91 7.26 9.92
5/24/2022 12:00:00 PM 14.53 58.154 0.49 7.92 6.08 9.99
5/24/2022 12:15:00 PM 14.65 58.37 0.491 7.93 7.36 10.11
5/24/2022 12:30:00 PM 14.79 58.622 0.491 7.95 5.18 10.23
5/24/2022 12:45:00 PM 14.94 58.892 0.491 7.96 6.5 10.32
5/24/2022 1:00:00 PM 15.19 59.342 0.492 7.97 5.19 10.4
5/24/2022 1:15:00 PM 15.38 59.684 0.492 7.99 5.65 10.49
5/24/2022 1:30:00 PM 15.49 59.882 0.493 7.99 5.62 10.54
5/24/2022 1:45:00 PM 15.69 60.242 0.493 8 5.01 10.59
5/24/2022 2:00:00 PM 15.81 60.458 0.493 8.02 4.91 10.73
5/24/2022 2:15:00 PM 15.9 60.62 0.493 8.03 4.93 10.76
5/24/2022 2:30:00 PM 16.02 60.836 0.494 8.04 4.91 10.82
5/24/2022 2:45:00 PM 16.1 60.98 0.494 8.06 4.81 10.89
5/24/2022 3:00:00 PM 16.17 61.106 0.344 8.06 6.76 10.93
5/24/2022 3:15:00 PM 16.25 61.25 0.494 8.08 4.64 10.91
5/24/2022 3:30:00 PM 16.4 61.52 0.495 8.09 4.64 11
5/24/2022 3:45:00 PM 16.56 61.808 0.495 8.1 4.44 11.02
5/24/2022 4:00:00 PM 16.71 62.078 0.297 8.12 5.98 11.07
5/24/2022 4:15:00 PM 16.73 62.114 0.497 8.11 4.64 10.95
5/24/2022 4:30:00 PM 16.74 62.132 0.496 8.13 5.4 10.93
5/24/2022 4:45:00 PM 16.76 62.168 0.497 8.13 4.02 10.88
5/24/2022 5:00:00 PM 16.79 62.222 0.496 8.14 4.15 10.84
5/24/2022 5:15:00 PM 16.83 62.294 0.497 8.14 4.52 10.72
5/24/2022 5:30:00 PM 16.86 62.348 0.498 8.14 5.14 10.7
5/24/2022 5:45:00 PM 16.88 62.384 0.497 8.14 4.92 10.64
5/24/2022 6:00:00 PM 16.89 62.402 0.497 8.15 4.22 10.64
5/24/2022 6:15:00 PM 16.88 62.384 0.498 8.15 4.15 10.58
5/24/2022 6:30:00 PM 16.87 62.366 0.498 8.15 4.15 10.47
5/24/2022 6:45:00 PM 16.85 62.33 0.499 8.15 4.04 10.4
5/24/2022 7:00:00 PM 16.82 62.276 0.499 8.13 4.09 10.25
5/24/2022 7:15:00 PM 16.78 62.204 0.5 8.12 4.37 10.18
5/24/2022 7:30:00 PM 16.74 62.132 0.501 8.11 4.21 10.04
5/24/2022 7:45:00 PM 16.7 62.06 0.5 8.12 4.53 9.96
5/24/2022 8:00:00 PM 16.64 61.952 0.502 8.11 6.51 9.88
5/24/2022 8:15:00 PM 16.58 61.844 0.503 8.08 4.64 9.7
5/24/2022 8:30:00 PM 16.51 61.718 0.502 8.07 4.5 9.64
5/24/2022 8:45:00 PM 16.45 61.61 0.502 8.09 6.1 9.63
5/24/2022 9:00:00 PM 16.39 61.502 0.503 8.07 4.53 9.5
5/24/2022 9:15:00 PM 16.33 61.394 0.504 8.07 4.64 9.41
5/24/2022 9:30:00 PM 16.27 61.286 0.504 8.06 4.7 9.33
5/24/2022 9:45:00 PM 16.22 61.196 0.505 8.04 4.7 9.23
5/24/2022 10:00:00 PM 16.17 61.106 0.505 8.03 4.85 9.16
5/24/2022 10:15:00 PM 16.13 61.034 0.504 8.02 6.35 9.08
5/24/2022 10:30:00 PM 16.08 60.944 0.504 8.02 6.76 8.99
5/24/2022 10:45:00 PM 16.04 60.872 0.507 8 5.94 8.84
5/24/2022 11:00:00 PM 15.98 60.764 0.506 7.99 5.18 8.78
5/24/2022 11:15:00 PM 15.92 60.656 0.314 7.98 6.43 8.71
5/24/2022 11:30:00 PM 15.87 60.566 0.506 7.97 7.52 8.65
5/24/2022 11:45:00 PM 15.82 60.476 0.506 7.96 6.03 8.57
5/25/2022 12:00:00 AM 15.77 60.386 0.507 7.95 5.49 8.5
5/25/2022 12:15:00 AM 15.73 60.314 0.507 7.94 6.35 8.41
5/25/2022 12:30:00 AM 15.68 60.224 0.526 7.92 8.43 8.39
5/25/2022 12:45:00 AM 15.64 60.152 0.508 7.91 6.5 8.28
5/25/2022 1:00:00 AM 15.59 60.062 0.508 7.9 6.29 8.24
5/25/2022 1:15:00 AM 15.55 59.99 0.314 7.89 7.25 8.22
5/25/2022 1:30:00 AM 15.5 59.9 0.509 7.88 6.55 8.16
5/25/2022 1:45:00 AM 15.46 59.828 0.511 7.88 8.01 8.14
5/25/2022 2:00:00 AM 15.42 59.756 0.509 7.87 6.85 8.09
5/25/2022 2:15:00 AM 15.38 59.684 0.527 7.86 7.78 8.06
5/25/2022 2:30:00 AM 15.34 59.612 0.333 7.85 7.95 8
5/25/2022 2:45:00 AM 15.29 59.522 0.342 7.84 8.28 7.98
5/25/2022 3:00:00 AM 15.25 59.45 0.337 7.83 10.25 7.95
5/25/2022 3:15:00 AM 15.21 59.378 0.509 7.83 12.45 7.92
5/25/2022 3:30:00 AM 15.18 59.324 0.511 7.82 6.54 7.88
5/25/2022 3:45:00 AM 15.14 59.252 0.51 7.81 8.6 7.89
5/25/2022 4:00:00 AM 15.1 59.18 0.511 7.81 8.14 7.87
5/25/2022 4:15:00 AM 15.06 59.108 0.511 7.8 6 7.85
5/25/2022 4:30:00 AM 15.02 59.036 0.511 7.79 7.65 7.8
5/25/2022 4:45:00 AM 14.99 58.982 0.511 7.79 6.5 7.81
5/25/2022 5:00:00 AM 14.95 58.91 0.511 7.78 6.53 7.81
5/25/2022 5:15:00 AM 14.91 58.838 0.511 7.78 8.99 7.77
5/25/2022 5:30:00 AM 14.88 58.784 0.511 7.78 6.48 7.8
5/25/2022 5:45:00 AM 14.85 58.73 0.327 7.77 9.94 7.83
5/25/2022 6:00:00 AM 14.82 58.676 0.335 7.77 9.25 7.84
5/25/2022 6:15:00 AM 14.79 58.622 0.512 7.77 5.59 7.83
5/25/2022 6:30:00 AM 14.76 58.568 0.512 7.76 8.18 7.8
5/25/2022 6:45:00 AM 14.73 58.514 0.512 7.77 7.55 7.83
5/25/2022 7:00:00 AM 14.71 58.478 0.573 7.77 10.06 7.9
5/25/2022 7:15:00 AM 14.69 58.442 0.513 7.77 7.39 7.9
5/25/2022 7:30:00 AM 14.68 58.424 0.513 7.77 13.1 7.97
5/25/2022 7:45:00 AM 14.68 58.424 0.514 7.77 6.34 8
5/25/2022 8:00:00 AM 14.68 58.424 0.532 7.77 8.49 8.08
5/25/2022 8:15:00 AM 14.69 58.442 0.516 7.77 5.7 8.14
5/25/2022 8:30:00 AM 14.7 58.46 0.514 7.78 8.08 8.21
5/25/2022 8:45:00 AM 14.73 58.514 0.515 7.79 4.86 8.24
5/25/2022 9:00:00 AM 14.76 58.568 0.523 7.8 7.54 8.4
5/25/2022 9:15:00 AM 14.79 58.622 0.517 7.8 4.79 8.46
5/25/2022 9:30:00 AM 14.84 58.712 0.517 7.81 5.84 8.53
5/25/2022 9:45:00 AM 14.88 58.784 0.517 7.82 4.76 8.66
5/25/2022 10:00:00 AM 14.94 58.892 0.518 7.81 4.71 8.78
5/25/2022 10:15:00 AM 15.02 59.036 0.518 7.84 8.95 8.88
5/25/2022 10:30:00 AM 15.14 59.252 0.386 7.85 9.64 9
5/25/2022 10:45:00 AM 15.28 59.504 0.397 7.86 6.99 9.13
5/25/2022 11:00:00 AM 15.43 59.774 0.519 7.88 4.59 9.24
5/25/2022 11:15:00 AM 15.59 60.062 0.522 7.89 6.7 9.39
5/25/2022 11:30:00 AM 15.68 60.224 0.303 7.9 7.88 9.49
5/25/2022 11:45:00 AM 15.78 60.404 0.52 7.91 4.62 9.53
5/25/2022 12:00:00 PM 15.9 60.62 0.524 7.92 7.55 9.71
5/25/2022 12:15:00 PM 16.01 60.818 0.521 7.92 4.78 9.76
5/25/2022 12:30:00 PM 16.1 60.98 0.521 7.93 5.31 9.83
5/25/2022 12:45:00 PM 16.21 61.178 0.521 7.95 7.09 9.97
5/25/2022 1:00:00 PM 16.38 61.484 0.522 7.96 5.06 10.06
5/25/2022 1:15:00 PM 16.61 61.898 0.523 7.96 4.96 10.14
5/25/2022 1:30:00 PM 16.92 62.456 0.523 7.99 4.78 10.28
5/25/2022 1:45:00 PM 17.15 62.87 0.523 7.99 4.93 10.32
5/25/2022 2:00:00 PM 17.4 63.32 0.524 8 5.47 10.45
5/25/2022 2:15:00 PM 17.64 63.752 0.527 8.01 7.6 10.52
5/25/2022 2:30:00 PM 17.92 64.256 0.525 8.01 4.53 10.49
5/25/2022 2:45:00 PM 18.17 64.706 0.525 8.02 4.35 10.56
5/25/2022 3:00:00 PM 18.37 65.066 0.526 8.03 4.63 10.65
5/25/2022 3:15:00 PM 18.53 65.354 0.525 8.06 4.6 10.77
5/25/2022 3:30:00 PM 18.67 65.606 0.526 8.08 4.57 10.77
5/25/2022 3:45:00 PM 18.77 65.786 0.526 8.07 4.57 10.73
5/25/2022 4:00:00 PM 18.9 66.02 0.526 8.1 4.67 10.8
5/25/2022 4:15:00 PM 18.97 66.146 0.527 8.09 4.52 10.76
5/25/2022 4:30:00 PM 19.05 66.29 0.526 8.08 4.81 10.68
5/25/2022 4:45:00 PM 19.14 66.452 0.526 8.12 4.72 10.72
5/25/2022 5:00:00 PM 19.18 66.524 0.526 8.09 4.66 10.59
5/25/2022 5:15:00 PM 19.23 66.614 0.526 8.12 4.73 10.58
5/25/2022 5:30:00 PM 19.23 66.614 0.526 8.11 5.01 10.5
5/25/2022 5:45:00 PM 19.23 66.614 0.525 8.11 4.99 10.39
5/25/2022 6:00:00 PM 19.23 66.614 0.526 8.1 4.72 10.28
5/25/2022 6:15:00 PM 19.22 66.596 0.525 8.1 4.41 10.26
5/25/2022 6:30:00 PM 19.18 66.524 0.525 8.11 4.73 10.2
5/25/2022 6:45:00 PM 19.11 66.398 0.528 8.09 4.6 9.98
5/25/2022 7:00:00 PM 19.07 66.326 0.526 8.09 4.64 9.91
5/25/2022 7:15:00 PM 19.03 66.254 0.526 8.09 4.9 9.84
5/25/2022 7:30:00 PM 18.97 66.146 0.525 8.1 4.84 9.78
5/25/2022 7:45:00 PM 18.91 66.038 0.527 8.09 4.64 9.67
5/25/2022 8:00:00 PM 18.85 65.93 0.527 8.07 5.23 9.46
5/25/2022 8:15:00 PM 18.78 65.804 0.527 8.07 5.01 9.38
5/25/2022 8:30:00 PM 18.72 65.696 0.527 8.06 5.22 9.28
5/25/2022 8:45:00 PM 18.65 65.57 0.527 8.06 5.16 9.12
5/25/2022 9:00:00 PM 18.57 65.426 0.526 8.05 5.41 9.07
5/25/2022 9:15:00 PM 18.5 65.3 0.529 8.01 5.19 8.92
5/25/2022 9:30:00 PM 18.44 65.192 0.528 8.03 5.16 8.8
5/25/2022 9:45:00 PM 18.37 65.066 0.529 8.01 5 8.71
5/25/2022 10:00:00 PM 18.31 64.958 0.528 8.01 5.17 8.6
5/25/2022 10:15:00 PM 18.24 64.832 0.529 8 5.18 8.52
5/25/2022 10:30:00 PM 18.17 64.706 0.53 7.99 5.09 8.45
5/25/2022 10:45:00 PM 18.11 64.598 0.53 7.97 5.62 8.31
5/25/2022 11:00:00 PM 18.05 64.49 0.53 7.97 5.5 8.25
5/25/2022 11:15:00 PM 17.99 64.382 0.53 7.96 5.47 8.16
5/25/2022 11:30:00 PM 17.92 64.256 0.53 7.95 5.69 8.05
5/25/2022 11:45:00 PM 17.85 64.13 0.531 7.94 6.13 7.99
5/26/2022 12:00:00 AM 17.78 64.004 0.531 7.93 6.46 7.91
5/26/2022 12:15:00 AM 17.72 63.896 0.531 7.92 5.93 7.86
5/26/2022 12:30:00 AM 17.64 63.752 0.531 7.92 5.96 7.78
5/26/2022 12:45:00 AM 17.56 63.608 0.532 7.89 6.08 7.73
5/26/2022 1:00:00 AM 17.48 63.464 0.533 7.89 6.04 7.68
5/26/2022 1:15:00 AM 17.4 63.32 0.532 7.89 5.79 7.64
5/26/2022 1:30:00 AM 17.31 63.158 0.533 7.88 5.53 7.54
5/26/2022 1:45:00 AM 17.22 62.996 0.533 7.87 5.8 7.56
5/26/2022 2:00:00 AM 17.12 62.816 0.534 7.86 5.67 7.5
5/26/2022 2:15:00 AM 17.02 62.636 0.534 7.86 5.61 7.45
5/26/2022 2:30:00 AM 16.92 62.456 0.534 7.85 7.36 7.47
5/26/2022 2:45:00 AM 16.83 62.294 0.534 7.84 6.02 7.43
5/26/2022 3:00:00 AM 16.74 62.132 0.534 7.83 5.95 7.39
5/26/2022 3:15:00 AM 16.64 61.952 0.534 7.83 5.96 7.34
5/26/2022 3:30:00 AM 16.55 61.79 0.535 7.82 6.25 7.35
5/26/2022 3:45:00 AM 16.46 61.628 0.535 7.82 5.89 7.32
5/26/2022 4:00:00 AM 16.38 61.484 0.535 7.81 7 7.26
5/26/2022 4:15:00 AM 16.29 61.322 0.535 7.81 6.59 7.28
5/26/2022 4:30:00 AM 16.21 61.178 0.535 7.8 7.81 7.28
5/26/2022 4:45:00 AM 16.14 61.052 0.536 7.8 6.12 7.25
5/26/2022 5:00:00 AM 16.07 60.926 0.536 7.8 7.45 7.27
5/26/2022 5:15:00 AM 16 60.8 0.536 7.79 5.66 7.26
5/26/2022 5:30:00 AM 15.93 60.674 0.536 7.79 6 7.24
5/26/2022 5:45:00 AM 15.88 60.584 0.537 7.79 5.77 7.25
5/26/2022 6:00:00 AM 15.81 60.458 0.537 7.78 5.77 7.27
5/26/2022 6:15:00 AM 15.76 60.368 0.537 7.79 5.98 7.28
5/26/2022 6:30:00 AM 15.72 60.296 0.537 7.78 5.9 7.32
5/26/2022 6:45:00 AM 15.67 60.206 0.537 7.78 5.55 7.32
5/26/2022 7:00:00 AM 15.63 60.134 0.538 7.78 5.96 7.39
5/26/2022 7:15:00 AM 15.59 60.062 0.539 7.78 5.65 7.38
5/26/2022 7:30:00 AM 15.55 59.99 0.538 7.78 7.72 7.44
5/26/2022 7:45:00 AM 15.5 59.9 0.538 7.78 7.21 7.47
5/26/2022 8:00:00 AM 15.46 59.828 0.539 7.79 5.46 7.46
5/26/2022 8:15:00 AM 15.43 59.774 0.539 7.78 5.41 7.53
5/26/2022 8:30:00 AM 15.41 59.738 0.538 7.79 5.36 7.6
5/26/2022 8:45:00 AM 15.39 59.702 0.538 7.79 5.25 7.67
5/26/2022 9:00:00 AM 15.38 59.684 0.538 7.8 5.43 7.75
5/26/2022 9:15:00 AM 15.39 59.702 0.539 7.8 5.64 7.88
5/26/2022 9:30:00 AM 15.43 59.774 0.539 7.81 6.94 7.96
5/26/2022 9:45:00 AM 15.49 59.882 0.405 7.82 7.69 8.07
5/26/2022 10:00:00 AM 15.56 60.008 0.539 7.82 5.8 8.15
5/26/2022 10:15:00 AM 15.66 60.188 0.539 7.83 5.58 8.25
5/26/2022 10:30:00 AM 15.76 60.368 0.539 7.84 5.66 8.35
5/26/2022 10:45:00 AM 15.85 60.53 0.54 7.85 6.03 8.47
5/26/2022 11:00:00 AM 15.91 60.638 0.54 7.86 5.44 8.58
5/26/2022 11:15:00 AM 16.05 60.89 0.541 7.88 5.11 8.71
5/26/2022 11:30:00 AM 16.23 61.214 0.376 7.88 6.83 8.84
5/26/2022 11:45:00 AM 16.4 61.52 0.542 7.89 4.85 8.94
5/26/2022 12:00:00 PM 16.55 61.79 0.544 7.9 6.43 9.11
5/26/2022 12:15:00 PM 16.69 62.042 0.542 7.91 4.67 9.21
5/26/2022 12:30:00 PM 16.78 62.204 0.543 7.92 4.84 9.34
5/26/2022 12:45:00 PM 16.89 62.402 0.544 7.94 4.96 9.44
5/26/2022 1:00:00 PM 17.09 62.762 0.545 7.93 6.31 9.52
5/26/2022 1:15:00 PM 17.37 63.266 0.545 7.89 4.81 9.4
5/26/2022 1:30:00 PM 17.64 63.752 0.548 7.94 4.78 9.7
5/26/2022 1:45:00 PM 17.88 64.184 0.547 7.93 4.89 9.66
5/26/2022 2:00:00 PM 18.13 64.634 0.548 7.95 4.8 9.82
5/26/2022 2:15:00 PM 18.35 65.03 0.549 7.96 5.08 9.87
5/26/2022 2:30:00 PM 18.6 65.48 0.548 7.96 4.86 10
5/26/2022 2:45:00 PM 18.79 65.82201 0.551 8 4.54 10.07
5/26/2022 3:00:00 PM 19.02 66.236 0.548 7.99 4.5 10.1
5/26/2022 3:15:00 PM 19.18 66.524 0.551 8 4.47 10.25
5/26/2022 3:30:00 PM 19.39 66.902 0.549 8.01 4.44 10.08
5/26/2022 3:45:00 PM 19.55 67.19 0.549 8 4.89 10.16
5/26/2022 4:00:00 PM 19.61 67.298 0.55 8.02 4.89 10.24
5/26/2022 4:15:00 PM 19.66 67.388 0.55 8.04 6.07 10.23
5/26/2022 4:30:00 PM 19.7 67.46 0.551 8.05 5.02 10.2
5/26/2022 4:45:00 PM 19.77 67.586 0.55 8.02 4.82 10
5/26/2022 5:00:00 PM 19.83 67.694 0.551 8.06 5.48 10.05
5/26/2022 5:15:00 PM 19.93 67.874 0.551 8.06 4.67 10.1
5/26/2022 5:30:00 PM 20 68 0.552 8.06 5.19 9.98
5/26/2022 5:45:00 PM 20.06 68.108 0.551 8.07 4.79 9.98
5/26/2022 6:00:00 PM 20.06 68.108 0.552 8.06 4.87 9.78
5/26/2022 6:15:00 PM 20.08 68.144 0.553 8.06 5.09 9.87
5/26/2022 6:30:00 PM 20.06 68.108 0.553 8.07 5.52 9.75
5/26/2022 6:45:00 PM 20.01 68.018 0.553 8.06 4.7 9.56
5/26/2022 7:00:00 PM 19.96 67.92799 0.555 8.05 5.21 9.46
5/26/2022 7:15:00 PM 19.93 67.874 0.554 8.03 4.97 9.31
5/26/2022 7:30:00 PM 19.88 67.784 0.553 8.05 4.78 9.22
5/26/2022 7:45:00 PM 19.84 67.712 0.554 8.05 4.75 9.13
5/26/2022 8:00:00 PM 19.78 67.604 0.554 8.04 5.07 8.97
5/26/2022 8:15:00 PM 19.74 67.532 0.554 8.03 4.78 8.86
5/26/2022 8:30:00 PM 19.68 67.424 0.554 8.02 5.6 8.74
5/26/2022 8:45:00 PM 19.63 67.334 0.555 8.02 5.6 8.67
5/26/2022 9:00:00 PM 19.58 67.244 0.554 8.01 8.81 8.51
5/26/2022 9:15:00 PM 19.52 67.136 0.555 7.99 10.57 8.44
5/26/2022 9:30:00 PM 19.46 67.028 0.557 7.98 6.18 8.29
5/26/2022 9:45:00 PM 19.41 66.938 0.556 7.96 6.23 8.03
5/26/2022 10:00:00 PM 19.35 66.83 0.556 7.96 7.49 8
5/26/2022 10:15:00 PM 19.29 66.722 0.555 7.96 6.38 7.94
5/26/2022 10:30:00 PM 19.22 66.596 0.557 7.95 5.74 7.86
5/26/2022 10:45:00 PM 19.17 66.506 0.556 7.94 6.46 7.79
5/26/2022 11:00:00 PM 19.1 66.38 0.556 7.93 5.83 7.75
5/26/2022 11:15:00 PM 19.04 66.272 0.557 7.92 6.07 7.64
5/26/2022 11:30:00 PM 18.97 66.146 0.557 7.91 5.84 7.59
5/26/2022 11:45:00 PM 18.9 66.02 0.557 7.91 5.99 7.54
5/27/2022 12:00:00 AM 18.84 65.912 0.558 7.89 6.22 7.43
5/27/2022 12:15:00 AM 18.77 65.786 0.558 7.89 6.07 7.35
5/27/2022 12:30:00 AM 18.71 65.67799 0.559 7.87 6.02 7.29
5/27/2022 12:45:00 AM 18.65 65.57 0.558 7.87 6.4 7.24
5/27/2022 1:00:00 AM 18.59 65.462 0.558 7.86 6.54 7.19
5/27/2022 1:15:00 AM 18.54 65.372 0.558 7.86 6.61 7.01
5/27/2022 1:30:00 AM 18.48 65.264 0.558 7.86 7.06 7.08
5/27/2022 1:45:00 AM 18.42 65.156 0.559 7.85 7.08 7.05
5/27/2022 2:00:00 AM 18.36 65.048 0.559 7.84 7.1 7.03
5/27/2022 2:15:00 AM 18.3 64.94 0.559 7.84 6.99 6.96
5/27/2022 2:30:00 AM 18.24 64.832 0.559 7.83 6.83 6.95
5/27/2022 2:45:00 AM 18.18 64.724 0.559 7.82 6.39 6.9
5/27/2022 3:00:00 AM 18.12 64.616 0.56 7.82 6.54 6.89
5/27/2022 3:15:00 AM 18.07 64.526 0.56 7.82 6.4 6.83
5/27/2022 3:30:00 AM 18.01 64.418 0.561 7.81 6.38 6.82
5/27/2022 3:45:00 AM 17.96 64.328 0.56 7.8 6.33 6.77
5/27/2022 4:00:00 AM 17.92 64.256 0.561 7.8 6.48 6.79
5/27/2022 4:15:00 AM 17.87 64.166 0.561 7.79 10.46 6.73
5/27/2022 4:30:00 AM 17.83 64.094 0.561 7.78 10.19 6.71
5/27/2022 4:45:00 AM 17.78 64.004 0.561 7.78 10.02 6.69
5/27/2022 5:00:00 AM 17.74 63.932 0.562 7.77 9.46 6.65
5/27/2022 5:15:00 AM 17.7 63.86 0.562 7.77 8.25 6.67
5/27/2022 5:30:00 AM 17.67 63.806 0.562 7.77 7.65 6.67
5/27/2022 5:45:00 AM 17.64 63.752 0.562 7.77 7.46 6.65
5/27/2022 6:00:00 AM 17.61 63.698 0.562 7.77 7.26 6.66
5/27/2022 6:15:00 AM 17.58 63.644 0.562 7.76 6.97 6.65
5/27/2022 6:30:00 AM 17.56 63.608 0.562 7.77 6.66 6.69
5/27/2022 6:45:00 AM 17.54 63.572 0.562 7.77 6.48 6.63
5/27/2022 7:00:00 AM 17.52 63.536 0.563 7.76 6.15 6.7
5/27/2022 7:15:00 AM 17.51 63.518 0.563 7.76 6.2 6.7
5/27/2022 7:30:00 AM 17.5 63.5 0.563 7.76 6.02 6.75
5/27/2022 7:45:00 AM 17.49 63.482 0.564 7.76 6.06 6.74
5/27/2022 8:00:00 AM 17.5 63.5 0.563 7.77 6.14 6.78
5/27/2022 8:15:00 AM 17.52 63.536 0.563 7.77 7.79 6.92
5/27/2022 8:30:00 AM 17.53 63.554 0.563 7.78 5.94 6.96
5/27/2022 8:45:00 AM 17.54 63.572 0.563 7.78 6.01 7
5/27/2022 9:00:00 AM 17.54 63.572 0.563 7.78 6.07 7.01
5/27/2022 9:15:00 AM 17.56 63.608 0.563 7.78 5.97 7.1
5/27/2022 9:30:00 AM 17.59 63.662 0.563 7.79 6.28 7.22
5/27/2022 9:45:00 AM 17.63 63.734 0.563 7.8 7.09 7.26
5/27/2022 10:00:00 AM 17.65 63.77 0.563 7.79 6.9 7.27
5/27/2022 10:15:00 AM 17.68 63.824 0.563 7.8 6.28 7.37
5/27/2022 10:30:00 AM 17.7 63.86 0.563 7.81 5.85 7.45
5/27/2022 10:45:00 AM 17.72 63.896 0.563 7.81 5.88 7.52
5/27/2022 11:00:00 AM 17.75 63.95 0.563 7.82 5.58 7.62
5/27/2022 11:15:00 AM 17.76 63.968 0.563 7.82 5.67 7.64
5/27/2022 11:30:00 AM 17.8 64.04 0.563 7.83 5.34 7.78
5/27/2022 11:45:00 AM 17.8 64.04 0.563 7.84 5.79 7.79
5/27/2022 12:00:00 PM 17.83 64.094 0.563 7.84 5.19 7.92
5/27/2022 12:15:00 PM 17.88 64.184 0.564 7.86 5.39 8.01
5/27/2022 12:30:00 PM 17.9 64.22 0.564 7.86 5.39 8.06
5/27/2022 12:45:00 PM 17.9 64.22 0.564 7.87 5.19 8.15
5/27/2022 1:00:00 PM 17.92 64.256 0.564 7.86 5.48 8.18
5/27/2022 1:15:00 PM 17.98 64.364 0.565 7.88 5.36 8.33
5/27/2022 1:30:00 PM 18.03 64.454 0.565 7.89 5.35 8.4
5/27/2022 1:45:00 PM 18.05 64.49 0.565 7.9 5.31 8.52
5/27/2022 2:00:00 PM 18.05 64.49 0.565 7.91 5.48 8.56
5/27/2022 2:15:00 PM 18.05 64.49 0.565 7.91 5.21 8.53
5/27/2022 2:30:00 PM 18.05 64.49 0.565 7.91 5.34 8.55
5/27/2022 2:45:00 PM 18.06 64.508 0.566 7.92 5.24 8.56
5/27/2022 3:00:00 PM 18.05 64.49 0.566 7.92 5.32 8.59
5/27/2022 3:15:00 PM 18.05 64.49 0.566 7.93 5.61 8.58
5/27/2022 3:30:00 PM 18.05 64.49 0.567 7.92 5.56 8.63
5/27/2022 3:45:00 PM 18.03 64.454 0.567 7.92 5.79 8.6
5/27/2022 4:00:00 PM 18.04 64.472 0.568 7.91 7.2 8.56
5/27/2022 4:15:00 PM 18.05 64.49 0.568 7.94 5.5 8.66
5/27/2022 4:30:00 PM 18.07 64.526 0.568 7.94 5.55 8.68
5/27/2022 4:45:00 PM 18.09 64.562 0.568 7.94 5.22 8.72
5/27/2022 5:00:00 PM 18.12 64.616 0.569 7.92 5.14 8.73
5/27/2022 5:15:00 PM 18.15 64.67 0.569 7.97 5.08 8.83
5/27/2022 5:30:00 PM 18.18 64.724 0.569 7.97 4.76 8.86
5/27/2022 5:45:00 PM 18.2 64.76 0.57 7.98 4.93 8.87
5/27/2022 6:00:00 PM 18.2 64.76 0.57 7.98 4.88 8.78
5/27/2022 6:15:00 PM 18.21 64.778 0.57 7.97 8.01 8.79
5/27/2022 6:30:00 PM 18.21 64.778 0.57 7.98 5.35 8.77
5/27/2022 6:45:00 PM 18.19 64.742 0.569 7.97 5.33 8.7
5/27/2022 7:00:00 PM 18.19 64.742 0.567 7.98 5.75 8.66
5/27/2022 7:15:00 PM 18.19 64.742 0.568 7.97 5.55 8.67
5/27/2022 7:30:00 PM 18.21 64.778 0.567 7.98 6.04 8.65
5/27/2022 7:45:00 PM 18.2 64.76 0.568 7.98 6.04 8.66
5/27/2022 8:00:00 PM 18.2 64.76 0.568 7.98 5.71 8.61
5/27/2022 8:15:00 PM 18.17 64.706 0.568 7.97 6.28 8.55
5/27/2022 8:30:00 PM 18.14 64.652 0.568 7.97 6 8.44
5/27/2022 8:45:00 PM 18.11 64.598 0.568 7.97 5.97 8.38
5/27/2022 9:00:00 PM 18.07 64.526 0.569 7.95 6.1 8.23
5/27/2022 9:15:00 PM 18.04 64.472 0.568 7.95 6.33 8.19
5/27/2022 9:30:00 PM 18.01 64.418 0.568 7.93 6.31 8.12
5/27/2022 9:45:00 PM 17.97 64.346 0.565 7.94 11.37 8.11
5/27/2022 10:00:00 PM 17.92 64.256 0.562 7.94 9.12 8.08
5/27/2022 10:15:00 PM 17.86 64.148 0.561 7.93 9.75 7.94
5/27/2022 10:30:00 PM 17.8 64.04 0.561 7.91 10.11 7.83
5/27/2022 10:45:00 PM 17.75 63.95 0.561 7.9 10.01 7.81
5/27/2022 11:00:00 PM 17.7 63.86 0.561 7.89 9.61 7.71
5/27/2022 11:15:00 PM 17.67 63.806 0.561 7.89 10.21 7.65
5/27/2022 11:30:00 PM 17.63 63.734 0.562 7.88 10.09 7.58
5/27/2022 11:45:00 PM 17.58 63.644 0.562 7.87 9.89 7.51
5/28/2022 12:00:00 AM 17.53 63.554 0.563 7.87 9.39 7.51
5/28/2022 12:15:00 AM 17.48 63.464 0.563 7.87 9.07 7.46
5/28/2022 12:30:00 AM 17.43 63.374 0.564 7.86 8.69 7.41
5/28/2022 12:45:00 AM 17.38 63.284 0.564 7.85 9.18 7.38
5/28/2022 1:00:00 AM 17.33 63.194 0.564 7.85 8.94 7.37
5/28/2022 1:15:00 AM 17.29 63.122 0.563 7.84 8.53 7.3
5/28/2022 1:30:00 AM 17.24 63.032 0.563 7.84 8.63 7.29
5/28/2022 1:45:00 AM 17.19 62.942 0.563 7.83 8.6 7.26
5/28/2022 2:00:00 AM 17.15 62.87 0.563 7.83 8.27 7.21
5/28/2022 2:15:00 AM 17.1 62.78 0.564 7.82 8.41 7.17
5/28/2022 2:30:00 AM 17.05 62.69 0.565 7.82 9.03 7.17
5/28/2022 2:45:00 AM 17.01 62.618 0.565 7.81 9.28 7.12
5/28/2022 3:00:00 AM 16.96 62.528 0.566 7.81 8.96 7.14
5/28/2022 3:15:00 AM 16.91 62.438 0.567 7.81 9.05 7.12
5/28/2022 3:30:00 AM 16.87 62.366 0.567 7.81 13.87 7.13
5/28/2022 3:45:00 AM 16.82 62.276 0.567 7.8 8.4 7.09
5/28/2022 4:00:00 AM 16.77 62.186 0.567 7.8 8.39 7.08
5/28/2022 4:15:00 AM 16.72 62.096 0.567 7.8 11.43 7.08
5/28/2022 4:30:00 AM 16.67 62.006 0.566 7.8 8.21 7.03
5/28/2022 4:45:00 AM 16.63 61.934 0.566 7.79 13.21 7.02
5/28/2022 5:00:00 AM 16.58 61.844 0.567 7.79 8.69 6.98
5/28/2022 5:15:00 AM 16.53 61.754 0.567 7.78 9.86 7.02
5/28/2022 5:30:00 AM 16.49 61.682 0.567 7.78 9.78 7.01
5/28/2022 5:45:00 AM 16.44 61.592 0.568 7.78 8.14 6.99
5/28/2022 6:00:00 AM 16.4 61.52 0.568 7.78 7.75 7.01
5/28/2022 6:15:00 AM 16.36 61.448 0.568 7.78 7.93 7.02
5/28/2022 6:30:00 AM 16.32 61.376 0.569 7.78 9.41 7.07
5/28/2022 6:45:00 AM 16.28 61.304 0.569 7.78 7.2 7.08
5/28/2022 7:00:00 AM 16.24 61.232 0.569 7.78 7.52 7.12
5/28/2022 7:15:00 AM 16.21 61.178 0.569 7.78 7.26 7.12
5/28/2022 7:30:00 AM 16.19 61.142 0.569 7.78 8.6 7.18
5/28/2022 7:45:00 AM 16.18 61.124 0.569 7.79 6.83 7.25
5/28/2022 8:00:00 AM 16.18 61.124 0.568 7.79 6.8 7.33
5/28/2022 8:15:00 AM 16.18 61.124 0.568 7.79 6.73 7.4
5/28/2022 8:30:00 AM 16.19 61.142 0.568 7.79 7.26 7.44
5/28/2022 8:45:00 AM 16.18 61.124 0.568 7.8 6.84 7.53
5/28/2022 9:00:00 AM 16.18 61.124 0.568 7.81 6.83 7.59
5/28/2022 9:15:00 AM 16.18 61.124 0.568 7.81 6.95 7.66
5/28/2022 9:30:00 AM 16.17 61.106 0.567 7.82 6.91 7.7
5/28/2022 9:45:00 AM 16.15 61.07 0.566 7.82 9.09 7.78
5/28/2022 10:00:00 AM 16.15 61.07 0.566 7.82 6.52 7.85
5/28/2022 10:15:00 AM 16.14 61.052 0.566 7.83 6.78 7.88
5/28/2022 10:30:00 AM 16.15 61.07 0.566 7.84 6.78 7.96
5/28/2022 10:45:00 AM 16.19 61.142 0.565 7.85 6.35 8.12
5/28/2022 11:00:00 AM 16.22 61.196 0.566 7.85 7.05 8.19
5/28/2022 11:15:00 AM 16.21 61.178 0.566 7.85 15.19 8.22
5/28/2022 11:30:00 AM 16.23 61.214 0.566 7.86 7.9 8.3
5/28/2022 11:45:00 AM 16.27 61.286 0.566 7.87 6.54 8.37
5/28/2022 12:00:00 PM 16.28 61.304 0.566 7.88 6.48 8.45
5/28/2022 12:15:00 PM 16.28 61.304 0.353 7.88 7.71 8.52
5/28/2022 12:30:00 PM 16.28 61.304 0.567 7.89 6.13 8.49
5/28/2022 12:45:00 PM 16.26 61.268 0.566 7.89 6.5 8.53
5/28/2022 1:00:00 PM 16.27 61.286 0.564 7.9 6.39 8.59
5/28/2022 1:15:00 PM 16.46 61.628 0.564 7.91 6.38 8.78
5/28/2022 1:30:00 PM 16.55 61.79 0.283 7.92 7.86 8.87
5/28/2022 1:45:00 PM 16.62 61.916 0.563 7.93 6.59 8.89
5/28/2022 2:00:00 PM 16.77 62.186 0.563 7.93 6.6 8.98
5/28/2022 2:15:00 PM 16.76 62.168 0.562 7.94 6.86 9.07
5/28/2022 2:30:00 PM 16.76 62.168 0.562 7.94 6.32 9.08
5/28/2022 2:45:00 PM 16.79 62.222 0.561 7.95 6.95 9.18
5/28/2022 3:00:00 PM 16.86 62.348 0.56 7.97 5.81 9.3
5/28/2022 3:15:00 PM 16.79 62.222 0.559 7.97 6.02 9.24
5/28/2022 3:30:00 PM 16.77 62.186 0.559 7.97 5.81 9.19
5/28/2022 3:45:00 PM 16.73 62.114 0.558 7.97 5.76 9.21
5/28/2022 4:00:00 PM 16.7 62.06 0.557 7.97 6.44 9.22
5/28/2022 4:15:00 PM 16.7 62.06 0.557 7.97 6.05 9.22
5/28/2022 4:30:00 PM 16.72 62.096 0.557 7.99 6.08 9.23
5/28/2022 4:45:00 PM 16.72 62.096 0.558 7.98 6.12 9.19
5/28/2022 5:00:00 PM 16.74 62.132 0.558 7.98 8.23 9.21
5/28/2022 5:15:00 PM 16.73 62.114 0.558 7.98 6.39 9.13
5/28/2022 5:30:00 PM 16.74 62.132 0.559 7.99 6.12 9.17
5/28/2022 5:45:00 PM 16.75 62.15 0.559 7.99 6.31 9.12
5/28/2022 6:00:00 PM 16.76 62.168 0.56 7.99 6.24 9.15
5/28/2022 6:15:00 PM 16.75 62.15 0.56 7.99 6.35 9.11
5/28/2022 6:30:00 PM 16.76 62.168 0.56 7.99 6.29 9.12
5/28/2022 6:45:00 PM 16.76 62.168 0.559 7.99 6.25 9.08
5/28/2022 7:00:00 PM 16.75 62.15 0.559 7.99 6.37 9.06
5/28/2022 7:15:00 PM 16.74 62.132 0.559 7.99 5.88 9.07
5/28/2022 7:30:00 PM 16.71 62.078 0.559 7.99 6.19 9.04
5/28/2022 7:45:00 PM 16.68 62.024 0.558 7.99 6.15 9.01
5/28/2022 8:00:00 PM 16.67 62.006 0.558 7.99 6.01 9.02
5/28/2022 8:15:00 PM 16.65 61.97 0.557 7.99 6.8 8.97
5/28/2022 8:30:00 PM 16.63 61.934 0.557 7.98 7.58 8.93
5/28/2022 8:45:00 PM 16.59 61.862 0.555 7.98 6.36 8.85
5/28/2022 9:00:00 PM 16.56 61.808 0.555 7.97 8.52 8.79
5/28/2022 9:15:00 PM 16.53 61.754 0.554 7.97 6.67 8.71
5/28/2022 9:30:00 PM 16.5 61.7 0.553 7.96 8.11 8.64
5/28/2022 9:45:00 PM 16.46 61.628 0.552 7.96 8.19 8.58
5/28/2022 10:00:00 PM 16.42 61.556 0.552 7.95 7.18 8.5
5/28/2022 10:15:00 PM 16.38 61.484 0.552 7.94 7.27 8.46
5/28/2022 10:30:00 PM 16.34 61.412 0.553 7.93 7.3 8.4
5/28/2022 10:45:00 PM 16.31 61.358 0.554 7.92 8.8 8.35
5/28/2022 11:00:00 PM 16.27 61.286 0.554 7.92 8.23 8.3
5/28/2022 11:15:00 PM 16.24 61.232 0.556 7.91 8.87 8.25
5/28/2022 11:30:00 PM 16.2 61.16 0.556 7.9 7.83 8.18
5/28/2022 11:45:00 PM 16.15 61.07 0.557 7.89 8.04 8.15
5/29/2022 12:00:00 AM 16.1 60.98 0.559 7.89 7.94 8.1
5/29/2022 12:15:00 AM 16.04 60.872 0.56 7.88 8.22 8.04
5/29/2022 12:30:00 AM 15.99 60.782 0.561 7.88 8.11 8.04
5/29/2022 12:45:00 AM 15.94 60.692 0.562 7.87 8.32 7.98
5/29/2022 1:00:00 AM 15.89 60.602 0.562 7.86 9.35 7.97
5/29/2022 1:15:00 AM 15.85 60.53 0.563 7.86 10.22 7.93
5/29/2022 1:30:00 AM 15.81 60.458 0.563 7.85 7.58 7.88
5/29/2022 1:45:00 AM 15.76 60.368 0.564 7.83 14.44 7.83
5/29/2022 2:00:00 AM 15.72 60.296 0.563 7.83 11.06 7.79
5/29/2022 2:15:00 AM 15.68 60.224 0.563 7.82 8.65 7.74
5/29/2022 2:30:00 AM 15.64 60.152 0.563 7.82 9.64 7.73
5/29/2022 2:45:00 AM 15.6 60.08 0.562 7.81 10.05 7.68
5/29/2022 3:00:00 AM 15.55 59.99 0.56 7.8 11.25 7.65
5/29/2022 3:15:00 AM 15.51 59.918 0.297 7.79 10.65 7.62
5/29/2022 3:30:00 AM 15.47 59.846 0.558 7.79 8.57 7.58
5/29/2022 3:45:00 AM 15.43 59.774 0.565 7.78 10.31 7.56
5/29/2022 4:00:00 AM 15.4 59.72 0.556 7.78 8.71 7.51
5/29/2022 4:15:00 AM 15.36 59.648 0.562 7.77 10.33 7.52
5/29/2022 4:30:00 AM 15.33 59.594 0.555 7.77 8.6 7.47
5/29/2022 4:45:00 AM 15.29 59.522 0.574 7.76 10.34 7.51
5/29/2022 5:00:00 AM 15.25 59.45 0.554 7.76 10.37 7.48
5/29/2022 5:15:00 AM 15.22 59.396 0.374 7.76 9.55 7.49
5/29/2022 5:30:00 AM 15.18 59.324 0.553 7.76 8.79 7.48
5/29/2022 5:45:00 AM 15.14 59.252 0.552 7.76 8.68 7.47
5/29/2022 6:00:00 AM 15.1 59.18 0.552 7.76 8.68 7.51
5/29/2022 6:15:00 AM 15.07 59.126 0.551 7.76 8.63 7.52
5/29/2022 6:30:00 AM 15.03 59.054 0.55 7.76 8.38 7.55
5/29/2022 6:45:00 AM 15 59 0.549 7.76 8.34 7.58
5/29/2022 7:00:00 AM 14.97 58.946 0.548 7.76 8.15 7.63
5/29/2022 7:15:00 AM 14.94 58.892 0.547 7.77 8 7.64
5/29/2022 7:30:00 AM 14.92 58.856 0.377 7.77 9.45 7.73
5/29/2022 7:45:00 AM 14.9 58.82 0.545 7.77 10.78 7.78
5/29/2022 8:00:00 AM 14.89 58.802 0.41 7.78 10.7 7.84
5/29/2022 8:15:00 AM 14.9 58.82 0.33 7.78 9 7.91
5/29/2022 8:30:00 AM 14.91 58.838 0.331 7.79 8.92 8
5/29/2022 8:45:00 AM 14.91 58.838 0.543 7.79 7.3 8.03
5/29/2022 9:00:00 AM 14.92 58.856 0.543 7.8 7.36 8.11
5/29/2022 9:15:00 AM 14.92 58.856 0.543 7.8 8.29 8.16
5/29/2022 9:30:00 AM 14.97 58.946 0.389 7.81 8.55 8.24
5/29/2022 9:45:00 AM 15.03 59.054 0.543 7.82 6.88 8.31
5/29/2022 10:00:00 AM 15.1 59.18 0.543 7.82 6.54 8.38
5/29/2022 10:15:00 AM 15.21 59.378 0.544 7.82 7.95 8.49
5/29/2022 10:30:00 AM 15.31 59.558 0.544 7.83 6.57 8.6
5/29/2022 10:45:00 AM 15.49 59.882 0.544 7.84 6.97 8.7
5/29/2022 11:00:00 AM 15.57 60.026 0.544 7.85 6.51 8.79
5/29/2022 11:15:00 AM 15.76 60.368 0.545 7.86 6.59 8.9
5/29/2022 11:30:00 AM 15.98 60.764 0.545 7.87 6.74 9.01
5/29/2022 11:45:00 AM 16.18 61.124 0.545 7.88 7.29 9.12
5/29/2022 12:00:00 PM 16.35 61.43 0.545 7.89 6.83 9.21
5/29/2022 12:15:00 PM 16.57 61.826 0.544 7.9 6.68 9.29
5/29/2022 12:30:00 PM 16.79 62.222 0.544 7.91 6.44 9.41
5/29/2022 12:45:00 PM 16.99 62.582 0.544 7.92 6.68 9.49
5/29/2022 1:00:00 PM 17.26 63.068 0.543 7.93 6.43 9.58
5/29/2022 1:15:00 PM 17.6 63.68 0.543 7.94 6.67 9.71
5/29/2022 1:30:00 PM 17.91 64.238 0.542 7.95 6.82 9.81
5/29/2022 1:45:00 PM 18.16 64.688 0.541 7.97 6.69 9.92
5/29/2022 2:00:00 PM 18.41 65.138 0.541 7.98 6.59 9.99
5/29/2022 2:15:00 PM 18.66 65.588 0.54 7.99 6.22 10.08
5/29/2022 2:30:00 PM 18.9 66.02 0.54 8 6.42 10.15
5/29/2022 2:45:00 PM 19.12 66.416 0.539 8.02 6.04 10.2
5/29/2022 3:00:00 PM 19.25 66.65 0.538 8.03 6.41 10.27
5/29/2022 3:15:00 PM 19.3 66.74 0.538 8.04 6.14 10.29
5/29/2022 3:30:00 PM 19.41 66.938 0.537 8.05 5.85 10.33
5/29/2022 3:45:00 PM 19.62 67.316 0.537 8.06 5.86 10.37
5/29/2022 4:00:00 PM 19.77 67.586 0.537 8.06 5.95 10.35
5/29/2022 4:15:00 PM 19.87 67.766 0.536 8.06 6.01 10.28
5/29/2022 4:30:00 PM 19.94 67.892 0.536 8.07 5.88 10.22
5/29/2022 4:45:00 PM 20.05 68.09 0.536 8.07 6.05 10.21
5/29/2022 5:00:00 PM 20.15 68.27 0.536 8.07 6.02 10.15
5/29/2022 5:15:00 PM 20.22 68.396 0.536 8.07 5.84 10.13
5/29/2022 5:30:00 PM 20.28 68.504 0.535 8.07 5.79 10.01
5/29/2022 5:45:00 PM 20.32 68.576 0.535 8.07 5.87 9.93
5/29/2022 6:00:00 PM 20.36 68.648 0.535 8.06 6.46 9.79
5/29/2022 6:15:00 PM 20.39 68.702 0.535 8.06 6.34 9.72
5/29/2022 6:30:00 PM 20.41 68.738 0.535 8.06 6.24 9.61
5/29/2022 6:45:00 PM 20.42 68.756 0.535 8.05 6.58 9.48
5/29/2022 7:00:00 PM 20.43 68.774 0.535 8.04 6.73 9.38
5/29/2022 7:15:00 PM 20.45 68.81 0.535 8.05 7.1 9.24
5/29/2022 7:30:00 PM 20.43 68.774 0.535 8.04 7.83 9.13
5/29/2022 7:45:00 PM 20.4 68.72 0.535 8.03 6.9 8.98
5/29/2022 8:00:00 PM 20.36 68.648 0.535 8.02 7.19 8.85
5/29/2022 8:15:00 PM 20.3 68.54 0.536 8.01 6.78 8.71
5/29/2022 8:30:00 PM 20.25 68.45 0.536 8 6.89 8.59
5/29/2022 8:45:00 PM 20.17 68.306 0.536 7.98 6.91 8.44
5/29/2022 9:00:00 PM 20.1 68.18 0.536 7.97 6.6 8.3
5/29/2022 9:15:00 PM 20.01 68.018 0.536 7.96 6.43 8.19
5/29/2022 9:30:00 PM 19.92 67.856 0.536 7.95 6.93 8.09
5/29/2022 9:45:00 PM 19.84 67.712 0.537 7.94 6.4 8
5/29/2022 10:00:00 PM 19.75 67.55 0.537 7.93 6.94 7.91
5/29/2022 10:15:00 PM 19.67 67.406 0.537 7.92 6.49 7.79
5/29/2022 10:30:00 PM 19.58 67.244 0.537 7.91 6.84 7.71
5/29/2022 10:45:00 PM 19.49 67.082 0.538 7.91 9.9 7.63
5/29/2022 11:00:00 PM 19.39 66.902 0.538 7.9 7.42 7.56
5/29/2022 11:15:00 PM 19.3 66.74 0.538 7.89 6.61 7.5
5/29/2022 11:30:00 PM 19.2 66.56 0.538 7.88 6.84 7.44
5/29/2022 11:45:00 PM 19.1 66.38 0.538 7.87 6.74 7.35
5/30/2022 12:00:00 AM 18.99 66.182 0.538 7.87 5.97 7.29
5/30/2022 12:15:00 AM 18.88 65.984 0.539 7.86 6.32 7.23
5/30/2022 12:30:00 AM 18.77 65.786 0.539 7.85 6.52 7.19
5/30/2022 12:45:00 AM 18.67 65.606 0.539 7.85 7.16 7.15
5/30/2022 1:00:00 AM 18.55 65.39 0.539 7.84 7.31 7.09
5/30/2022 1:15:00 AM 18.44 65.192 0.54 7.83 6.75 7.04
5/30/2022 1:30:00 AM 18.34 65.012 0.54 7.83 7.48 7.01
5/30/2022 1:45:00 AM 18.23 64.814 0.54 7.82 7.4 7
5/30/2022 2:00:00 AM 18.13 64.634 0.541 7.82 8.02 6.97
5/30/2022 2:15:00 AM 18.03 64.454 0.541 7.81 7.28 6.94
5/30/2022 2:30:00 AM 17.93 64.274 0.541 7.8 6.37 6.89
5/30/2022 2:45:00 AM 17.82 64.076 0.542 7.8 6.43 6.87
5/30/2022 3:00:00 AM 17.72 63.896 0.542 7.79 6.66 6.88
5/30/2022 3:15:00 AM 17.62 63.716 0.543 7.79 7.18 6.84
5/30/2022 3:30:00 AM 17.52 63.536 0.543 7.78 7.12 6.86
5/30/2022 3:45:00 AM 17.42 63.356 0.544 7.78 6.99 6.83
5/30/2022 4:00:00 AM 17.33 63.194 0.544 7.77 6.93 6.82
5/30/2022 4:15:00 AM 17.24 63.032 0.545 7.77 7.4 6.85
5/30/2022 4:30:00 AM 17.15 62.87 0.545 7.77 7.46 6.85
5/30/2022 4:45:00 AM 17.07 62.726 0.545 7.76 6.13 6.82
5/30/2022 5:00:00 AM 17 62.6 0.546 7.76 6.29 6.78
5/30/2022 5:15:00 AM 16.93 62.474 0.546 7.76 6.46 6.8
5/30/2022 5:30:00 AM 16.86 62.348 0.546 7.76 6.87 6.82
5/30/2022 5:45:00 AM 16.79 62.222 0.547 7.75 6.69 6.81
5/30/2022 6:00:00 AM 16.73 62.114 0.547 7.75 6.75 6.81
5/30/2022 6:15:00 AM 16.68 62.024 0.547 7.75 6.05 6.8
5/30/2022 6:30:00 AM 16.62 61.916 0.547 7.75 6.91 6.89
5/30/2022 6:45:00 AM 16.56 61.808 0.547 7.75 6.69 6.86
5/30/2022 7:00:00 AM 16.51 61.718 0.547 7.74 6.9 6.89
5/30/2022 7:15:00 AM 16.47 61.646 0.547 7.75 6.74 6.98
5/30/2022 7:30:00 AM 16.42 61.556 0.548 7.75 6.63 7.02
5/30/2022 7:45:00 AM 16.38 61.484 0.548 7.76 6.64 7.08
5/30/2022 8:00:00 AM 16.34 61.412 0.548 7.76 6.24 7.13
5/30/2022 8:15:00 AM 16.31 61.358 0.548 7.76 7.89 7.2
5/30/2022 8:30:00 AM 16.3 61.34 0.548 7.76 6.34 7.24
5/30/2022 8:45:00 AM 16.3 61.34 0.548 7.77 6.19 7.32
5/30/2022 9:00:00 AM 16.31 61.358 0.548 7.78 5.79 7.39
5/30/2022 9:15:00 AM 16.33 61.394 0.548 7.78 5.8 7.5
5/30/2022 9:30:00 AM 16.36 61.448 0.549 7.79 5.51 7.59
5/30/2022 9:45:00 AM 16.39 61.502 0.344 7.8 8.49 7.74
5/30/2022 10:00:00 AM 16.45 61.61 0.548 7.81 5.69 7.8
5/30/2022 10:15:00 AM 16.52 61.736 0.549 7.81 5.58 7.94
5/30/2022 10:30:00 AM 16.58 61.844 0.549 7.83 5.12 8.04
5/30/2022 10:45:00 AM 16.71 62.078 0.549 7.83 5 8.21
5/30/2022 11:00:00 AM 16.85 62.33 0.549 7.84 5.19 8.31
5/30/2022 11:15:00 AM 17.03 62.654 0.549 7.86 5.2 8.44
5/30/2022 11:30:00 AM 17.23 63.014 0.549 7.87 5.06 8.52
5/30/2022 11:45:00 AM 17.43 63.374 0.549 7.88 5.41 8.65
5/30/2022 12:00:00 PM 17.65 63.77 0.549 7.89 5.14 8.82
5/30/2022 12:15:00 PM 17.86 64.148 0.55 7.9 5.21 8.97
5/30/2022 12:30:00 PM 18.11 64.598 0.551 7.91 5.11 9.09
5/30/2022 12:45:00 PM 18.35 65.03 0.551 7.92 5.39 9.22
5/30/2022 1:00:00 PM 18.59 65.462 0.552 7.93 4.73 9.3
5/30/2022 1:15:00 PM 18.85 65.93 0.553 7.95 5.25 9.44
5/30/2022 1:30:00 PM 19.12 66.416 0.553 7.96 4.68 9.53
5/30/2022 1:45:00 PM 19.38 66.884 0.554 7.96 4.88 9.64
5/30/2022 2:00:00 PM 19.64 67.352 0.554 7.98 4.9 9.74
5/30/2022 2:15:00 PM 19.9 67.82 0.555 7.99 5 9.82
5/30/2022 2:30:00 PM 20.14 68.252 0.555 7.99 4.66 9.87
5/30/2022 2:45:00 PM 20.39 68.702 0.556 8 4.78 9.91
5/30/2022 3:00:00 PM 20.6 69.08 0.557 8.01 4.66 9.97
5/30/2022 3:15:00 PM 20.81 69.458 0.557 8.02 4.72 10.04
5/30/2022 3:30:00 PM 20.97 69.746 0.558 8.02 4.66 9.99
5/30/2022 3:45:00 PM 21.12 70.016 0.558 8.02 4.79 10
5/30/2022 4:00:00 PM 21.26 70.268 0.559 8.03 4.57 9.99
5/30/2022 4:15:00 PM 21.39 70.502 0.559 8.03 4.77 10.03
5/30/2022 4:30:00 PM 21.51 70.718 0.56 8.04 4.83 9.96
5/30/2022 4:45:00 PM 21.62 70.916 0.56 8.05 4.62 9.92
5/30/2022 5:00:00 PM 21.71 71.078 0.561 8.04 4.56 9.87
5/30/2022 5:15:00 PM 21.78 71.204 0.561 8.04 4.7 9.82
5/30/2022 5:30:00 PM 21.84 71.312 0.562 8.04 4.67 9.71
5/30/2022 5:45:00 PM 21.89 71.402 0.562 8.04 4.59 9.65
5/30/2022 6:00:00 PM 21.94 71.492 0.562 8.04 4.79 9.53
5/30/2022 6:15:00 PM 21.96 71.528 0.562 8.03 5.22 9.44
5/30/2022 6:30:00 PM 21.97 71.546 0.563 8.03 5.4 9.33
5/30/2022 6:45:00 PM 21.98 71.564 0.563 8.02 5.11 9.22
5/30/2022 7:00:00 PM 21.98 71.564 0.563 8.01 5.05 9.05
5/30/2022 7:15:00 PM 21.96 71.528 0.564 8 5.76 8.87
5/30/2022 7:30:00 PM 21.94 71.492 0.564 7.99 5.55 8.73
5/30/2022 7:45:00 PM 21.91 71.438 0.564 7.98 5.4 8.63
5/30/2022 8:00:00 PM 21.88 71.384 0.565 7.98 5.54 8.45
5/30/2022 8:15:00 PM 21.83 71.294 0.565 7.97 5.06 8.36
5/30/2022 8:30:00 PM 21.78 71.204 0.565 7.96 6.26 8.19
5/30/2022 8:45:00 PM 21.73 71.114 0.566 7.96 6.04 8.11
5/30/2022 9:00:00 PM 21.67 71.006 0.566 7.94 6.06 8.01
5/30/2022 9:15:00 PM 21.61 70.898 0.567 7.93 5.19 7.85
5/30/2022 9:30:00 PM 21.55 70.79 0.567 7.92 6.1 7.69
5/30/2022 9:45:00 PM 21.48 70.664 0.568 7.91 6.14 7.61
5/30/2022 10:00:00 PM 21.41 70.538 0.568 7.9 5.57 7.46
5/30/2022 10:15:00 PM 21.35 70.43 0.568 7.89 5.61 7.36
5/30/2022 10:30:00 PM 21.27 70.286 0.569 7.88 5.5 7.25
5/30/2022 10:45:00 PM 21.2 70.16 0.569 7.88 5.5 7.2
5/30/2022 11:00:00 PM 21.12 70.016 0.57 7.86 6 7.08
5/30/2022 11:15:00 PM 21.04 69.872 0.57 7.86 5.48 6.99
5/30/2022 11:30:00 PM 20.95 69.71 0.57 7.85 5.92 6.88
5/30/2022 11:45:00 PM 20.86 69.548 0.571 7.84 5.98 6.81
5/31/2022 12:00:00 AM 20.77 69.386 0.571 7.84 5.93 6.79
5/31/2022 12:15:00 AM 20.69 69.242 0.572 7.83 5.35 6.69
5/31/2022 12:30:00 AM 20.59 69.062 0.572 7.82 5.71 6.6
5/31/2022 12:45:00 AM 20.5 68.9 0.572 7.81 5.45 6.58
5/31/2022 1:00:00 AM 20.4 68.72 0.573 7.81 5.82 6.53
5/31/2022 1:15:00 AM 20.31 68.558 0.573 7.8 6.83 6.45
5/31/2022 1:30:00 AM 20.22 68.396 0.573 7.79 5.75 6.38
5/31/2022 1:45:00 AM 20.12 68.216 0.573 7.79 5.67 6.34
5/31/2022 2:00:00 AM 20.03 68.054 0.574 7.78 6.33 6.32
5/31/2022 2:15:00 AM 19.93 67.874 0.574 7.78 6.33 6.29
5/31/2022 2:30:00 AM 19.83 67.694 0.574 7.77 5.48 6.24
5/31/2022 2:45:00 AM 19.74 67.532 0.574 7.77 5.66 6.23
5/31/2022 3:00:00 AM 19.64 67.352 0.575 7.77 5.48 6.21
5/31/2022 3:15:00 AM 19.53 67.154 0.575 7.76 6.35 6.14
5/31/2022 3:30:00 AM 19.43 66.974 0.575 7.76 6.31 6.17
5/31/2022 3:45:00 AM 19.32 66.776 0.575 7.75 5.87 6.15
5/31/2022 4:00:00 AM 19.22 66.596 0.576 7.75 6.85 6.16
5/31/2022 4:15:00 AM 19.12 66.416 0.576 7.74 6.76 6.15
5/31/2022 4:30:00 AM 19.01 66.218 0.576 7.74 6.7 6.17
5/31/2022 4:45:00 AM 18.92 66.056 0.576 7.74 7.08 6.12
5/31/2022 5:00:00 AM 18.83 65.894 0.577 7.74 6.7 6.14
5/31/2022 5:15:00 AM 18.74 65.732 0.577 7.73 7.04 6.12
5/31/2022 5:30:00 AM 18.65 65.57 0.577 7.73 7.09 6.13
5/31/2022 5:45:00 AM 18.56 65.408 0.577 7.73 7.67 6.12
5/31/2022 6:00:00 AM 18.48 65.264 0.578 7.73 7.21 6.14
5/31/2022 6:15:00 AM 18.41 65.138 0.578 7.73 6.98 6.19
5/31/2022 6:30:00 AM 18.34 65.012 0.578 7.73 7.09 6.2
5/31/2022 6:45:00 AM 18.28 64.904 0.578 7.73 6.43 6.26
5/31/2022 7:00:00 AM 18.22 64.796 0.579 7.72 6.85 6.26
5/31/2022 7:15:00 AM 18.18 64.724 0.579 7.73 6.38 6.29
5/31/2022 7:30:00 AM 18.13 64.634 0.579 7.73 6.02 6.33
5/31/2022 7:45:00 AM 18.08 64.544 0.579 7.73 6.25 6.35
5/31/2022 8:00:00 AM 18.03 64.454 0.579 7.73 6.36 6.37
5/31/2022 8:15:00 AM 18 64.4 0.579 7.73 6.1 6.41
5/31/2022 8:30:00 AM 17.97 64.346 0.579 7.73 5.77 6.45
5/31/2022 8:45:00 AM 17.95 64.31 0.579 7.73 5.91 6.5
5/31/2022 9:00:00 AM 17.95 64.31 0.579 7.74 5.56 6.56
5/31/2022 9:15:00 AM 17.97 64.346 0.579 7.74 6.18 6.6
5/31/2022 9:30:00 AM 18.03 64.454 0.579 7.74 6.39 6.69
5/31/2022 9:45:00 AM 18.08 64.544 0.579 7.75 6.41 6.75
5/31/2022 10:00:00 AM 18.18 64.724 0.579 7.75 6.77 6.87
5/31/2022 10:15:00 AM 18.3 64.94 0.579 7.76 6.1 6.95
5/31/2022 10:30:00 AM 18.42 65.156 0.579 7.77 6.25 7.11
5/31/2022 10:45:00 AM 18.56 65.408 0.579 7.78 5.51 7.26
5/31/2022 11:00:00 AM 18.72 65.696 0.579 7.79 6.42 7.32
5/31/2022 11:15:00 AM 18.89 66.002 0.579 7.8 5.8 7.58
5/31/2022 11:30:00 AM 19.06 66.308 0.579 7.81 5.9 7.66
5/31/2022 11:45:00 AM 19.21 66.578 0.579 7.82 5.65 7.78
5/31/2022 12:00:00 PM 19.44 66.992 0.579 7.83 5.25 7.95
5/31/2022 12:15:00 PM 19.69 67.442 0.579 7.85 5.67 8.14
5/31/2022 12:30:00 PM 19.96 67.92799 0.579 7.86 5.47 8.29
5/31/2022 12:45:00 PM 20.23 68.414 0.579 7.87 5.23 8.43
5/31/2022 1:00:00 PM 20.45 68.81 0.579 7.88 5.22 8.57
5/31/2022 1:15:00 PM 20.71 69.278 0.579 7.88 5.2 8.66
5/31/2022 1:30:00 PM 20.95 69.71 0.58 7.89 5.4 8.8
5/31/2022 1:45:00 PM 21.19 70.142 0.58 7.91 5.79 8.91
5/31/2022 2:00:00 PM 21.3 70.34 0.58 7.92 4.88 8.95
5/31/2022 2:15:00 PM 21.54 70.772 0.58 7.93 5.09 9.07
5/31/2022 2:30:00 PM 21.76 71.168 0.58 7.94 4.71 9.15
5/31/2022 2:45:00 PM 21.99 71.582 0.58 7.95 5.43 9.26
5/31/2022 3:00:00 PM 22.17 71.906 0.58 7.96 5.05 9.33
5/31/2022 3:15:00 PM 22.32 72.176 0.579 7.96 5.82 9.37
5/31/2022 3:30:00 PM 22.47 72.446 0.581 7.97 8.68 9.41
5/31/2022 3:45:00 PM 22.6 72.68 0.581 7.97 5.62 9.36
5/31/2022 4:00:00 PM 22.7 72.86 0.582 7.98 5.06 9.39
5/31/2022 4:15:00 PM 22.8 73.04 0.581 7.98 6.2 9.32
5/31/2022 4:30:00 PM 22.9 73.22 0.582 7.98 9.16 9.39
5/31/2022 4:45:00 PM 22.89 73.202 0.582 7.98 6.91 9.21
5/31/2022 5:00:00 PM 22.91 73.238 0.582 7.97 6.43 9.15
5/31/2022 5:15:00 PM 22.96 73.328 0.583 7.98 7.9 9.11
5/31/2022 5:30:00 PM 23.03 73.454 0.583 7.98 5.26 9.14
5/31/2022 5:45:00 PM 23.04 73.472 0.584 7.98 5.82 9
5/31/2022 6:00:00 PM 23.05 73.49 0.584 7.97 6.54 8.9
5/31/2022 6:15:00 PM 23.05 73.49 0.585 7.96 5.92 8.79
5/31/2022 6:30:00 PM 23.06 73.508 0.586 7.97 5.91 8.69
5/31/2022 6:45:00 PM 23.05 73.49 0.585 7.96 5.03 8.57
5/31/2022 7:00:00 PM 23.01 73.418 0.586 7.96 5.5 8.5
5/31/2022 7:15:00 PM 22.96 73.328 0.586 7.96 4.98 8.4
5/31/2022 7:30:00 PM 22.92 73.256 0.587 7.94 5.56 8.26
5/31/2022 7:45:00 PM 22.86 73.148 0.587 7.94 5.39 8.16
5/31/2022 8:00:00 PM 22.81 73.058 0.587 7.94 6.95 8.05
5/31/2022 8:15:00 PM 22.74 72.932 0.588 7.93 5.7 7.92
5/31/2022 8:30:00 PM 22.67 72.806 0.588 7.91 5.71 7.77
5/31/2022 8:45:00 PM 22.59 72.662 0.588 7.91 10.57 7.6
5/31/2022 9:00:00 PM 22.53 72.554 0.588 7.9 6.28 7.44
5/31/2022 9:15:00 PM 22.46 72.42799 0.588 7.9 6.59 7.36
5/31/2022 9:30:00 PM 22.39 72.302 0.589 7.88 6.46 7.24
5/31/2022 9:45:00 PM 22.32 72.176 0.589 7.88 6.11 7.08
5/31/2022 10:00:00 PM 22.25 72.05 0.589 7.88 6.87 7.03
5/31/2022 10:15:00 PM 22.17 71.906 0.589 7.87 5.84 6.96
5/31/2022 10:30:00 PM 22.09 71.762 0.589 7.86 5.99 6.89
5/31/2022 10:45:00 PM 22.02 71.636 0.589 7.85 6.11 6.76
5/31/2022 11:00:00 PM 21.94 71.492 0.589 7.85 5.79 6.69
5/31/2022 11:15:00 PM 21.86 71.348 0.589 7.84 6.28 6.58
5/31/2022 11:30:00 PM 21.77 71.186 0.589 7.84 6.37 6.53
5/31/2022 11:45:00 PM 21.67 71.006 0.59 7.82 6.54 6.44
6/1/2022 12:00:00 AM 21.58 70.844 0.59 7.82 7 6.41
6/1/2022 12:15:00 AM 21.48 70.664 0.59 7.82 6.29 6.31
6/1/2022 12:30:00 AM 21.38 70.484 0.59 7.81 6.32 6.3
6/1/2022 12:45:00 AM 21.28 70.304 0.59 7.8 6.58 6.19
6/1/2022 1:00:00 AM 21.18 70.124 0.59 7.79 8.31 6.11
6/1/2022 1:15:00 AM 21.07 69.926 0.59 7.79 6.63 6.1
6/1/2022 1:30:00 AM 20.98 69.764 0.591 7.78 6.92 6.07
6/1/2022 1:45:00 AM 20.87 69.566 0.59 7.78 6.95 6
6/1/2022 2:00:00 AM 20.76 69.368 0.59 7.78 7.18 6.03
6/1/2022 2:15:00 AM 20.67 69.206 0.591 7.77 6.7 5.96
6/1/2022 2:30:00 AM 20.57 69.026 0.591 7.77 7.34 5.94
6/1/2022 2:45:00 AM 20.47 68.846 0.591 7.76 7.12 5.92
6/1/2022 3:00:00 AM 20.37 68.666 0.591 7.76 7.21 5.87
6/1/2022 3:15:00 AM 20.27 68.486 0.591 7.75 7.37 5.86
6/1/2022 3:30:00 AM 20.17 68.306 0.591 7.75 6.88 5.89
6/1/2022 3:45:00 AM 20.07 68.126 0.592 7.75 7.09 5.87
6/1/2022 4:00:00 AM 19.97 67.946 0.592 7.74 7.18 5.86
6/1/2022 4:15:00 AM 19.87 67.766 0.592 7.74 6.66 5.86
6/1/2022 4:30:00 AM 19.78 67.604 0.593 7.74 7.08 5.83
6/1/2022 4:45:00 AM 19.69 67.442 0.593 7.73 6.82 5.81
6/1/2022 5:00:00 AM 19.59 67.262 0.593 7.73 6.45 5.76
6/1/2022 5:15:00 AM 19.51 67.118 0.593 7.73 6.12 5.78
6/1/2022 5:30:00 AM 19.42 66.956 0.594 7.73 6.36 5.81
6/1/2022 5:45:00 AM 19.34 66.812 0.594 7.72 6.74 5.8
6/1/2022 6:00:00 AM 19.25 66.65 0.594 7.72 6.27 5.81
6/1/2022 6:15:00 AM 19.17 66.506 0.595 7.72 6.93 5.78
6/1/2022 6:30:00 AM 19.1 66.38 0.595 7.72 6.69 5.89
6/1/2022 6:45:00 AM 19.04 66.272 0.595 7.72 6.86 5.88
6/1/2022 7:00:00 AM 18.98 66.164 0.596 7.72 6.4 5.86
6/1/2022 7:15:00 AM 18.94 66.092 0.596 7.72 6.11 5.97
6/1/2022 7:30:00 AM 18.9 66.02 0.596 7.72 9.33 6.01
6/1/2022 7:45:00 AM 18.87 65.966 0.596 7.73 7.28 6.06
6/1/2022 8:00:00 AM 18.86 65.948 0.597 7.73 6.23 6.13
6/1/2022 8:15:00 AM 18.86 65.948 0.597 7.73 6.57 6.2
6/1/2022 8:30:00 AM 18.84 65.912 0.597 7.74 6.82 6.26
6/1/2022 8:45:00 AM 18.82 65.876 0.597 7.74 7.48 6.25
6/1/2022 9:00:00 AM 18.82 65.876 0.597 7.74 6.8 6.34
6/1/2022 9:15:00 AM 18.85 65.93 0.597 7.75 6.06 6.44
6/1/2022 9:30:00 AM 18.88 65.984 0.597 7.75 5.63 6.51
6/1/2022 9:45:00 AM 18.93 66.074 0.596 7.76 5.69 6.61
6/1/2022 10:00:00 AM 19.03 66.254 0.597 7.76 5.83 6.71
6/1/2022 10:15:00 AM 19.16 66.488 0.596 7.78 5.41 6.87
6/1/2022 10:30:00 AM 19.29 66.722 0.596 7.79 5.48 7.01
6/1/2022 10:45:00 AM 19.42 66.956 0.596 7.8 5.57 7.17
6/1/2022 11:00:00 AM 19.52 67.136 0.596 7.81 5.2 7.26
6/1/2022 11:15:00 AM 19.6 67.28 0.596 7.82 5.69 7.39
6/1/2022 11:30:00 AM 19.72 67.496 0.596 7.83 5.7 7.53
6/1/2022 11:45:00 AM 19.87 67.766 0.596 7.84 5.95 7.67
6/1/2022 12:00:00 PM 20.06 68.108 0.596 7.85 5.18 7.82
6/1/2022 12:15:00 PM 20.19 68.342 0.596 7.86 5.82 7.97
6/1/2022 12:30:00 PM 20.29 68.522 0.596 7.87 5.34 8.04
6/1/2022 12:45:00 PM 20.39 68.702 0.596 7.88 5.42 8.08
6/1/2022 1:00:00 PM 20.48 68.864 0.596 7.89 5.16 8.1
6/1/2022 1:15:00 PM 20.69 69.242 0.596 7.9 5.42 8.3
6/1/2022 1:30:00 PM 20.91 69.638 0.595 7.91 5.01 8.41
6/1/2022 1:45:00 PM 21.1 69.98 0.595 7.92 5.5 8.44
6/1/2022 2:00:00 PM 21.28 70.304 0.595 7.93 6.03 8.62
6/1/2022 2:15:00 PM 21.45 70.61 0.595 7.94 5.58 8.77
6/1/2022 2:30:00 PM 21.55 70.79 0.595 7.95 5.03 8.79
6/1/2022 2:45:00 PM 21.54 70.772 0.595 7.94 5.1 8.72
6/1/2022 3:00:00 PM 21.58 70.844 0.595 7.95 4.97 8.76
6/1/2022 3:15:00 PM 21.58 70.844 0.595 7.95 5.13 8.68
6/1/2022 3:30:00 PM 21.69 71.042 0.595 7.96 6.13 8.67
6/1/2022 3:45:00 PM 21.87 71.366 0.595 7.97 5 8.9
6/1/2022 4:00:00 PM 21.92 71.456 0.595 7.97 5.29 8.88
6/1/2022 4:15:00 PM 21.94 71.492 0.596 7.97 4.91 8.84
6/1/2022 4:30:00 PM 21.98 71.564 0.596 7.97 4.9 8.87
6/1/2022 4:45:00 PM 22.02 71.636 0.596 7.98 4.85 8.85
6/1/2022 5:00:00 PM 22.04 71.672 0.596 7.98 5.46 8.8
6/1/2022 5:15:00 PM 22.08 71.744 0.596 7.98 5.44 8.81
6/1/2022 5:30:00 PM 22.1 71.78 0.597 7.98 4.89 8.79
6/1/2022 5:45:00 PM 22.1 71.78 0.597 7.98 5.19 8.69
6/1/2022 6:00:00 PM 22.07 71.726 0.597 7.97 8.54 8.53
6/1/2022 6:15:00 PM 22.02 71.636 0.595 7.97 6.96 8.37
6/1/2022 6:30:00 PM 21.93 71.474 0.587 7.97 10.9 8.12
6/1/2022 6:45:00 PM 21.83 71.294 0.585 7.96 9.58 8.07
6/1/2022 7:00:00 PM 21.77 71.186 0.585 7.95 11.12 7.93
6/1/2022 7:15:00 PM 21.73 71.114 0.585 7.94 11.76 7.81
6/1/2022 7:30:00 PM 21.69 71.042 0.586 7.94 12.35 7.77
6/1/2022 7:45:00 PM 21.66 70.988 0.587 7.93 11.34 7.72
6/1/2022 8:00:00 PM 21.64 70.952 0.587 7.93 11.81 7.62
6/1/2022 8:15:00 PM 21.61 70.898 0.587 7.93 11.28 7.59
6/1/2022 8:30:00 PM 21.57 70.826 0.587 7.93 9.82 7.44
6/1/2022 8:45:00 PM 21.53 70.754 0.587 7.92 10.35 7.36
6/1/2022 9:00:00 PM 21.47 70.646 0.587 7.92 12.34 7.25
6/1/2022 9:15:00 PM 21.41 70.538 0.586 7.91 11.4 7.1
6/1/2022 9:30:00 PM 21.34 70.412 0.585 7.9 12.51 7.02
6/1/2022 9:45:00 PM 21.27 70.286 0.583 7.89 11.68 6.92
6/1/2022 10:00:00 PM 21.19 70.142 0.581 7.88 11.68 6.81
6/1/2022 10:15:00 PM 21.12 70.016 0.581 7.87 11.64 6.75
6/1/2022 10:30:00 PM 21.05 69.89 0.581 7.87 13.31 6.7
6/1/2022 10:45:00 PM 20.99 69.782 0.581 7.86 12.15 6.64
6/1/2022 11:00:00 PM 20.92 69.656 0.581 7.86 11.78 6.64
6/1/2022 11:15:00 PM 20.85 69.53 0.581 7.86 11.31 6.65
6/1/2022 11:30:00 PM 20.77 69.386 0.58 7.86 12.22 6.59
6/1/2022 11:45:00 PM 20.68 69.224 0.578 7.85 13.76 6.53
6/2/2022 12:00:00 AM 20.58 69.044 0.575 7.84 12.25 6.43
6/2/2022 12:15:00 AM 20.48 68.864 0.573 7.83 14.12 6.37
6/2/2022 12:30:00 AM 20.38 68.684 0.571 7.82 13.33 6.34
6/2/2022 12:45:00 AM 20.29 68.522 0.57 7.81 13.57 6.22
6/2/2022 1:00:00 AM 20.2 68.36 0.57 7.8 12.8 6.24
6/2/2022 1:15:00 AM 20.11 68.198 0.569 7.8 11.22 6.21
6/2/2022 1:30:00 AM 20.02 68.036 0.568 7.79 11.1 6.19
6/2/2022 1:45:00 AM 19.94 67.892 0.567 7.78 11.7 6.18
6/2/2022 2:00:00 AM 19.87 67.766 0.566 7.78 13.02 6.16
6/2/2022 2:15:00 AM 19.79 67.622 0.565 7.77 10.8 6.13
6/2/2022 2:30:00 AM 19.72 67.496 0.565 7.76 10.36 6.12
6/2/2022 2:45:00 AM 19.66 67.388 0.564 7.76 10.57 6.11
6/2/2022 3:00:00 AM 19.59 67.262 0.564 7.75 9.58 6.07
6/2/2022 3:15:00 AM 19.52 67.136 0.563 7.74 9.84 6.13
6/2/2022 3:30:00 AM 19.47 67.046 0.56 7.74 10.27 6.17
6/2/2022 3:45:00 AM 19.41 66.938 0.558 7.75 11.95 6.27
6/2/2022 4:00:00 AM 19.37 66.866 0.557 7.76 11.7 6.31
6/2/2022 4:15:00 AM 19.32 66.776 0.557 7.77 11.36 6.35
6/2/2022 4:30:00 AM 19.27 66.686 0.558 7.77 11.09 6.44
6/2/2022 4:45:00 AM 19.22 66.596 0.561 7.77 11.08 6.47
6/2/2022 5:00:00 AM 19.16 66.488 0.564 7.77 11.42 6.48
6/2/2022 5:15:00 AM 19.1 66.38 0.569 7.77 11.24 6.5
6/2/2022 5:30:00 AM 19.02 66.236 0.574 7.77 10.45 6.53
6/2/2022 5:45:00 AM 18.94 66.092 0.576 7.77 10.75 6.59
6/2/2022 6:00:00 AM 18.85 65.93 0.576 7.78 10.83 6.67
6/2/2022 6:15:00 AM 18.76 65.768 0.572 7.78 9.95 6.73
6/2/2022 6:30:00 AM 18.66 65.588 0.567 7.79 10.24 6.81
6/2/2022 6:45:00 AM 18.57 65.426 0.559 7.79 10.37 6.86
6/2/2022 7:00:00 AM 18.5 65.3 0.548 7.78 10.62 6.89
6/2/2022 7:15:00 AM 18.46 65.228 0.534 7.78 10.05 6.91
6/2/2022 7:30:00 AM 18.44 65.192 0.521 7.77 10.16 6.92
6/2/2022 7:45:00 AM 18.46 65.228 0.51 7.76 10.18 6.94
6/2/2022 8:00:00 AM 18.48 65.264 0.502 7.75 10.2 6.95
6/2/2022 8:15:00 AM 18.51 65.318 0.497 7.75 9.87 6.98
6/2/2022 8:30:00 AM 18.52 65.336 0.493 7.75 10.33 7.02
6/2/2022 8:45:00 AM 18.55 65.39 0.49 7.75 10.76 7.04
6/2/2022 9:00:00 AM 18.6 65.48 0.486 7.75 9.13 7.14
6/2/2022 9:15:00 AM 18.68 65.624 0.481 7.75 8.85 7.19
6/2/2022 9:30:00 AM 18.79 65.82201 0.475 7.74 8.77 7.2
6/2/2022 9:45:00 AM 18.9 66.02 0.326 7.73 11.61 7.2
6/2/2022 10:00:00 AM 19.04 66.272 0.463 7.72 8.36 7.13
6/2/2022 10:15:00 AM 19.24 66.632 0.457 7.71 8.23 7.15
6/2/2022 10:30:00 AM 19.36 66.848 0.451 7.7 8.26 7.11
6/2/2022 10:45:00 AM 19.49 67.082 0.445 7.69 8.57 7.11
6/2/2022 11:00:00 AM 19.64 67.352 0.438 7.69 8.29 7.15
6/2/2022 11:15:00 AM 19.86 67.748 0.432 7.7 8.43 7.27
6/2/2022 11:30:00 AM 19.97 67.946 0.425 7.7 7.79 7.36
6/2/2022 11:45:00 AM 20.12 68.216 0.419 7.71 8.17 7.5
6/2/2022 12:00:00 PM 20.28 68.504 0.414 7.73 7.5 7.62
6/2/2022 12:15:00 PM 20.42 68.756 0.409 7.75 7.3 7.76
6/2/2022 12:30:00 PM 20.55 68.99 0.405 7.76 7.45 7.9
6/2/2022 12:45:00 PM 20.67 69.206 0.402 7.78 7.76 8.05
6/2/2022 1:00:00 PM 20.78 69.404 0.4 7.8 7.24 8.17
6/2/2022 1:15:00 PM 20.96 69.728 0.4 7.82 7.13 8.31
6/2/2022 1:30:00 PM 21.13 70.034 0.399 7.84 7.26 8.45
6/2/2022 1:45:00 PM 21.26 70.268 0.399 7.86 7.12 8.59
6/2/2022 2:00:00 PM 21.29 70.32201 0.4 7.88 6.54 8.67
6/2/2022 2:15:00 PM 21.26 70.268 0.401 7.89 6.81 8.72
6/2/2022 2:30:00 PM 21.28 70.304 0.402 7.91 6.65 8.79
6/2/2022 2:45:00 PM 21.29 70.32201 0.402 7.92 6.78 8.84
6/2/2022 3:00:00 PM 21.44 70.592 0.404 7.93 6.2 8.93
6/2/2022 3:15:00 PM 21.42 70.556 0.405 7.94 6.48 8.93
6/2/2022 3:30:00 PM 21.51 70.718 0.406 7.95 6.55 8.97
6/2/2022 3:45:00 PM 21.58 70.844 0.407 7.96 6.38 8.98
6/2/2022 4:00:00 PM 21.64 70.952 0.409 7.97 6.72 9.02
6/2/2022 4:15:00 PM 21.66 70.988 0.41 7.98 6.73 9.03
6/2/2022 4:30:00 PM 21.7 71.06 0.412 7.98 6.18 9.04
6/2/2022 4:45:00 PM 21.69 71.042 0.414 7.99 6.45 9.04
6/2/2022 5:00:00 PM 21.69 71.042 0.416 7.99 5.94 9.03
6/2/2022 5:15:00 PM 21.67 71.006 0.418 7.99 6.4 8.98
6/2/2022 5:30:00 PM 21.63 70.934 0.42 7.99 6.14 8.92
6/2/2022 5:45:00 PM 21.61 70.898 0.422 7.99 6.28 8.86
6/2/2022 6:00:00 PM 21.57 70.826 0.425 7.98 5.81 8.79
6/2/2022 6:15:00 PM 21.53 70.754 0.427 7.97 6.38 8.71
6/2/2022 6:30:00 PM 21.51 70.718 0.43 7.97 6.54 8.64
6/2/2022 6:45:00 PM 21.46 70.628 0.432 7.96 5.81 8.56
6/2/2022 7:00:00 PM 21.42 70.556 0.434 7.96 5.89 8.51
6/2/2022 7:15:00 PM 21.37 70.466 0.437 7.96 5.97 8.43
6/2/2022 7:30:00 PM 21.31 70.358 0.439 7.95 7.05 8.33
6/2/2022 7:45:00 PM 21.23 70.214 0.441 7.94 5.67 8.24
6/2/2022 8:00:00 PM 21.13 70.034 0.443 7.92 29.83 8.07
6/2/2022 8:15:00 PM 21.04 69.872 0.445 7.93 7.43 8.06
6/2/2022 8:30:00 PM 20.94 69.692 0.447 7.92 6.71 7.96
6/2/2022 8:45:00 PM 20.84 69.512 0.448 7.91 6.82 7.83
6/2/2022 9:00:00 PM 20.74 69.332 0.45 7.89 6.65 7.74
6/2/2022 9:15:00 PM 20.64 69.152 0.452 7.88 6.81 7.64
6/2/2022 9:30:00 PM 20.56 69.008 0.453 7.87 7.09 7.55
6/2/2022 9:45:00 PM 20.47 68.846 0.454 7.86 7.31 7.46
6/2/2022 10:00:00 PM 20.39 68.702 0.456 7.85 6.94 7.37
6/2/2022 10:15:00 PM 20.31 68.558 0.457 7.84 6.72 7.31
6/2/2022 10:30:00 PM 20.23 68.414 0.458 7.83 6.82 7.24
6/2/2022 10:45:00 PM 20.15 68.27 0.459 7.83 7.58 7.18
6/2/2022 11:00:00 PM 20.06 68.108 0.461 7.82 6.86 7.12
6/2/2022 11:15:00 PM 19.98 67.964 0.462 7.81 7.59 7.06
6/2/2022 11:30:00 PM 19.89 67.802 0.463 7.81 7.51 7.01
6/2/2022 11:45:00 PM 19.8 67.64 0.464 7.8 8.09 6.95
6/3/2022 12:00:00 AM 19.7 67.46 0.466 7.79 7.27 6.89
6/3/2022 12:15:00 AM 19.61 67.298 0.467 7.78 7.21 6.84
6/3/2022 12:30:00 AM 19.51 67.118 0.468 7.78 6.96 6.81
6/3/2022 12:45:00 AM 19.41 66.938 0.469 7.78 7.59 6.8
6/3/2022 1:00:00 AM 19.32 66.776 0.47 7.77 8.04 6.76
6/3/2022 1:15:00 AM 19.24 66.632 0.471 7.77 7.63 6.75
6/3/2022 1:30:00 AM 19.15 66.47 0.472 7.76 7.28 6.7
6/3/2022 1:45:00 AM 19.07 66.326 0.473 7.76 7.51 6.68
6/3/2022 2:00:00 AM 18.98 66.164 0.474 7.75 8.6 6.68
6/3/2022 2:15:00 AM 18.9 66.02 0.475 7.75 8.03 6.66
6/3/2022 2:30:00 AM 18.8 65.84 0.476 7.74 7.82 6.63
6/3/2022 2:45:00 AM 18.71 65.67799 0.477 7.74 7.96 6.63
6/3/2022 3:00:00 AM 18.64 65.552 0.478 7.74 7.82 6.61
6/3/2022 3:15:00 AM 18.57 65.426 0.479 7.73 10.41 6.63
6/3/2022 3:30:00 AM 18.48 65.264 0.48 7.73 8.53 6.59
6/3/2022 3:45:00 AM 18.38 65.084 0.482 7.73 8.19 6.59
6/3/2022 4:00:00 AM 18.29 64.922 0.483 7.73 8.09 6.57
6/3/2022 4:15:00 AM 18.2 64.76 0.484 7.73 7.7 6.59
6/3/2022 4:30:00 AM 18.11 64.598 0.485 7.73 7.25 6.59
6/3/2022 4:45:00 AM 18.02 64.436 0.486 7.72 7.82 6.59
6/3/2022 5:00:00 AM 17.93 64.274 0.487 7.72 7.63 6.59
6/3/2022 5:15:00 AM 17.84 64.112 0.488 7.72 7.25 6.58
6/3/2022 5:30:00 AM 17.75 63.95 0.489 7.72 7.49 6.61
6/3/2022 5:45:00 AM 17.65 63.77 0.49 7.72 8.04 6.59
6/3/2022 6:00:00 AM 17.57 63.626 0.49 7.72 6.77 6.65
6/3/2022 6:15:00 AM 17.48 63.464 0.491 7.72 7.34 6.65
6/3/2022 6:30:00 AM 17.4 63.32 0.511 7.72 10.41 6.71
6/3/2022 6:45:00 AM 17.31 63.158 0.493 7.72 7.53 6.71
6/3/2022 7:00:00 AM 17.23 63.014 0.494 7.72 7.05 6.73
6/3/2022 7:15:00 AM 17.14 62.852 0.494 7.72 6.9 6.74
6/3/2022 7:30:00 AM 17.06 62.708 0.495 7.72 6.8 6.77
6/3/2022 7:45:00 AM 16.98 62.564 0.496 7.73 6.46 6.81
6/3/2022 8:00:00 AM 16.89 62.402 0.497 7.73 6.22 6.83
6/3/2022 8:15:00 AM 16.8 62.24 0.502 7.73 9.22 6.92
6/3/2022 8:30:00 AM 16.73 62.114 0.499 7.74 6.32 6.94
6/3/2022 8:45:00 AM 16.67 62.006 0.5 7.74 7.23 6.96
6/3/2022 9:00:00 AM 16.64 61.952 0.501 7.74 5.93 7.03
6/3/2022 9:15:00 AM 16.64 61.952 0.502 7.75 6.92 7.07
6/3/2022 9:30:00 AM 16.67 62.006 0.503 7.75 5.66 7.19
6/3/2022 9:45:00 AM 16.69 62.042 0.504 7.76 5.94 7.25
6/3/2022 10:00:00 AM 16.74 62.132 0.505 7.77 6 7.38
6/3/2022 10:15:00 AM 16.82 62.276 0.506 7.78 5.81 7.48
6/3/2022 10:30:00 AM 16.93 62.474 0.507 7.79 5.82 7.62
6/3/2022 10:45:00 AM 17.02 62.636 0.509 7.8 8.43 7.73
6/3/2022 11:00:00 AM 17.17 62.906 0.509 7.82 5.23 7.84
6/3/2022 11:15:00 AM 17.35 63.23 0.51 7.82 5.59 7.95
6/3/2022 11:30:00 AM 17.56 63.608 0.511 7.84 5.34 8.12
6/3/2022 11:45:00 AM 17.76 63.968 0.512 7.85 5.54 8.29
6/3/2022 12:00:00 PM 17.96 64.328 0.513 7.87 5.8 8.43
6/3/2022 12:15:00 PM 18.14 64.652 0.514 7.88 6.19 8.56
6/3/2022 12:30:00 PM 18.31 64.958 0.515 7.89 5.16 8.67
6/3/2022 12:45:00 PM 18.53 65.354 0.516 7.91 5.23 8.81
6/3/2022 1:00:00 PM 18.78 65.804 0.517 7.92 5.28 8.94
6/3/2022 1:15:00 PM 19.01 66.218 0.518 7.94 4.81 9.06
6/3/2022 1:30:00 PM 19.3 66.74 0.518 7.95 4.75 9.2
6/3/2022 1:45:00 PM 19.4 66.92 0.519 7.96 4.93 9.25
6/3/2022 2:00:00 PM 19.67 67.406 0.52 7.97 4.5 9.33
6/3/2022 2:15:00 PM 19.85 67.73 0.521 7.98 5.01 9.41
6/3/2022 2:30:00 PM 20.01 68.018 0.522 7.99 4.79 9.47
6/3/2022 2:45:00 PM 20.18 68.324 0.522 7.99 4.99 9.5
6/3/2022 3:00:00 PM 20.32 68.576 0.523 8 7.01 9.52
6/3/2022 3:15:00 PM 20.49 68.882 0.524 8.01 5.53 9.62
6/3/2022 3:30:00 PM 20.59 69.062 0.525 8.02 4.9 9.65
6/3/2022 3:45:00 PM 20.69 69.242 0.526 8.03 4.73 9.68
6/3/2022 4:00:00 PM 20.78 69.404 0.527 8.03 5.19 9.7
6/3/2022 4:15:00 PM 20.83 69.494 0.528 8.04 4.55 9.66
6/3/2022 4:30:00 PM 20.88 69.584 0.529 8.05 5.32 9.68
6/3/2022 4:45:00 PM 20.9 69.62 0.529 8.05 4.51 9.63
6/3/2022 5:00:00 PM 20.92 69.656 0.53 8.05 4.42 9.57
6/3/2022 5:15:00 PM 20.9 69.62 0.531 8.04 4.71 9.5
6/3/2022 5:30:00 PM 20.94 69.692 0.532 8.04 4.64 9.43
6/3/2022 5:45:00 PM 20.95 69.71 0.533 8.04 5.13 9.32
6/3/2022 6:00:00 PM 20.94 69.692 0.534 8.04 4.67 9.28
6/3/2022 6:15:00 PM 20.93 69.674 0.535 8.03 5.56 9.18
6/3/2022 6:30:00 PM 20.93 69.674 0.536 8.03 5.42 9.08
6/3/2022 6:45:00 PM 20.91 69.638 0.537 8.02 5.2 8.97
6/3/2022 7:00:00 PM 20.86 69.548 0.537 8.01 5.47 8.87
6/3/2022 7:15:00 PM 20.82 69.476 0.538 8 4.8 8.73
6/3/2022 7:30:00 PM 20.78 69.404 0.539 8 6.26 8.58
6/3/2022 7:45:00 PM 20.73 69.314 0.54 7.99 4.82 8.52
6/3/2022 8:00:00 PM 20.65 69.17 0.54 7.98 5.16 8.37
6/3/2022 8:15:00 PM 20.56 69.008 0.541 7.97 4.87 8.25
6/3/2022 8:30:00 PM 20.46 68.828 0.542 7.96 5.08 8.12
6/3/2022 8:45:00 PM 20.35 68.63 0.542 7.95 5.61 7.96
6/3/2022 9:00:00 PM 20.23 68.414 0.543 7.94 5.44 7.85
6/3/2022 9:15:00 PM 20.11 68.198 0.544 7.93 5.42 7.76
6/3/2022 9:30:00 PM 20 68 0.544 7.92 5.04 7.64
6/3/2022 9:45:00 PM 19.88 67.784 0.545 7.91 5.01 7.55
6/3/2022 10:00:00 PM 19.76 67.568 0.546 7.9 10.99 7.44
6/3/2022 10:15:00 PM 19.65 67.37 0.546 7.9 6.07 7.38
6/3/2022 10:30:00 PM 19.55 67.19 0.547 7.89 5.3 7.3
6/3/2022 10:45:00 PM 19.45 67.01 0.547 7.88 5.86 7.25
6/3/2022 11:00:00 PM 19.34 66.812 0.548 7.87 6.1 7.19
6/3/2022 11:15:00 PM 19.23 66.614 0.549 7.87 6.46 7.13
6/3/2022 11:30:00 PM 19.13 66.434 0.549 7.86 6.35 7.09
6/3/2022 11:45:00 PM 19.02 66.236 0.55 7.85 6.01 7
6/4/2022 12:00:00 AM 18.91 66.038 0.55 7.85 5.92 6.97
6/4/2022 12:15:00 AM 18.8 65.84 0.551 7.84 6.06 6.91
6/4/2022 12:30:00 AM 18.7 65.66 0.185 7.83 5.77 6.81
6/4/2022 12:45:00 AM 18.57 65.426 0.552 7.83 9.03 6.82
6/4/2022 1:00:00 AM 18.46 65.228 0.553 7.83 8.33 6.8
6/4/2022 1:15:00 AM 18.35 65.03 0.553 7.82 7.41 6.76
6/4/2022 1:30:00 AM 18.23 64.814 0.554 7.82 6.27 6.71
6/4/2022 1:45:00 AM 18.11 64.598 0.554 7.82 6.47 6.72
6/4/2022 2:00:00 AM 17.99 64.382 0.555 7.81 6.29 6.7
6/4/2022 2:15:00 AM 17.88 64.184 0.556 7.81 7.51 6.64
6/4/2022 2:30:00 AM 17.76 63.968 0.556 7.8 6.28 6.67
6/4/2022 2:45:00 AM 17.64 63.752 0.557 7.8 7.38 6.7
6/4/2022 3:00:00 AM 17.52 63.536 0.557 7.8 7 6.69
6/4/2022 3:15:00 AM 17.39 63.302 0.558 7.8 6.59 6.7
6/4/2022 3:30:00 AM 17.27 63.086 0.559 7.79 7 6.69
6/4/2022 3:45:00 AM 17.15 62.87 0.559 7.79 6.05 6.67
6/4/2022 4:00:00 AM 17.03 62.654 0.56 7.79 6.5 6.7
6/4/2022 4:15:00 AM 16.91 62.438 0.56 7.79 6.68 6.71
6/4/2022 4:30:00 AM 16.79 62.222 0.561 7.78 6.98 6.72
6/4/2022 4:45:00 AM 16.67 62.006 0.562 7.78 6.54 6.72
6/4/2022 5:00:00 AM 16.56 61.808 0.562 7.78 6.59 6.72
6/4/2022 5:15:00 AM 16.45 61.61 0.563 7.78 6.84 6.74
6/4/2022 5:30:00 AM 16.34 61.412 0.564 7.78 6.49 6.76
6/4/2022 5:45:00 AM 16.23 61.214 0.564 7.78 6.8 6.77
6/4/2022 6:00:00 AM 16.13 61.034 0.565 7.78 7.16 6.78
6/4/2022 6:15:00 AM 16.03 60.854 0.566 7.78 7.03 6.82
6/4/2022 6:30:00 AM 15.93 60.674 0.568 7.77 10.02 6.89
6/4/2022 6:45:00 AM 15.84 60.512 0.303 7.77 9.98 6.94
6/4/2022 7:00:00 AM 15.75 60.35 0.567 7.78 5.97 6.94
6/4/2022 7:15:00 AM 15.67 60.206 0.568 7.78 6.81 6.96
6/4/2022 7:30:00 AM 15.59 60.062 0.568 7.78 5.74 7.02
6/4/2022 7:45:00 AM 15.51 59.918 0.332 7.78 8.81 7.09
6/4/2022 8:00:00 AM 15.45 59.81 0.568 7.79 5.5 7.11
6/4/2022 8:15:00 AM 15.38 59.684 0.569 7.79 5.97 7.14
6/4/2022 8:30:00 AM 15.34 59.612 0.373 7.79 8.36 7.22
6/4/2022 8:45:00 AM 15.3 59.54 0.569 7.79 7.53 7.25
6/4/2022 9:00:00 AM 15.27 59.486 0.571 7.79 8.85 7.35
6/4/2022 9:15:00 AM 15.27 59.486 0.57 7.8 6.23 7.35
6/4/2022 9:30:00 AM 15.3 59.54 0.57 7.8 6.85 7.49
6/4/2022 9:45:00 AM 15.34 59.612 0.57 7.81 10.27 7.6
6/4/2022 10:00:00 AM 15.4 59.72 0.57 7.82 6.12 7.69
6/4/2022 10:15:00 AM 15.49 59.882 0.57 7.83 7 7.77
6/4/2022 10:30:00 AM 15.6 60.08 0.571 7.84 5.64 7.92
6/4/2022 10:45:00 AM 15.74 60.332 0.571 7.85 5.34 8.08
6/4/2022 11:00:00 AM 15.89 60.602 0.571 7.86 5.55 8.18
6/4/2022 11:15:00 AM 16.06 60.908 0.571 7.87 5.07 8.33
6/4/2022 11:30:00 AM 16.25 61.25 0.571 7.88 5.42 8.48
6/4/2022 11:45:00 AM 16.46 61.628 0.571 7.9 5.96 8.64
6/4/2022 12:00:00 PM 16.67 62.006 0.571 7.91 4.9 8.8
6/4/2022 12:15:00 PM 16.87 62.366 0.571 7.93 4.85 8.94
6/4/2022 12:30:00 PM 17.09 62.762 0.571 7.93 4.79 9.07
6/4/2022 12:45:00 PM 17.33 63.194 0.571 7.95 4.48 9.22
6/4/2022 1:00:00 PM 17.57 63.626 0.571 7.96 4.67 9.37
6/4/2022 1:15:00 PM 17.85 64.13 0.571 7.98 5.61 9.51
6/4/2022 1:30:00 PM 18.12 64.616 0.571 7.99 4.25 9.62
6/4/2022 1:45:00 PM 18.38 65.084 0.571 8 4.37 9.75
6/4/2022 2:00:00 PM 18.62 65.516 0.571 8.01 4.59 9.85
6/4/2022 2:15:00 PM 18.88 65.984 0.571 8.03 4.76 9.98
6/4/2022 2:30:00 PM 19.11 66.398 0.572 8.04 4.27 10.05
6/4/2022 2:45:00 PM 19.34 66.812 0.572 8.05 4.45 10.13
6/4/2022 3:00:00 PM 19.55 67.19 0.572 8.05 4.44 10.19
6/4/2022 3:15:00 PM 19.72 67.496 0.573 8.06 3.82 10.22
6/4/2022 3:30:00 PM 19.84 67.712 0.573 8.07 4.21 10.27
6/4/2022 3:45:00 PM 19.94 67.892 0.573 8.08 3.98 10.22
6/4/2022 4:00:00 PM 20.02 68.036 0.574 8.08 3.9 10.25
6/4/2022 4:15:00 PM 20.08 68.144 0.574 8.08 4.28 10.24
6/4/2022 4:30:00 PM 20.13 68.234 0.575 8.08 5.17 10.16
6/4/2022 4:45:00 PM 20.18 68.324 0.575 8.08 4.06 10.15
6/4/2022 5:00:00 PM 20.23 68.414 0.576 8.09 4.24 10.09
6/4/2022 5:15:00 PM 20.27 68.486 0.577 8.09 4.32 10.04
6/4/2022 5:30:00 PM 20.29 68.522 0.577 8.08 4.69 9.97
6/4/2022 5:45:00 PM 20.3 68.54 0.578 8.08 4.12 9.86
6/4/2022 6:00:00 PM 20.3 68.54 0.578 8.07 4.41 9.76
6/4/2022 6:15:00 PM 20.28 68.504 0.579 8.07 4.31 9.65
6/4/2022 6:30:00 PM 20.26 68.468 0.579 8.06 4.47 9.51
6/4/2022 6:45:00 PM 20.22 68.396 0.58 8.06 4.37 9.41
6/4/2022 7:00:00 PM 20.17 68.306 0.581 8.05 5.43 9.22
6/4/2022 7:15:00 PM 20.12 68.216 0.581 8.04 5.3 9.14
6/4/2022 7:30:00 PM 20.06 68.108 0.582 8.03 5.7 9.01
6/4/2022 7:45:00 PM 19.99 67.982 0.582 8.03 5.39 8.92
6/4/2022 8:00:00 PM 19.9 67.82 0.583 8.02 5.55 8.77
6/4/2022 8:15:00 PM 19.81 67.658 0.583 8.01 4.89 8.67
6/4/2022 8:30:00 PM 19.71 67.478 0.584 8 5.22 8.53
6/4/2022 8:45:00 PM 19.62 67.316 0.584 8 5.42 8.42
6/4/2022 9:00:00 PM 19.52 67.136 0.585 7.99 5.34 8.29
6/4/2022 9:15:00 PM 19.42 66.956 0.585 7.98 4.71 8.18
6/4/2022 9:30:00 PM 19.31 66.758 0.586 7.97 4.7 8
6/4/2022 9:45:00 PM 19.2 66.56 0.586 7.96 5.2 7.92
6/4/2022 10:00:00 PM 19.09 66.362 0.587 7.95 5.17 7.79
6/4/2022 10:15:00 PM 18.99 66.182 0.587 7.94 5.71 7.7
6/4/2022 10:30:00 PM 18.88 65.984 0.588 7.94 5.48 7.62
6/4/2022 10:45:00 PM 18.78 65.804 0.588 7.93 5.67 7.53
6/4/2022 11:00:00 PM 18.67 65.606 0.588 7.92 6.28 7.47
6/4/2022 11:15:00 PM 18.57 65.426 0.589 7.92 5.8 7.4
6/4/2022 11:30:00 PM 18.46 65.228 0.589 7.91 6.09 7.35
6/4/2022 11:45:00 PM 18.34 65.012 0.589 7.9 6.04 7.27
6/5/2022 12:00:00 AM 18.22 64.796 0.59 7.9 6.19 7.26
6/5/2022 12:15:00 AM 18.1 64.58 0.59 7.89 5.55 7.21
6/5/2022 12:30:00 AM 17.98 64.364 0.59 7.89 5.8 7.15
6/5/2022 12:45:00 AM 17.85 64.13 0.59 7.88 5.48 7.1
6/5/2022 1:00:00 AM 17.73 63.914 0.591 7.88 5.56 7.07
6/5/2022 1:15:00 AM 17.6 63.68 0.591 7.87 6.44 7.04
6/5/2022 1:30:00 AM 17.48 63.464 0.591 7.87 6.13 6.99
6/5/2022 1:45:00 AM 17.35 63.23 0.593 7.86 9.47 7.01
6/5/2022 2:00:00 AM 17.22 62.996 0.592 7.86 5.85 6.97
6/5/2022 2:15:00 AM 17.1 62.78 0.592 7.85 5.67 6.94
6/5/2022 2:30:00 AM 16.99 62.582 0.592 7.85 5.91 6.92
6/5/2022 2:45:00 AM 16.88 62.384 0.592 7.85 5.92 6.9
6/5/2022 3:00:00 AM 16.77 62.186 0.592 7.84 6.21 6.87
6/5/2022 3:15:00 AM 16.65 61.97 0.592 7.84 5.98 6.88
6/5/2022 3:30:00 AM 16.54 61.772 0.592 7.84 5.79 6.87
6/5/2022 3:45:00 AM 16.42 61.556 0.593 7.83 5.85 6.86
6/5/2022 4:00:00 AM 16.31 61.358 0.593 7.83 6.52 6.83
6/5/2022 4:15:00 AM 16.18 61.124 0.593 7.83 5.96 6.87
6/5/2022 4:30:00 AM 16.06 60.908 0.593 7.82 6.52 6.85
6/5/2022 4:45:00 AM 15.94 60.692 0.594 7.82 6.07 6.87
6/5/2022 5:00:00 AM 15.82 60.476 0.594 7.82 6.06 6.89
6/5/2022 5:15:00 AM 15.7 60.26 0.594 7.81 6.21 6.85
6/5/2022 5:30:00 AM 15.58 60.044 0.595 7.81 8.62 6.94
6/5/2022 5:45:00 AM 15.46 59.828 0.595 7.81 7.09 6.93
6/5/2022 6:00:00 AM 15.35 59.63 0.595 7.81 6.14 6.96
6/5/2022 6:15:00 AM 15.24 59.432 0.595 7.81 5.76 6.97
6/5/2022 6:30:00 AM 15.14 59.252 0.596 7.81 6.36 7.01
6/5/2022 6:45:00 AM 15.04 59.072 0.596 7.81 5.76 7.05
6/5/2022 7:00:00 AM 14.96 58.928 0.365 7.81 8.87 7.12
6/5/2022 7:15:00 AM 14.89 58.802 0.596 7.81 8.84 7.15
6/5/2022 7:30:00 AM 14.8 58.64 0.378 7.81 8.71 7.22
6/5/2022 7:45:00 AM 14.72 58.496 0.375 7.82 8.2 7.27
6/5/2022 8:00:00 AM 14.65 58.37 0.353 7.82 8.49 7.33
6/5/2022 8:15:00 AM 14.6 58.28 0.423 7.82 7.9 7.39
6/5/2022 8:30:00 AM 14.55 58.19 0.598 7.83 4.94 7.41
6/5/2022 8:45:00 AM 14.51 58.118 0.602 7.83 8.38 7.53
6/5/2022 9:00:00 AM 14.49 58.082 0.598 7.84 4.78 7.6
6/5/2022 9:15:00 AM 14.51 58.118 0.599 7.85 4.94 7.76
6/5/2022 9:30:00 AM 14.56 58.208 0.373 7.86 7.51 7.94
6/5/2022 9:45:00 AM 14.6 58.28 0.599 7.87 7.27 8.07
6/5/2022 10:00:00 AM 14.67 58.406 0.457 7.88 7.39 8.24
6/5/2022 10:15:00 AM 14.77 58.586 0.599 7.89 4.41 8.36
6/5/2022 10:30:00 AM 14.91 58.838 0.6 7.9 5.44 8.51
6/5/2022 10:45:00 AM 15.01 59.018 0.6 7.91 5.52 8.65
6/5/2022 11:00:00 AM 15.14 59.252 0.599 7.92 9.55 8.84
6/5/2022 11:15:00 AM 15.32 59.576 0.6 7.94 5.52 8.95
6/5/2022 11:30:00 AM 15.5 59.9 0.6 7.95 5.38 9.06
6/5/2022 11:45:00 AM 15.72 60.296 0.6 7.96 4.68 9.25
6/5/2022 12:00:00 PM 15.96 60.728 0.6 7.97 4.5 9.38
6/5/2022 12:15:00 PM 16.19 61.142 0.599 7.98 5.05 9.54
6/5/2022 12:30:00 PM 16.41 61.538 0.599 8 4.65 9.59
6/5/2022 12:45:00 PM 16.67 62.006 0.599 8.01 4.32 9.82
6/5/2022 1:00:00 PM 16.93 62.474 0.598 8.02 4.15 9.93
6/5/2022 1:15:00 PM 17.21 62.978 0.598 8.04 4.78 10.04
6/5/2022 1:30:00 PM 17.5 63.5 0.598 8.04 6.73 10.24
6/5/2022 1:45:00 PM 17.77 63.986 0.597 8.06 4.5 10.33
6/5/2022 2:00:00 PM 18.04 64.472 0.597 8.07 4.82 10.46
6/5/2022 2:15:00 PM 18.3 64.94 0.597 8.08 3.96 10.54
6/5/2022 2:30:00 PM 18.55 65.39 0.596 8.09 3.75 10.62
6/5/2022 2:45:00 PM 18.74 65.732 0.596 8.09 3.58 10.63
6/5/2022 3:00:00 PM 18.92 66.056 0.596 8.1 3.82 10.75
6/5/2022 3:15:00 PM 19.11 66.398 0.596 8.11 3.71 10.74
6/5/2022 3:30:00 PM 19.28 66.704 0.596 8.11 3.74 10.8
6/5/2022 3:45:00 PM 19.43 66.974 0.596 8.12 3.56 10.83
6/5/2022 4:00:00 PM 19.54 67.172 0.596 8.12 3.64 10.79
6/5/2022 4:15:00 PM 19.64 67.352 0.596 8.12 3.74 10.76
6/5/2022 4:30:00 PM 19.71 67.478 0.596 8.12 3.89 10.72
6/5/2022 4:45:00 PM 19.74 67.532 0.596 8.12 3.81 10.64
6/5/2022 5:00:00 PM 19.69 67.442 0.597 8.11 3.95 10.53
6/5/2022 5:15:00 PM 19.71 67.478 0.597 8.11 5.46 10.4
6/5/2022 5:30:00 PM 19.75 67.55 0.597 8.12 4.12 10.42
6/5/2022 5:45:00 PM 19.76 67.568 0.598 8.12 3.91 10.34
6/5/2022 6:00:00 PM 19.75 67.55 0.598 8.11 4.29 10.15
6/5/2022 6:15:00 PM 19.75 67.55 0.598 8.1 4.07 10.09
6/5/2022 6:30:00 PM 19.74 67.532 0.599 8.1 4.06 9.96
6/5/2022 6:45:00 PM 19.71 67.478 0.599 8.09 3.78 9.77
6/5/2022 7:00:00 PM 19.69 67.442 0.6 8.08 4.28 9.72
6/5/2022 7:15:00 PM 19.64 67.352 0.6 8.08 4.51 9.64
6/5/2022 7:30:00 PM 19.58 67.244 0.6 8.07 4.6 9.53
6/5/2022 7:45:00 PM 19.53 67.154 0.601 8.06 4.42 9.43
6/5/2022 8:00:00 PM 19.48 67.064 0.601 8.06 4.21 9.3
6/5/2022 8:15:00 PM 19.42 66.956 0.602 8.05 4.22 9.12
6/5/2022 8:30:00 PM 19.36 66.848 0.602 8.04 4.3 9.01
6/5/2022 8:45:00 PM 19.3 66.74 0.603 8.03 4.61 8.86
6/5/2022 9:00:00 PM 19.23 66.614 0.603 8.02 4.58 8.76
6/5/2022 9:15:00 PM 19.18 66.524 0.603 8.02 4.26 8.61
6/5/2022 9:30:00 PM 19.12 66.416 0.604 8.01 4.91 8.49
6/5/2022 9:45:00 PM 19.06 66.308 0.604 8 5.11 8.37
6/5/2022 10:00:00 PM 19.01 66.218 0.604 7.99 5.14 8.26
6/5/2022 10:15:00 PM 18.96 66.128 0.605 7.98 4.85 8.13
6/5/2022 10:30:00 PM 18.92 66.056 0.605 7.97 4.71 8.04
6/5/2022 10:45:00 PM 18.87 65.966 0.605 7.96 4.64 7.92
6/5/2022 11:00:00 PM 18.82 65.876 0.606 7.96 4.7 7.81
6/5/2022 11:15:00 PM 18.77 65.786 0.606 7.95 4.74 7.73
6/5/2022 11:30:00 PM 18.71 65.67799 0.606 7.94 4.87 7.64
6/5/2022 11:45:00 PM 18.64 65.552 0.606 7.93 4.6 7.55
6/6/2022 12:00:00 AM 18.57 65.426 0.607 7.93 5.02 7.49
6/6/2022 12:15:00 AM 18.51 65.318 0.607 7.92 5.25 7.38
6/6/2022 12:30:00 AM 18.43 65.174 0.607 7.91 5.03 7.33
6/6/2022 12:45:00 AM 18.36 65.048 0.607 7.91 5 7.29
6/6/2022 1:00:00 AM 18.28 64.904 0.607 7.9 5.41 7.21
6/6/2022 1:15:00 AM 18.2 64.76 0.607 7.89 5.48 7.14
6/6/2022 1:30:00 AM 18.13 64.634 0.607 7.88 5.36 7.08
6/6/2022 1:45:00 AM 18.05 64.49 0.607 7.88 5.2 7
6/6/2022 2:00:00 AM 17.97 64.346 0.608 7.87 5.37 6.99
6/6/2022 2:15:00 AM 17.89 64.202 0.608 7.87 5.3 6.95
6/6/2022 2:30:00 AM 17.81 64.058 0.608 7.86 5.38 6.89
6/6/2022 2:45:00 AM 17.73 63.914 0.608 7.86 6.02 6.86
6/6/2022 3:00:00 AM 17.65 63.77 0.608 7.85 5.75 6.85
6/6/2022 3:15:00 AM 17.58 63.644 0.608 7.85 6.02 6.81
6/6/2022 3:30:00 AM 17.5 63.5 0.608 7.84 6.22 6.79
6/6/2022 3:45:00 AM 17.43 63.374 0.608 7.84 5.69 6.77
6/6/2022 4:00:00 AM 17.35 63.23 0.608 7.83 5.59 6.74
6/6/2022 4:15:00 AM 17.28 63.104 0.608 7.83 8.43 6.75
6/6/2022 4:30:00 AM 17.2 62.96 0.607 7.82 6.45 6.71
6/6/2022 4:45:00 AM 17.12 62.816 0.608 7.82 5.4 6.7
6/6/2022 5:00:00 AM 17.05 62.69 0.608 7.82 5.54 6.7
6/6/2022 5:15:00 AM 16.97 62.546 0.608 7.82 5.63 6.7
6/6/2022 5:30:00 AM 16.88 62.384 0.608 7.81 5.78 6.68
6/6/2022 5:45:00 AM 16.8 62.24 0.608 7.81 5.56 6.71
6/6/2022 6:00:00 AM 16.71 62.078 0.608 7.81 7.97 6.73
6/6/2022 6:15:00 AM 16.62 61.916 0.608 7.81 7.72 6.76
6/6/2022 6:30:00 AM 16.54 61.772 0.608 7.81 5.86 6.75
6/6/2022 6:45:00 AM 16.46 61.628 0.608 7.81 5.68 6.77
6/6/2022 7:00:00 AM 16.39 61.502 0.608 7.81 5.74 6.83
6/6/2022 7:15:00 AM 16.32 61.376 0.608 7.81 5.46 6.82
6/6/2022 7:30:00 AM 16.26 61.268 0.609 7.81 5.69 6.92
6/6/2022 7:45:00 AM 16.21 61.178 0.609 7.81 5.81 6.93
6/6/2022 8:00:00 AM 16.16 61.088 0.609 7.82 5.59 6.99
6/6/2022 8:15:00 AM 16.11 60.998 0.609 7.82 5.43 7.03
6/6/2022 8:30:00 AM 16.07 60.926 0.673 7.82 7.93 7.12
6/6/2022 8:45:00 AM 16.04 60.872 0.61 7.82 4.81 7.14
6/6/2022 9:00:00 AM 16.02 60.836 0.618 7.82 8.06 7.25
6/6/2022 9:15:00 AM 16.04 60.872 0.61 7.83 7.43 7.32
6/6/2022 9:30:00 AM 16.08 60.944 0.61 7.84 5.06 7.41
6/6/2022 9:45:00 AM 16.15 61.07 0.61 7.85 4.52 7.55
6/6/2022 10:00:00 AM 16.24 61.232 0.61 7.85 7.36 7.72
6/6/2022 10:15:00 AM 16.36 61.448 0.611 7.86 4.48 7.84
6/6/2022 10:30:00 AM 16.46 61.628 0.611 7.87 4.51 7.98
6/6/2022 10:45:00 AM 16.6 61.88 0.611 7.89 4.43 8.1
6/6/2022 11:00:00 AM 16.77 62.186 0.611 7.9 4.68 8.27
6/6/2022 11:15:00 AM 16.96 62.528 0.611 7.91 4.19 8.46
6/6/2022 11:30:00 AM 17.15 62.87 0.611 7.93 7.58 8.66
6/6/2022 11:45:00 AM 17.36 63.248 0.61 7.95 4.25 8.9
6/6/2022 12:00:00 PM 17.58 63.644 0.61 7.96 5.06 9.08
6/6/2022 12:15:00 PM 17.81 64.058 0.61 7.97 4.37 9.25
6/6/2022 12:30:00 PM 18.06 64.508 0.61 7.99 3.97 9.41
6/6/2022 12:45:00 PM 18.31 64.958 0.61 8.01 3.89 9.59
6/6/2022 1:00:00 PM 18.56 65.408 0.609 8.01 3.91 9.74
6/6/2022 1:15:00 PM 18.84 65.912 0.609 8.03 3.89 9.92
6/6/2022 1:30:00 PM 19.09 66.362 0.609 8.04 3.92 10.04
6/6/2022 1:45:00 PM 19.26 66.668 0.609 8.05 3.88 10.11
6/6/2022 2:00:00 PM 19.52 67.136 0.608 8.07 4.12 10.28
6/6/2022 2:15:00 PM 19.79 67.622 0.608 8.08 3.68 10.4
6/6/2022 2:30:00 PM 20.02 68.036 0.608 8.09 3.88 10.56
6/6/2022 2:45:00 PM 20.26 68.468 0.607 8.1 4.16 10.69
6/6/2022 3:00:00 PM 20.44 68.792 0.607 8.11 4.49 10.75
6/6/2022 3:15:00 PM 20.57 69.026 0.607 8.12 4.65 10.79
6/6/2022 3:30:00 PM 20.66 69.188 0.606 8.13 4.54 10.84
6/6/2022 3:45:00 PM 20.75 69.35 0.606 8.14 4.36 10.87
6/6/2022 4:00:00 PM 20.8 69.44 0.606 8.14 4.56 10.82
6/6/2022 4:15:00 PM 20.83 69.494 0.606 8.14 5.2 10.8
6/6/2022 4:30:00 PM 20.9 69.62 0.606 8.15 3.93 10.83
6/6/2022 4:45:00 PM 20.96 69.728 0.605 8.15 4.16 10.82
6/6/2022 5:00:00 PM 21.01 69.818 0.605 8.16 3.91 10.79
6/6/2022 5:15:00 PM 21.05 69.89 0.605 8.16 4.06 10.72
6/6/2022 5:30:00 PM 21.08 69.944 0.605 8.16 4.27 10.69
6/6/2022 5:45:00 PM 21.11 69.998 0.605 8.16 3.73 10.59
6/6/2022 6:00:00 PM 21.13 70.034 0.605 8.15 4.09 10.5
6/6/2022 6:15:00 PM 21.13 70.034 0.606 8.15 3.73 10.42
6/6/2022 6:30:00 PM 21.12 70.016 0.606 8.14 4.01 10.23
6/6/2022 6:45:00 PM 21.1 69.98 0.606 8.13 4.12 10.09
6/6/2022 7:00:00 PM 21.09 69.962 0.607 8.13 3.85 10
6/6/2022 7:15:00 PM 21.06 69.908 0.607 8.12 4.08 9.86
6/6/2022 7:30:00 PM 21.02 69.836 0.607 8.11 3.82 9.76
6/6/2022 7:45:00 PM 20.97 69.746 0.608 8.11 4.1 9.56
6/6/2022 8:00:00 PM 20.9 69.62 0.608 8.09 4.11 9.41
6/6/2022 8:15:00 PM 20.83 69.494 0.609 8.08 4.38 9.24
6/6/2022 8:30:00 PM 20.76 69.368 0.61 8.07 4.46 9.04
6/6/2022 8:45:00 PM 20.68 69.224 0.61 8.06 4.64 8.89
6/6/2022 9:00:00 PM 20.6 69.08 0.611 8.05 4.54 8.71
6/6/2022 9:15:00 PM 20.52 68.936 0.611 8.04 4.87 8.54
6/6/2022 9:30:00 PM 20.44 68.792 0.612 8.03 4.95 8.32
6/6/2022 9:45:00 PM 20.37 68.666 0.612 8.02 4.75 8.25
6/6/2022 10:00:00 PM 20.29 68.522 0.613 8.01 4.95 8.13
6/6/2022 10:15:00 PM 20.22 68.396 0.613 8 5.13 8
6/6/2022 10:30:00 PM 20.15 68.27 0.614 7.99 6.14 7.9
6/6/2022 10:45:00 PM 20.09 68.162 0.614 7.98 4.95 7.78
6/6/2022 11:00:00 PM 20.03 68.054 0.614 7.97 4.95 7.66
6/6/2022 11:15:00 PM 19.96 67.92799 0.614 7.96 4.94 7.57
6/6/2022 11:30:00 PM 19.9 67.82 0.615 7.96 5.03 7.44
6/6/2022 11:45:00 PM 19.82 67.676 0.615 7.95 4.85 7.36
6/7/2022 12:00:00 AM 19.74 67.532 0.615 7.94 5.06 7.27
6/7/2022 12:15:00 AM 19.66 67.388 0.616 7.93 5.43 7.18
6/7/2022 12:30:00 AM 19.59 67.262 0.616 7.92 5.08 7.08
6/7/2022 12:45:00 AM 19.5 67.1 0.616 7.91 5.08 7.02
6/7/2022 1:00:00 AM 19.42 66.956 0.616 7.91 5.98 6.93
6/7/2022 1:15:00 AM 19.33 66.794 0.616 7.9 4.99 6.87
6/7/2022 1:30:00 AM 19.24 66.632 0.617 7.89 5.29 6.8
6/7/2022 1:45:00 AM 19.16 66.488 0.617 7.88 5.54 6.73
6/7/2022 2:00:00 AM 19.08 66.344 0.617 7.88 5.32 6.66
6/7/2022 2:15:00 AM 19 66.2 0.617 7.87 5.88 6.62
6/7/2022 2:30:00 AM 18.92 66.056 0.617 7.87 5.34 6.6
6/7/2022 2:45:00 AM 18.85 65.93 0.617 7.86 5.47 6.57
6/7/2022 3:00:00 AM 18.77 65.786 0.617 7.86 5.59 6.53
6/7/2022 3:15:00 AM 18.69 65.642 0.617 7.85 5.61 6.49
6/7/2022 3:30:00 AM 18.62 65.516 0.617 7.85 5.51 6.46
6/7/2022 3:45:00 AM 18.55 65.39 0.617 7.84 6 6.43
6/7/2022 4:00:00 AM 18.47 65.246 0.617 7.84 5.76 6.38
6/7/2022 4:15:00 AM 18.39 65.102 0.617 7.84 5.83 6.38
6/7/2022 4:30:00 AM 18.32 64.976 0.616 7.83 5.84 6.33
6/7/2022 4:45:00 AM 18.26 64.868 0.616 7.83 5.68 6.31
6/7/2022 5:00:00 AM 18.19 64.742 0.616 7.82 5.83 6.32
6/7/2022 5:15:00 AM 18.12 64.616 0.616 7.82 5.96 6.26
6/7/2022 5:30:00 AM 18.04 64.472 0.623 7.81 9.13 6.31
6/7/2022 5:45:00 AM 17.96 64.328 0.616 7.81 5.85 6.28
6/7/2022 6:00:00 AM 17.87 64.166 0.616 7.81 6.1 6.16
6/7/2022 6:15:00 AM 17.78 64.004 0.616 7.81 6.14 6.26
6/7/2022 6:30:00 AM 17.7 63.86 0.616 7.81 6.19 6.3
6/7/2022 6:45:00 AM 17.64 63.752 0.617 7.81 6.02 6.32
6/7/2022 7:00:00 AM 17.57 63.626 0.617 7.81 6.07 6.44
6/7/2022 7:15:00 AM 17.51 63.518 0.617 7.81 8.43 6.54
6/7/2022 7:30:00 AM 17.46 63.428 0.617 7.82 5.87 6.56
6/7/2022 7:45:00 AM 17.42 63.356 0.617 7.82 5.64 6.64
6/7/2022 8:00:00 AM 17.4 63.32 0.617 7.82 5.85 6.7
6/7/2022 8:15:00 AM 17.39 63.302 0.617 7.83 6.64 6.83
6/7/2022 8:30:00 AM 17.38 63.284 0.617 7.83 6.62 6.91
6/7/2022 8:45:00 AM 17.37 63.266 0.617 7.84 12.26 7
6/7/2022 9:00:00 AM 17.37 63.266 0.617 7.85 5.88 7.16
6/7/2022 9:15:00 AM 17.39 63.302 0.618 7.86 5.29 7.28
6/7/2022 9:30:00 AM 17.42 63.356 0.618 7.87 5.86 7.45
6/7/2022 9:45:00 AM 17.44 63.392 0.618 7.88 5.28 7.61
6/7/2022 10:00:00 AM 17.44 63.392 0.618 7.88 6.01 7.67
6/7/2022 10:15:00 AM 17.45 63.41 0.618 7.89 5.76 7.75
6/7/2022 10:30:00 AM 17.47 63.446 0.617 7.89 5.22 7.83
6/7/2022 10:45:00 AM 17.48 63.464 0.617 7.9 5.65 7.95
6/7/2022 11:00:00 AM 17.49 63.482 0.617 7.91 4.98 7.99
6/7/2022 11:15:00 AM 17.49 63.482 0.617 7.91 5.12 8.1
6/7/2022 11:30:00 AM 17.49 63.482 0.617 7.92 4.93 8.14
6/7/2022 11:45:00 AM 17.49 63.482 0.617 7.92 4.96 8.18
6/7/2022 12:00:00 PM 17.51 63.518 0.617 7.94 4.75 8.31
6/7/2022 12:15:00 PM 17.52 63.536 0.616 7.94 5.1 8.39
6/7/2022 12:30:00 PM 17.52 63.536 0.616 7.94 4.84 8.41
6/7/2022 12:45:00 PM 17.55 63.59 0.616 7.95 4.48 8.55
6/7/2022 1:00:00 PM 17.57 63.626 0.616 7.96 4.91 8.6
6/7/2022 1:15:00 PM 17.57 63.626 0.616 7.96 4.73 8.59
6/7/2022 1:30:00 PM 17.58 63.644 0.616 7.97 4.59 8.66
6/7/2022 1:45:00 PM 17.58 63.644 0.615 7.97 5.16 8.71
6/7/2022 2:00:00 PM 17.61 63.698 0.615 7.98 4.44 8.81
6/7/2022 2:15:00 PM 17.63 63.734 0.615 7.99 4.77 8.85
6/7/2022 2:30:00 PM 17.64 63.752 0.615 7.99 4.36 8.91
6/7/2022 2:45:00 PM 17.67 63.806 0.615 8 4.34 8.98
6/7/2022 3:00:00 PM 17.7 63.86 0.614 8.01 4.42 9.04
6/7/2022 3:15:00 PM 17.71 63.878 0.614 8.01 7.29 9.05
6/7/2022 3:30:00 PM 17.7 63.86 0.614 8.01 4.94 9
6/7/2022 3:45:00 PM 17.7 63.86 0.614 8.01 7.67 9.02
6/7/2022 4:00:00 PM 17.7 63.86 0.614 8.01 4.89 8.96
6/7/2022 4:15:00 PM 17.68 63.824 0.614 8.01 4.61 8.94
6/7/2022 4:30:00 PM 17.67 63.806 0.614 8 5.42 8.88
6/7/2022 4:45:00 PM 17.67 63.806 0.614 8.01 4.36 8.87
6/7/2022 5:00:00 PM 17.68 63.824 0.614 8.01 4.33 8.92
6/7/2022 5:15:00 PM 17.68 63.824 0.614 8.01 4.45 8.94
6/7/2022 5:30:00 PM 17.68 63.824 0.614 8.01 4.22 8.93
6/7/2022 5:45:00 PM 17.69 63.842 0.614 8.02 4.14 8.95
6/7/2022 6:00:00 PM 17.71 63.878 0.614 8.02 4.35 8.99
6/7/2022 6:15:00 PM 17.72 63.896 0.614 8.03 4.37 8.99
6/7/2022 6:30:00 PM 17.71 63.878 0.614 8.02 4.52 8.91
6/7/2022 6:45:00 PM 17.7 63.86 0.615 8.02 4.43 8.84
6/7/2022 7:00:00 PM 17.69 63.842 0.615 8.02 4.27 8.84
6/7/2022 7:15:00 PM 17.68 63.824 0.615 8.02 4.74 8.79
6/7/2022 7:30:00 PM 17.66 63.788 0.615 8.02 4.26 8.74
6/7/2022 7:45:00 PM 17.64 63.752 0.616 8.01 4.39 8.64
6/7/2022 8:00:00 PM 17.62 63.716 0.616 8 4.41 8.59
6/7/2022 8:15:00 PM 17.59 63.662 0.617 8 4.45 8.55
6/7/2022 8:30:00 PM 17.56 63.608 0.617 8 4.28 8.44
6/7/2022 8:45:00 PM 17.52 63.536 0.617 7.99 4.44 8.36
6/7/2022 9:00:00 PM 17.49 63.482 0.618 7.98 4.81 8.28
6/7/2022 9:15:00 PM 17.46 63.428 0.617 7.97 4.62 8.23
6/7/2022 9:30:00 PM 17.42 63.356 0.618 7.97 4.86 8.14
6/7/2022 9:45:00 PM 17.39 63.302 0.619 7.96 5.19 8.07
6/7/2022 10:00:00 PM 17.36 63.248 0.619 7.96 6.06 7.99
6/7/2022 10:15:00 PM 17.33 63.194 0.619 7.96 5.66 7.97
6/7/2022 10:30:00 PM 17.3 63.14 0.619 7.95 5.36 7.93
6/7/2022 10:45:00 PM 17.26 63.068 0.62 7.95 5.04 7.87
6/7/2022 11:00:00 PM 17.23 63.014 0.62 7.94 5.08 7.82
6/7/2022 11:15:00 PM 17.2 62.96 0.62 7.94 4.98 7.75
6/7/2022 11:30:00 PM 17.16 62.888 0.62 7.93 5.8 7.68
6/7/2022 11:45:00 PM 17.13 62.834 0.621 7.93 5.3 7.67
6/8/2022 12:00:00 AM 17.1 62.78 0.621 7.93 5.07 7.6
6/8/2022 12:15:00 AM 17.07 62.726 0.621 7.92 4.86 7.56
6/8/2022 12:30:00 AM 17.04 62.672 0.621 7.91 4.97 7.53
6/8/2022 12:45:00 AM 17 62.6 0.343 7.91 8.1 7.51
6/8/2022 1:00:00 AM 16.97 62.546 0.622 7.91 4.81 7.43
6/8/2022 1:15:00 AM 16.93 62.474 0.622 7.9 5.27 7.38
6/8/2022 1:30:00 AM 16.89 62.402 0.622 7.9 5.01 7.34
6/8/2022 1:45:00 AM 16.84 62.312 0.623 7.89 5.35 7.31
6/8/2022 2:00:00 AM 16.79 62.222 0.623 7.89 5.37 7.28
6/8/2022 2:15:00 AM 16.74 62.132 0.623 7.89 5.19 7.27
6/8/2022 2:30:00 AM 16.68 62.024 0.623 7.88 5.28 7.27
6/8/2022 2:45:00 AM 16.62 61.916 0.684 7.88 7.84 7.27
6/8/2022 3:00:00 AM 16.56 61.808 0.624 7.88 5.42 7.21
6/8/2022 3:15:00 AM 16.49 61.682 0.624 7.88 6.45 7.2
6/8/2022 3:30:00 AM 16.43 61.574 0.624 7.87 5.47 7.18
6/8/2022 3:45:00 AM 16.37 61.466 0.624 7.87 5.83 7.17
6/8/2022 4:00:00 AM 16.31 61.358 0.624 7.87 5.77 7.17
6/8/2022 4:15:00 AM 16.24 61.232 0.624 7.86 8.93 7.17
6/8/2022 4:30:00 AM 16.18 61.124 0.315 7.86 9.13 7.14
6/8/2022 4:45:00 AM 16.11 60.998 0.624 7.86 5.88 7.11
6/8/2022 5:00:00 AM 16.05 60.89 0.624 7.85 5.44 7.09
6/8/2022 5:15:00 AM 15.98 60.764 0.624 7.85 6.17 7.09
6/8/2022 5:30:00 AM 15.92 60.656 0.624 7.85 6.03 7.05
6/8/2022 5:45:00 AM 15.85 60.53 0.624 7.85 5.62 7.08
6/8/2022 6:00:00 AM 15.79 60.422 0.487 7.85 9.1 7.11
6/8/2022 6:15:00 AM 15.72 60.296 0.624 7.85 9.62 7.14
6/8/2022 6:30:00 AM 15.66 60.188 0.624 7.85 5.66 7.13
6/8/2022 6:45:00 AM 15.6 60.08 0.624 7.85 5.82 7.15
6/8/2022 7:00:00 AM 15.54 59.972 0.624 7.85 5.8 7.18
6/8/2022 7:15:00 AM 15.48 59.864 0.624 7.85 5.37 7.19
6/8/2022 7:30:00 AM 15.43 59.774 0.624 7.85 5.97 7.23
6/8/2022 7:45:00 AM 15.38 59.684 0.624 7.85 6.51 7.26
6/8/2022 8:00:00 AM 15.33 59.594 0.623 7.85 5.79 7.25
6/8/2022 8:15:00 AM 15.28 59.504 0.623 7.85 5.91 7.31
6/8/2022 8:30:00 AM 15.25 59.45 0.623 7.85 5.86 7.38
6/8/2022 8:45:00 AM 15.24 59.432 0.623 7.86 5.56 7.49
6/8/2022 9:00:00 AM 15.26 59.468 0.623 7.87 5.86 7.63
6/8/2022 9:15:00 AM 15.28 59.504 0.622 7.88 5.39 7.79
6/8/2022 9:30:00 AM 15.3 59.54 0.622 7.88 5.82 7.88
6/8/2022 9:45:00 AM 15.34 59.612 0.622 7.89 5.26 8.04
6/8/2022 10:00:00 AM 15.38 59.684 0.622 7.91 4.96 8.2
6/8/2022 10:15:00 AM 15.43 59.774 0.621 7.92 5.12 8.34
6/8/2022 10:30:00 AM 15.54 59.972 0.621 7.93 4.79 8.53
6/8/2022 10:45:00 AM 15.65 60.17 0.621 7.95 4.79 8.73
6/8/2022 11:00:00 AM 15.79 60.422 0.621 7.96 4.71 8.93
6/8/2022 11:15:00 AM 15.95 60.71 0.62 7.97 7.35 9.12
6/8/2022 11:30:00 AM 16.02 60.836 0.292 7.99 7.96 9.28
6/8/2022 11:45:00 AM 16.05 60.89 0.305 8 7.82 9.39
6/8/2022 12:00:00 PM 16.29 61.322 0.619 8.02 4.75 9.58
6/8/2022 12:15:00 PM 16.4 61.52 0.619 8.03 4.9 9.74
6/8/2022 12:30:00 PM 16.47 61.646 0.619 8.04 4.68 9.82
6/8/2022 12:45:00 PM 16.68 62.024 0.619 8.05 4.48 10
6/8/2022 1:00:00 PM 16.85 62.33 0.618 8.07 4.83 10.15
6/8/2022 1:15:00 PM 16.85 62.33 0.619 8.07 8.45 10.19
6/8/2022 1:30:00 PM 16.98 62.564 0.618 8.08 4.87 10.26
6/8/2022 1:45:00 PM 17.21 62.978 0.618 8.1 5.34 10.46
6/8/2022 2:00:00 PM 17.51 63.518 0.618 8.12 4.79 10.7
6/8/2022 2:15:00 PM 17.82 64.076 0.617 8.14 4.88 10.85
6/8/2022 2:30:00 PM 18.2 64.76 0.617 8.15 5.34 11.06
6/8/2022 2:45:00 PM 18.52 65.336 0.617 8.16 5.11 11.18
6/8/2022 3:00:00 PM 18.71 65.67799 0.617 8.17 4.69 11.23
6/8/2022 3:15:00 PM 18.83 65.894 0.617 8.17 4.32 11.23
6/8/2022 3:30:00 PM 18.94 66.092 0.616 8.18 4.5 11.28
6/8/2022 3:45:00 PM 19.08 66.344 0.616 8.19 4.79 11.32
6/8/2022 4:00:00 PM 19.17 66.506 0.616 8.2 4.35 11.36
6/8/2022 4:15:00 PM 19.22 66.596 0.616 8.2 4.38 11.34
6/8/2022 4:30:00 PM 19.31 66.758 0.616 8.2 5.17 11.31
6/8/2022 4:45:00 PM 19.35 66.83 0.616 8.2 4.75 11.24
6/8/2022 5:00:00 PM 19.38 66.884 0.615 8.2 6.82 11.17
6/8/2022 5:15:00 PM 19.4 66.92 0.615 8.2 4.29 11.1
6/8/2022 5:30:00 PM 19.4 66.92 0.615 8.19 4.81 11.03
6/8/2022 5:45:00 PM 19.4 66.92 0.615 8.19 4.48 10.89
6/8/2022 6:00:00 PM 19.41 66.938 0.615 8.18 5.13 10.78
6/8/2022 6:15:00 PM 19.42 66.956 0.615 8.18 4.49 10.67
6/8/2022 6:30:00 PM 19.48 67.064 0.615 8.17 4.29 10.59
6/8/2022 6:45:00 PM 19.54 67.172 0.615 8.17 4.56 10.46
6/8/2022 7:00:00 PM 19.59 67.262 0.615 8.16 4.41 10.39
6/8/2022 7:15:00 PM 19.62 67.316 0.615 8.15 4.8 10.23
6/8/2022 7:30:00 PM 19.63 67.334 0.615 8.14 4.45 10.09
6/8/2022 7:45:00 PM 19.61 67.298 0.615 8.13 4.27 9.9
6/8/2022 8:00:00 PM 19.57 67.226 0.615 8.12 4.12 9.74
6/8/2022 8:15:00 PM 19.53 67.154 0.615 8.11 4.28 9.58
6/8/2022 8:30:00 PM 19.46 67.028 0.616 8.1 4.24 9.43
6/8/2022 8:45:00 PM 19.39 66.902 0.616 8.09 4.49 9.29
6/8/2022 9:00:00 PM 19.31 66.758 0.616 8.08 5.54 9.11
6/8/2022 9:15:00 PM 19.23 66.614 0.616 8.06 10.35 8.97
6/8/2022 9:30:00 PM 19.15 66.47 0.617 8.05 7.32 8.83
6/8/2022 9:45:00 PM 19.08 66.344 0.617 8.04 8.04 8.67
6/8/2022 10:00:00 PM 19.01 66.218 0.617 8.03 8.58 8.55
6/8/2022 10:15:00 PM 18.95 66.11 0.617 8.02 6.03 8.41
6/8/2022 10:30:00 PM 18.9 66.02 0.618 8.01 7.31 8.29
6/8/2022 10:45:00 PM 18.86 65.948 0.618 8 5.59 8.18
6/8/2022 11:00:00 PM 18.83 65.894 0.618 8 5.23 8.09
6/8/2022 11:15:00 PM 18.79 65.82201 0.619 7.99 6.36 7.96
6/8/2022 11:30:00 PM 18.76 65.768 0.619 7.98 5 7.86
6/8/2022 11:45:00 PM 18.73 65.714 0.619 7.97 5.03 7.76
6/9/2022 12:00:00 AM 18.7 65.66 0.619 7.96 5.33 7.68
6/9/2022 12:15:00 AM 18.66 65.588 0.62 7.96 4.82 7.59
6/9/2022 12:30:00 AM 18.62 65.516 0.62 7.95 4.67 7.52
6/9/2022 12:45:00 AM 18.58 65.444 0.62 7.94 4.72 7.43
6/9/2022 1:00:00 AM 18.54 65.372 0.62 7.93 5.07 7.34
6/9/2022 1:15:00 AM 18.48 65.264 0.62 7.93 5.15 7.27
6/9/2022 1:30:00 AM 18.41 65.138 0.618 7.92 5.43 7.24
6/9/2022 1:45:00 AM 18.33 64.994 0.616 7.92 5.63 7.22
6/9/2022 2:00:00 AM 18.22 64.796 0.611 7.92 8.19 7.23
6/9/2022 2:15:00 AM 18.09 64.562 0.603 7.93 9.96 7.3
6/9/2022 2:30:00 AM 17.98 64.364 0.596 7.92 11.92 7.36
6/9/2022 2:45:00 AM 17.81 64.058 0.602 7.93 26.14 7.52
6/9/2022 3:00:00 AM 17.74 63.932 0.592 7.92 18.41 7.49
6/9/2022 3:15:00 AM 17.67 63.806 0.589 7.92 20.53 7.44
6/9/2022 3:30:00 AM 17.59 63.662 0.592 7.92 21.56 7.46
6/9/2022 3:45:00 AM 17.52 63.536 0.585 7.92 28.24 7.46
6/9/2022 4:00:00 AM 17.46 63.428 0.582 7.92 19.25 7.45
6/9/2022 4:15:00 AM 17.41 63.338 0.579 7.91 17.68 7.38
6/9/2022 4:30:00 AM 17.35 63.23 0.576 7.91 16.67 7.34
6/9/2022 4:45:00 AM 17.29 63.122 0.573 7.9 17.31 7.29
6/9/2022 5:00:00 AM 17.22 62.996 0.57 7.89 17.45 7.25
6/9/2022 5:15:00 AM 17.13 62.834 0.565 7.88 19.17 7.24
6/9/2022 5:30:00 AM 17.02 62.636 0.559 7.88 19.52 7.25
6/9/2022 5:45:00 AM 16.91 62.438 0.558 7.87 19.88 7.28
6/9/2022 6:00:00 AM 16.82 62.276 0.556 7.87 24.17 7.33
6/9/2022 6:15:00 AM 16.72 62.096 0.552 7.88 33.84 7.43
6/9/2022 6:30:00 AM 16.62 61.916 0.54 7.88 30.42 7.52
6/9/2022 6:45:00 AM 16.53 61.754 0.525 7.88 39.77 7.61
6/9/2022 7:00:00 AM 16.45 61.61 0.515 7.87 40.79 7.69
6/9/2022 7:15:00 AM 16.37 61.466 0.513 7.85 53.14 7.79
6/9/2022 7:30:00 AM 16.28 61.304 0.507 7.84 63.17 7.89
6/9/2022 7:45:00 AM 16.18 61.124 0.501 7.85 61.52 8.03
6/9/2022 8:00:00 AM 15.99 60.782 0.519 7.83 60.86 8.12
6/9/2022 8:15:00 AM 15.8 60.44 0.447 7.79 79 8.19
6/9/2022 8:30:00 AM 15.62 60.116 0.42 7.74 92.73 8.2
6/9/2022 8:45:00 AM 15.52 59.936 0.378 7.7 123.79 8.21
6/9/2022 9:00:00 AM 15.56 60.008 0.299 7.65 179.99 8.3
6/9/2022 9:15:00 AM 15.74 60.332 0.259 7.61 215.57 8.33
6/9/2022 9:30:00 AM 16.09 60.962 0.251 7.59 211.42 8.22
6/9/2022 9:45:00 AM 16.33 61.394 0.227 7.56 173 8.18
6/9/2022 10:00:00 AM 16.32 61.376 0.213 7.53 157.32 8.26
6/9/2022 10:15:00 AM 16.1 60.98 0.207 7.48 161.33 8.38
6/9/2022 10:30:00 AM 15.84 60.512 0.2 7.45 160.4 8.5
6/9/2022 10:45:00 AM 15.67 60.206 0.11 7.43 160.09 8.6
6/9/2022 11:00:00 AM 15.58 60.044 0.188 7.43 162.1 8.65
6/9/2022 11:15:00 AM 15.53 59.954 0.185 7.41 162.96 8.68
6/9/2022 11:30:00 AM 15.5 59.9 0.18 7.41 130.9 8.7
6/9/2022 11:45:00 AM 15.5 59.9 0.18 7.41 126.34 8.72
6/9/2022 12:00:00 PM 15.51 59.918 0.18 7.43 123.07 8.72
6/9/2022 12:15:00 PM 15.51 59.918 0.181 7.43 114.25 8.72
6/9/2022 12:30:00 PM 15.54 59.972 0.183 7.44 116.11 8.72
6/9/2022 12:45:00 PM 15.56 60.008 0.186 7.44 94.94 8.72
6/9/2022 1:00:00 PM 15.63 60.134 0.189 7.45 100.24 8.71
6/9/2022 1:15:00 PM 15.69 60.242 0.192 7.46 87.25 8.7
6/9/2022 1:30:00 PM 15.75 60.35 0.194 7.47 76.95 8.69
6/9/2022 1:45:00 PM 15.81 60.458 0.197 7.48 70.06 8.69
6/9/2022 2:00:00 PM 15.84 60.512 0.199 7.49 67.26 8.68
6/9/2022 2:15:00 PM 15.88 60.584 0.201 7.5 63.01 8.68
6/9/2022 2:30:00 PM 16 60.8 0.203 7.5 60.82 8.69
6/9/2022 2:45:00 PM 16.15 61.07 0.205 7.51 54.97 8.69
6/9/2022 3:00:00 PM 16.27 61.286 0.206 7.52 51.49 8.7
6/9/2022 3:15:00 PM 16.35 61.43 0.208 7.53 49.61 8.71
6/9/2022 3:30:00 PM 16.47 61.646 0.21 7.54 51.47 8.71
6/9/2022 3:45:00 PM 16.57 61.826 0.212 7.55 45.16 8.72
6/9/2022 4:00:00 PM 16.58 61.844 0.214 7.55 45.26 8.72
6/9/2022 4:15:00 PM 16.61 61.898 0.217 7.56 42.2 8.72
6/9/2022 4:30:00 PM 16.59 61.862 0.219 7.57 41.26 8.72
6/9/2022 4:45:00 PM 16.59 61.862 0.221 7.58 35.95 8.72
6/9/2022 5:00:00 PM 16.6 61.88 0.223 7.59 36.92 8.73
6/9/2022 5:15:00 PM 16.65 61.97 0.225 7.6 37.26 8.74
6/9/2022 5:30:00 PM 16.67 62.006 0.228 7.61 33.15 8.73
6/9/2022 5:45:00 PM 16.71 62.078 0.23 7.61 32.38 8.73
6/9/2022 6:00:00 PM 16.75 62.15 0.232 7.62 30.49 8.73
6/9/2022 6:15:00 PM 16.77 62.186 0.235 7.62 29.37 8.71
6/9/2022 6:30:00 PM 16.78 62.204 0.237 7.63 27.31 8.71
6/9/2022 6:45:00 PM 16.77 62.186 0.24 7.63 26.65 8.7
6/9/2022 7:00:00 PM 16.76 62.168 0.242 7.64 26.54 8.67
6/9/2022 7:15:00 PM 16.75 62.15 0.245 7.65 24.34 8.67
6/9/2022 7:30:00 PM 16.73 62.114 0.247 7.65 24.15 8.65
6/9/2022 7:45:00 PM 16.7 62.06 0.25 7.65 23.36 8.63
6/9/2022 8:00:00 PM 16.69 62.042 0.252 7.65 22.4 8.61
6/9/2022 8:15:00 PM 16.67 62.006 0.254 7.65 20.83 8.6
6/9/2022 8:30:00 PM 16.65 61.97 0.257 7.66 21.32 8.58
6/9/2022 8:45:00 PM 16.63 61.934 0.259 7.66 20.87 8.57
6/9/2022 9:00:00 PM 16.62 61.916 0.261 7.66 19.94 8.56
6/9/2022 9:15:00 PM 16.59 61.862 0.263 7.66 20.72 8.54
6/9/2022 9:30:00 PM 16.56 61.808 0.265 7.66 19.93 8.52
6/9/2022 9:45:00 PM 16.52 61.736 0.268 7.67 19.26 8.51
6/9/2022 10:00:00 PM 16.48 61.664 0.264 7.66 20.32 8.51
6/9/2022 10:15:00 PM 16.43 61.574 0.272 7.67 19.04 8.49
6/9/2022 10:30:00 PM 16.39 61.502 0.275 7.67 17.63 8.48
6/9/2022 10:45:00 PM 16.35 61.43 0.157 7.67 21.53 8.49
6/9/2022 11:00:00 PM 16.3 61.34 0.279 7.67 17.51 8.46
6/9/2022 11:15:00 PM 16.27 61.286 0.278 7.67 20.41 8.47
6/9/2022 11:30:00 PM 16.23 61.214 0.283 7.67 16.1 8.45
6/9/2022 11:45:00 PM 16.19 61.142 0.284 7.67 16.37 8.43
6/10/2022 12:00:00 AM 16.16 61.088 0.286 7.67 15.98 8.42
6/10/2022 12:15:00 AM 16.13 61.034 0.287 7.68 15.55 8.41
6/10/2022 12:30:00 AM 16.1 60.98 0.289 7.67 15.97 8.41
6/10/2022 12:45:00 AM 16.08 60.944 0.29 7.67 16.1 8.39
6/10/2022 1:00:00 AM 16.04 60.872 0.292 7.67 15.32 8.4
6/10/2022 1:15:00 AM 16.01 60.818 0.294 7.67 15.02 8.39
6/10/2022 1:30:00 AM 15.98 60.764 0.296 7.67 15.94 8.4
6/10/2022 1:45:00 AM 15.93 60.674 0.297 7.67 14.86 8.37
6/10/2022 2:00:00 AM 15.88 60.584 0.299 7.68 14.62 8.39
6/10/2022 2:15:00 AM 15.83 60.494 0.297 7.68 14.13 8.4
6/10/2022 2:30:00 AM 15.78 60.404 0.303 7.68 14.76 8.41
6/10/2022 2:45:00 AM 15.73 60.314 0.304 7.68 13.75 8.4
6/10/2022 3:00:00 AM 15.68 60.224 0.303 7.68 13.66 8.42
6/10/2022 3:15:00 AM 15.63 60.134 0.307 7.69 13.31 8.43
6/10/2022 3:30:00 AM 15.58 60.044 0.308 7.69 14.81 8.43
6/10/2022 3:45:00 AM 15.53 59.954 0.206 7.69 26.41 8.43
6/10/2022 4:00:00 AM 15.48 59.864 0.311 7.69 14.11 8.44
6/10/2022 4:15:00 AM 15.43 59.774 0.312 7.69 15.15 8.44
6/10/2022 4:30:00 AM 15.38 59.684 0.313 7.69 13.15 8.42
6/10/2022 4:45:00 AM 15.32 59.576 0.315 7.69 13.37 8.43
6/10/2022 5:00:00 AM 15.27 59.486 0.316 7.69 13.51 8.43
6/10/2022 5:15:00 AM 15.22 59.396 0.317 7.69 15.5 8.42
6/10/2022 5:30:00 AM 15.16 59.288 0.319 7.69 12.92 8.44
6/10/2022 5:45:00 AM 15.1 59.18 0.32 7.7 12.55 8.46
6/10/2022 6:00:00 AM 15.05 59.09 0.322 7.7 12.39 8.46
6/10/2022 6:15:00 AM 15 59 0.324 7.7 12.11 8.47
6/10/2022 6:30:00 AM 14.95 58.91 0.326 7.7 13.09 8.5
6/10/2022 6:45:00 AM 14.9 58.82 0.328 7.71 11.88 8.5
6/10/2022 7:00:00 AM 14.84 58.712 0.33 7.71 11.28 8.52
6/10/2022 7:15:00 AM 14.79 58.622 0.332 7.71 10.87 8.51
6/10/2022 7:30:00 AM 14.75 58.55 0.333 7.71 13.66 8.56
6/10/2022 7:45:00 AM 14.7 58.46 0.335 7.72 10.41 8.55
6/10/2022 8:00:00 AM 14.65 58.37 0.337 7.72 11.91 8.56
6/10/2022 8:15:00 AM 14.61 58.298 0.339 7.73 10.42 8.6
6/10/2022 8:30:00 AM 14.57 58.226 0.34 7.73 12.69 8.65
6/10/2022 8:45:00 AM 14.54 58.172 0.3 7.73 11.71 8.68
6/10/2022 9:00:00 AM 14.52 58.136 0.344 7.74 9.87 8.69
6/10/2022 9:15:00 AM 14.53 58.154 0.345 7.74 12.28 8.76
6/10/2022 9:30:00 AM 14.56 58.208 0.347 7.75 9.6 8.77
6/10/2022 9:45:00 AM 14.61 58.298 0.348 7.76 8.96 8.86
6/10/2022 10:00:00 AM 14.68 58.424 0.35 7.77 9.21 8.94
6/10/2022 10:15:00 AM 14.79 58.622 0.352 7.78 10.47 9.04
6/10/2022 10:30:00 AM 14.9 58.82 0.353 7.8 8.67